Darstellungsparameter: Aktuell verwendete Einstellungen:
Skalierung der Graphiken ... ?
xyx+y,   Skalierungsfaktor:      Skalierung: Modus: x, Faktor: 1
Darstellungszeitraum ... ?
Vom - - bis: - -   Zeitraum: 03.03.2020 - 31.03.2020
Min/Max/Avg-Anzeige ... ?
Zeige MMA aktuell
Zeige MMA Monat
Zeige MMA alles
Zeige --A aktuell
Zeige --A Monat
Zeige --A alles
Keine MMA-Anzeige
MMA:
Minimum Maximum Average (ber die Originaldaten)
MMA-Basis: 01.03.2020 - 01.04.2020
Quicknavigation für Darstellung... ?
Tage:      1T, 2T, 3T, 5T -1T -2T -3T -5T +1T +2T +3T +5T
Wochen: 1W, 2W, 3W -1W -2W -3W +1W +2W +3W
Monate: 1M, 3M, 6M -1M -3M -6M +1M +3M +6M
Jahre:    1J, 3J, 5J, 10J -1J -3J -5J -10J +1J +3J +5J +10J
Nutze für die Darstellung ... ?
Originaldaten oder Mittelwerte auf ...
Stundenbasis Tagesbasis Wochenbasis
Monatsbasis Jahresbasis      Datenbasis: Original-Daten
Darstellen als:
Statistik (Auto) Statistik J:M      Darstellung:
Zur Graphik,    zurück zur Übersicht aller Sensoren.
 
Tabellarische Datenbersicht: ?
 
Sensor: Nr:Datum:Temp:Feuchte:
Aussen-T/F 1 03-03-2020 00:08:18 5.2 C 45 %
2 03-03-2020 00:18:18 5.1 C 44 %
3 03-03-2020 00:28:18 5 C 44 %
4 03-03-2020 00:38:18 5 C 44 %
5 03-03-2020 00:48:17 4.9 C 45 %
6 03-03-2020 00:58:17 4.9 C 45 %
7 03-03-2020 01:08:17 5.1 C 44 %
8 03-03-2020 01:18:17 5 C 43 %
9 03-03-2020 01:28:17 5 C 43 %
10 03-03-2020 01:38:18 4.6 C 41 %
11 03-03-2020 01:48:17 4.5 C 42 %
12 03-03-2020 01:58:17 4.4 C 43 %
13 03-03-2020 02:08:17 4.4 C 43 %
14 03-03-2020 02:18:17 4.2 C 42 %
15 03-03-2020 02:28:17 4.1 C 41 %
16 03-03-2020 02:38:18 4.1 C 41 %
17 03-03-2020 02:48:18 4.1 C 41 %
18 03-03-2020 02:58:18 3.9 C 42 %
19 03-03-2020 03:08:17 3.8 C 41 %
20 03-03-2020 03:18:17 3.7 C 40 %
21 03-03-2020 03:28:17 3.4 C 41 %
22 03-03-2020 03:38:18 3.5 C 41 %
23 03-03-2020 03:48:18 3 C 42 %
24 03-03-2020 03:58:18 3.1 C 42 %
25 03-03-2020 04:08:17 2.8 C 43 %
Sensor: Nr:Datum:Temp:Feuchte:
Aussen-T/F 26 03-03-2020 04:18:17 3.2 C 41 %
27 03-03-2020 04:28:17 3.2 C 41 %
28 03-03-2020 04:38:18 2.9 C 42 %
29 03-03-2020 04:48:17 2.9 C 43 %
30 03-03-2020 04:58:18 3.2 C 41 %
31 03-03-2020 05:08:18 3.1 C 41 %
32 03-03-2020 05:18:18 2.7 C 43 %
33 03-03-2020 05:28:18 2.3 C 44 %
34 03-03-2020 05:38:17 2.6 C 43 %
35 03-03-2020 05:48:18 2.7 C 42 %
36 03-03-2020 05:58:18 2.4 C 44 %
37 03-03-2020 06:08:17 3 C 42 %
38 03-03-2020 06:18:18 3.1 C 41 %
39 03-03-2020 06:28:18 2.8 C 42 %
40 03-03-2020 06:38:17 2.6 C 43 %
41 03-03-2020 06:48:18 2.7 C 42 %
42 03-03-2020 06:58:18 2.8 C 42 %
43 03-03-2020 07:08:18 2.8 C 42 %
44 03-03-2020 07:18:18 2.6 C 43 %
45 03-03-2020 07:28:18 2.7 C 43 %
46 03-03-2020 07:38:18 2.6 C 43 %
47 03-03-2020 07:48:17 2.5 C 43 %
48 03-03-2020 07:58:17 2.5 C 43 %
49 03-03-2020 08:08:18 2.7 C 43 %
50 03-03-2020 08:18:18 3.3 C 41 %
Sensor: Nr:Datum:Temp:Feuchte:
Aussen-T/F 51 03-03-2020 08:28:18 3.2 C 41 %
52 03-03-2020 08:38:17 3.5 C 40 %
53 03-03-2020 08:48:17 3.6 C 40 %
54 03-03-2020 08:58:18 3.4 C 40 %
55 03-03-2020 09:08:18 3.5 C 40 %
56 03-03-2020 09:18:17 3.2 C 40 %
57 03-03-2020 09:28:17 3.5 C 40 %
58 03-03-2020 09:38:17 3.6 C 40 %
59 03-03-2020 09:48:18 4.1 C 39 %
60 03-03-2020 09:58:18 4.6 C 38 %
61 03-03-2020 10:08:18 5.3 C 36 %
62 03-03-2020 10:18:18 5.1 C 36 %
63 03-03-2020 10:28:18 5.2 C 35 %
64 03-03-2020 10:38:18 5.4 C 35 %
65 03-03-2020 10:48:17 4.9 C 35 %
66 03-03-2020 10:58:18 5 C 35 %
67 03-03-2020 11:08:17 5.2 C 35 %
68 03-03-2020 11:18:17 5.2 C 35 %
69 03-03-2020 11:28:17 5.3 C 35 %
70 03-03-2020 11:38:17 5.1 C 35 %
71 03-03-2020 11:48:17 5.8 C 35 %
72 03-03-2020 11:58:17 5.7 C 35 %
73 03-03-2020 12:08:17 6.1 C 35 %
74 03-03-2020 12:18:17 6.4 C 34 %
75 03-03-2020 12:28:17 6.6 C 34 %
Sensor: Nr:Datum:Temp:Feuchte:
Aussen-T/F 76 03-03-2020 12:38:17 6.5 C 33 %
77 03-03-2020 12:48:17 7.1 C 33 %
78 03-03-2020 12:58:17 6.6 C 33 %
79 03-03-2020 13:08:17 6.6 C 33 %
80 03-03-2020 13:18:17 9.6 C 28 %
81 03-03-2020 13:28:18 9.8 C 27 %
82 03-03-2020 13:38:18 8.9 C 27 %
83 03-03-2020 13:48:17 9.7 C 25 %
84 03-03-2020 13:58:17 6.2 C 31 %
85 03-03-2020 14:08:18 5.8 C 35 %
86 03-03-2020 14:18:18 5.4 C 39 %
87 03-03-2020 14:28:18 5.7 C 38 %
88 03-03-2020 14:38:18 5 C 37 %
89 03-03-2020 14:48:18 4.7 C 39 %
90 03-03-2020 14:58:18 4.7 C 40 %
91 03-03-2020 15:08:18 4.7 C 39 %
92 03-03-2020 15:18:18 6.8 C 36 %
93 03-03-2020 15:28:18 6.9 C 35 %
94 03-03-2020 15:38:18 8.9 C 32 %
95 03-03-2020 15:48:17 8.9 C 30 %
96 03-03-2020 15:58:17 7.4 C 32 %
97 03-03-2020 16:08:18 11.8 C 23 %
98 03-03-2020 16:18:18 9.3 C 25 %
99 03-03-2020 16:28:18 7.4 C 30 %
100 03-03-2020 16:38:18 7.2 C 30 %
Sensor: Nr:Datum:Temp:Feuchte:
Aussen-T/F 101 03-03-2020 16:48:17 7.3 C 31 %
102 03-03-2020 16:58:17 7.6 C 30 %
103 03-03-2020 17:08:17 6.7 C 32 %
104 03-03-2020 17:18:17 6.7 C 33 %
105 03-03-2020 17:28:18 6.5 C 34 %
106 03-03-2020 17:38:18 6.4 C 34 %
107 03-03-2020 17:48:17 6 C 35 %
108 03-03-2020 17:58:18 5.4 C 36 %
109 03-03-2020 18:08:18 4.3 C 38 %
110 03-03-2020 18:18:18 4.4 C 39 %
111 03-03-2020 18:28:18 4 C 39 %
112 03-03-2020 18:38:18 3.7 C 41 %
113 03-03-2020 18:48:17 3.5 C 41 %
114 03-03-2020 18:58:17 3.6 C 41 %
115 03-03-2020 19:08:17 3.6 C 40 %
116 03-03-2020 19:18:17 3.8 C 40 %
117 03-03-2020 19:28:17 3.1 C 41 %
118 03-03-2020 19:38:17 3.2 C 41 %
119 03-03-2020 19:48:17 2.7 C 42 %
120 03-03-2020 19:58:17 2.3 C 42 %
121 03-03-2020 20:08:17 1.7 C 45 %
122 03-03-2020 20:18:17 1.8 C 47 %
123 03-03-2020 20:28:17 1.7 C 47 %
124 03-03-2020 20:38:17 1.3 C 46 %
125 03-03-2020 20:48:17 1.4 C 47 %
Sensor: Nr:Datum:Temp:Feuchte:
Aussen-T/F 126 03-03-2020 20:58:17 1.3 C 47 %
127 03-03-2020 21:08:17 1.2 C 47 %
128 03-03-2020 21:18:17 1.6 C 48 %
129 03-03-2020 21:28:17 2 C 47 %
130 03-03-2020 21:38:17 2.1 C 45 %
131 03-03-2020 21:48:17 2 C 45 %
132 03-03-2020 21:58:17 2.2 C 45 %
133 03-03-2020 22:08:17 1.9 C 46 %
134 03-03-2020 22:18:17 1.5 C 46 %
135 03-03-2020 22:28:17 1.4 C 47 %
136 03-03-2020 22:38:17 1.2 C 47 %
137 03-03-2020 22:48:17 1 C 47 %
138 03-03-2020 22:58:17 1.2 C 48 %
139 03-03-2020 23:08:17 1.7 C 48 %
140 03-03-2020 23:18:18 2.3 C 46 %
141 03-03-2020 23:28:18 2.4 C 44 %
142 03-03-2020 23:38:17 2.6 C 44 %
143 03-03-2020 23:48:17 2.7 C 43 %
144 03-03-2020 23:58:17 2.8 C 43 %
145 04-03-2020 00:08:17 3.1 C 42 %
146 04-03-2020 00:18:18 3 C 41 %
147 04-03-2020 00:28:18 2.9 C 42 %
148 04-03-2020 00:38:18 3.1 C 41 %
149 04-03-2020 00:48:17 2.5 C 42 %
150 04-03-2020 00:58:17 2.3 C 44 %
Sensor: Nr:Datum:Temp:Feuchte:
Aussen-T/F 151 04-03-2020 01:08:17 2.6 C 43 %
152 04-03-2020 01:18:17 2.6 C 42 %
153 04-03-2020 01:28:17 2.4 C 42 %
154 04-03-2020 01:38:17 2.5 C 42 %
155 04-03-2020 01:48:17 2.6 C 42 %
156 04-03-2020 01:58:17 2.6 C 42 %
157 04-03-2020 02:08:17 2.7 C 42 %
158 04-03-2020 02:18:17 2.8 C 42 %
159 04-03-2020 02:28:18 2.7 C 42 %
160 04-03-2020 02:38:18 3.2 C 41 %
161 04-03-2020 02:48:17 3.6 C 40 %
162 04-03-2020 02:58:18 3.4 C 40 %
163 04-03-2020 03:08:17 3.3 C 40 %
164 04-03-2020 03:18:17 3 C 41 %
165 04-03-2020 03:28:17 3.2 C 41 %
166 04-03-2020 03:38:17 2.9 C 42 %
167 04-03-2020 03:48:17 2.6 C 42 %
168 04-03-2020 03:58:18 2.5 C 44 %
169 04-03-2020 04:08:18 3.4 C 41 %
170 04-03-2020 04:18:18 3.4 C 41 %
171 04-03-2020 04:28:18 3.6 C 40 %
172 04-03-2020 04:38:18 3.6 C 40 %
173 04-03-2020 04:48:17 3.7 C 40 %
174 04-03-2020 04:58:18 3.5 C 41 %
175 04-03-2020 05:08:18 3.4 C 41 %
Sensor: Nr:Datum:Temp:Feuchte:
Aussen-T/F 176 04-03-2020 05:18:18 3.2 C 42 %
177 04-03-2020 05:28:18 3.1 C 44 %
178 04-03-2020 05:38:18 3.2 C 44 %
179 04-03-2020 05:48:17 3.2 C 43 %
180 04-03-2020 05:58:18 3.2 C 43 %
181 04-03-2020 06:08:18 3.3 C 43 %
182 04-03-2020 06:18:18 3.3 C 42 %
183 04-03-2020 06:28:18 3.4 C 42 %
184 04-03-2020 06:38:18 3.6 C 42 %
185 04-03-2020 06:48:17 3.6 C 42 %
186 04-03-2020 06:58:17 3.7 C 41 %
187 04-03-2020 07:08:17 3.7 C 41 %
188 04-03-2020 07:18:17 3.9 C 41 %
189 04-03-2020 07:28:17 3.9 C 41 %
190 04-03-2020 07:38:18 4 C 40 %
191 04-03-2020 07:48:17 3.9 C 41 %
192 04-03-2020 07:58:17 3.7 C 41 %
193 04-03-2020 08:08:18 3.3 C 42 %
194 04-03-2020 08:18:17 3.4 C 42 %
195 04-03-2020 08:28:17 3.8 C 41 %
196 04-03-2020 08:38:18 3.7 C 41 %
197 04-03-2020 08:48:18 4.1 C 40 %
198 04-03-2020 08:58:18 3.7 C 41 %
199 04-03-2020 09:08:18 3.9 C 41 %
200 04-03-2020 09:18:18 4.2 C 40 %
Sensor: Nr:Datum:Temp:Feuchte:
Aussen-T/F 201 04-03-2020 09:28:18 4.6 C 40 %
202 04-03-2020 09:38:18 4.7 C 39 %
203 04-03-2020 09:48:17 5.1 C 38 %
204 04-03-2020 09:58:18 5.4 C 37 %
205 04-03-2020 10:08:18 5.6 C 37 %
206 04-03-2020 10:18:18 5.8 C 37 %
207 04-03-2020 10:28:18 6 C 36 %
208 04-03-2020 10:38:17 6.6 C 36 %
209 04-03-2020 10:48:18 6.4 C 36 %
210 04-03-2020 10:58:18 6.5 C 36 %
211 04-03-2020 11:08:18 6.8 C 35 %
212 04-03-2020 11:18:18 7.7 C 34 %
213 04-03-2020 11:28:18 8.2 C 33 %
214 04-03-2020 11:38:18 8.3 C 32 %
215 04-03-2020 11:48:18 8.8 C 32 %
216 04-03-2020 11:58:18 9.5 C 31 %
217 04-03-2020 12:08:18 9.6 C 31 %
218 04-03-2020 12:18:18 10.1 C 30 %
219 04-03-2020 12:28:18 9 C 30 %
220 04-03-2020 12:38:18 9.9 C 29 %
221 04-03-2020 12:48:17 10.9 C 28 %
222 04-03-2020 12:58:17 9.1 C 29 %
223 04-03-2020 13:08:17 9.3 C 28 %
224 04-03-2020 13:18:17 9.4 C 28 %
225 04-03-2020 13:28:17 10.7 C 27 %
Sensor: Nr:Datum:Temp:Feuchte:
Aussen-T/F 226 04-03-2020 13:38:18 9.5 C 28 %
227 04-03-2020 13:48:17 9.6 C 28 %
228 04-03-2020 13:58:17 10.2 C 26 %
229 04-03-2020 14:08:18 10.6 C 26 %
230 04-03-2020 14:18:18 9.6 C 27 %
231 04-03-2020 14:28:18 9.6 C 27 %
232 04-03-2020 14:38:18 10.1 C 26 %
233 04-03-2020 14:48:18 9.5 C 28 %
234 04-03-2020 14:58:18 9 C 28 %
235 04-03-2020 15:08:18 9.4 C 28 %
236 04-03-2020 15:18:18 9.5 C 28 %
237 04-03-2020 15:28:18 9.7 C 27 %
238 04-03-2020 15:38:18 9.4 C 29 %
239 04-03-2020 15:48:17 9.5 C 28 %
240 04-03-2020 15:58:18 10.6 C 26 %
241 04-03-2020 16:08:17 10.1 C 26 %
242 04-03-2020 16:18:17 10.9 C 26 %
243 04-03-2020 16:28:17 10 C 26 %
244 04-03-2020 16:38:17 10.9 C 26 %
245 04-03-2020 16:48:17 11 C 25 %
246 04-03-2020 16:58:17 11.5 C 25 %
247 04-03-2020 17:08:17 10.6 C 25 %
248 04-03-2020 17:18:17 8.8 C 27 %
249 04-03-2020 17:28:18 8 C 29 %
250 04-03-2020 17:38:18 7.3 C 32 %
Sensor: Nr:Datum:Temp:Feuchte:
Aussen-T/F 251 04-03-2020 17:48:17 6.4 C 35 %
252 04-03-2020 17:58:17 5.7 C 36 %
253 04-03-2020 18:08:17 5.2 C 37 %
254 04-03-2020 18:18:17 4.8 C 38 %
255 04-03-2020 18:28:17 4.7 C 39 %
256 04-03-2020 18:38:17 4.5 C 39 %
257 04-03-2020 18:48:17 4.3 C 39 %
258 04-03-2020 18:58:17 4 C 39 %
259 04-03-2020 19:08:17 3.9 C 40 %
260 04-03-2020 19:18:17 4 C 40 %
261 04-03-2020 19:28:17 4.1 C 40 %
262 04-03-2020 19:38:17 4.1 C 40 %
263 04-03-2020 19:48:18 4 C 40 %
264 04-03-2020 19:58:18 3.7 C 41 %
265 04-03-2020 20:08:17 3.8 C 41 %
266 04-03-2020 20:18:17 3.7 C 41 %
267 04-03-2020 20:28:17 3.4 C 41 %
268 04-03-2020 20:38:17 3.1 C 42 %
269 04-03-2020 20:48:18 3.1 C 42 %
270 04-03-2020 20:58:18 2.9 C 43 %
271 04-03-2020 21:08:18 3.3 C 42 %
272 04-03-2020 21:18:18 3 C 42 %
273 04-03-2020 21:28:18 3.1 C 42 %
274 04-03-2020 21:38:18 3.3 C 42 %
275 04-03-2020 21:48:18 3.1 C 42 %
Sensor: Nr:Datum:Temp:Feuchte:
Aussen-T/F 276 04-03-2020 21:58:18 3.1 C 42 %
277 04-03-2020 22:08:18 2.6 C 44 %
278 04-03-2020 22:18:17 2.5 C 45 %
279 04-03-2020 22:28:17 2.4 C 45 %
280 04-03-2020 22:38:17 2.9 C 46 %
281 04-03-2020 22:48:17 2.9 C 46 %
282 04-03-2020 22:58:17 3.2 C 45 %
283 04-03-2020 23:08:17 3.3 C 43 %
284 04-03-2020 23:18:17 3.6 C 43 %
285 04-03-2020 23:28:18 3.5 C 43 %
286 04-03-2020 23:38:18 3.6 C 43 %
287 04-03-2020 23:48:18 3.7 C 45 %
288 04-03-2020 23:58:18 3.6 C 45 %
289 05-03-2020 00:08:18 3.6 C 46 %
290 05-03-2020 00:18:18 3.6 C 46 %
291 05-03-2020 00:28:18 3.8 C 47 %
292 05-03-2020 00:38:17 3.8 C 47 %
293 05-03-2020 00:48:17 3.6 C 47 %
294 05-03-2020 00:58:17 3.5 C 47 %
295 05-03-2020 01:08:17 3.5 C 47 %
296 05-03-2020 01:18:17 3.5 C 47 %
297 05-03-2020 01:28:17 3.4 C 47 %
298 05-03-2020 01:38:17 3.4 C 47 %
299 05-03-2020 01:48:18 3.5 C 47 %
300 05-03-2020 01:58:18 3.5 C 47 %
Sensor: Nr:Datum:Temp:Feuchte:
Aussen-T/F 301 05-03-2020 02:08:18 3.6 C 46 %
302 05-03-2020 02:18:18 3.7 C 46 %
303 05-03-2020 02:28:18 3.7 C 45 %
304 05-03-2020 02:38:18 3.7 C 44 %
305 05-03-2020 02:48:18 3.9 C 43 %
306 05-03-2020 02:58:18 3.9 C 43 %
307 05-03-2020 03:08:18 4 C 42 %
308 05-03-2020 03:18:17 4.1 C 42 %
309 05-03-2020 03:28:17 4 C 41 %
310 05-03-2020 03:38:17 4.1 C 41 %
311 05-03-2020 03:48:17 4 C 42 %
312 05-03-2020 03:58:17 3.8 C 43 %
313 05-03-2020 04:08:17 3.8 C 44 %
314 05-03-2020 04:18:17 3.9 C 44 %
315 05-03-2020 04:28:18 3.9 C 43 %
316 05-03-2020 04:38:18 3.9 C 43 %
317 05-03-2020 04:48:17 3.8 C 43 %
318 05-03-2020 04:58:18 3.8 C 43 %
319 05-03-2020 05:08:18 3.9 C 44 %
320 05-03-2020 05:18:18 3.9 C 44 %
321 05-03-2020 05:28:18 3.8 C 44 %
322 05-03-2020 05:38:18 3.9 C 44 %
323 05-03-2020 05:48:17 3.7 C 44 %
324 05-03-2020 05:58:18 3.9 C 44 %
325 05-03-2020 06:08:18 4 C 43 %
Sensor: Nr:Datum:Temp:Feuchte:
Aussen-T/F 326 05-03-2020 06:18:18 3.9 C 43 %
327 05-03-2020 06:28:18 4 C 42 %
328 05-03-2020 06:38:18 4 C 42 %
329 05-03-2020 06:48:17 4.1 C 42 %
330 05-03-2020 06:58:17 4.1 C 42 %
331 05-03-2020 07:08:18 4.2 C 42 %
332 05-03-2020 07:18:17 4.3 C 42 %
333 05-03-2020 07:28:18 4.4 C 42 %
334 05-03-2020 07:38:18 4.5 C 41 %
335 05-03-2020 07:48:17 4.7 C 41 %
336 05-03-2020 07:58:17 4.8 C 41 %
337 05-03-2020 08:08:18 4.7 C 41 %
338 05-03-2020 08:18:18 4.8 C 41 %
339 05-03-2020 08:28:18 4.8 C 41 %
340 05-03-2020 08:38:17 5.1 C 40 %
341 05-03-2020 08:48:17 5.3 C 40 %
342 05-03-2020 08:58:17 5.4 C 40 %
343 05-03-2020 09:08:17 5.9 C 40 %
344 05-03-2020 09:18:17 6.1 C 38 %
345 05-03-2020 09:28:17 6.4 C 38 %
346 05-03-2020 09:38:17 6.4 C 38 %
347 05-03-2020 09:48:17 6.6 C 38 %
348 05-03-2020 09:58:17 6.6 C 38 %
349 05-03-2020 10:08:18 6.9 C 38 %
350 05-03-2020 10:18:17 6.4 C 38 %
Sensor: Nr:Datum:Temp:Feuchte:
Aussen-T/F 351 05-03-2020 10:28:17 6.3 C 38 %
352 05-03-2020 10:38:18 6.2 C 38 %
353 05-03-2020 10:48:18 6.3 C 39 %
354 05-03-2020 10:58:18 6.7 C 38 %
355 05-03-2020 11:08:17 7 C 38 %
356 05-03-2020 11:18:17 7.1 C 37 %
357 05-03-2020 11:28:17 7.3 C 37 %
358 05-03-2020 11:38:18 7.7 C 37 %
359 05-03-2020 11:48:18 7.8 C 37 %
360 05-03-2020 11:58:18 7.4 C 37 %
361 05-03-2020 12:08:17 7.5 C 37 %
362 05-03-2020 12:18:17 7.5 C 37 %
363 05-03-2020 12:28:18 6.9 C 38 %
364 05-03-2020 12:38:18 7.1 C 38 %
365 05-03-2020 12:48:17 7 C 39 %
366 05-03-2020 12:58:17 6.8 C 40 %
367 05-03-2020 13:08:17 6.8 C 41 %
368 05-03-2020 13:18:17 6.9 C 41 %
369 05-03-2020 13:28:17 6.9 C 41 %
370 05-03-2020 13:38:17 7 C 41 %
371 05-03-2020 13:48:17 6.6 C 42 %
372 05-03-2020 13:58:17 6.4 C 42 %
373 05-03-2020 14:08:17 6.4 C 43 %
374 05-03-2020 14:18:17 6.4 C 43 %
375 05-03-2020 14:28:17 6.3 C 42 %
Sensor: Nr:Datum:Temp:Feuchte:
Aussen-T/F 376 05-03-2020 14:38:17 6.3 C 43 %
377 05-03-2020 14:48:18 6.3 C 44 %
378 05-03-2020 14:58:18 6.3 C 44 %
379 05-03-2020 15:08:18 6.3 C 45 %
380 05-03-2020 15:18:18 6.3 C 45 %
381 05-03-2020 15:28:18 6.3 C 45 %
382 05-03-2020 15:38:18 6.4 C 45 %
383 05-03-2020 15:48:17 6.5 C 45 %
384 05-03-2020 15:58:17 6.7 C 45 %
385 05-03-2020 16:08:17 6.7 C 44 %
386 05-03-2020 16:18:17 6.7 C 43 %
387 05-03-2020 16:28:17 6.5 C 43 %
388 05-03-2020 16:38:17 6.4 C 43 %
389 05-03-2020 16:48:18 6.3 C 44 %
390 05-03-2020 16:58:18 6.2 C 45 %
391 05-03-2020 17:08:17 6.1 C 45 %
392 05-03-2020 17:18:17 6 C 45 %
393 05-03-2020 17:28:17 6 C 45 %
394 05-03-2020 17:38:17 5.9 C 46 %
395 05-03-2020 17:48:17 5.9 C 46 %
396 05-03-2020 17:58:17 5.9 C 46 %
397 05-03-2020 18:08:18 5.8 C 46 %
398 05-03-2020 18:18:17 5.9 C 46 %
399 05-03-2020 18:28:17 5.8 C 46 %
400 05-03-2020 18:38:17 5.7 C 46 %
Sensor: Nr:Datum:Temp:Feuchte:
Aussen-T/F 401 05-03-2020 18:48:17 5.7 C 46 %
402 05-03-2020 18:58:17 5.7 C 46 %
403 05-03-2020 19:08:18 5.7 C 46 %
404 05-03-2020 19:18:17 5.6 C 46 %
405 05-03-2020 19:28:17 5.5 C 46 %
406 05-03-2020 19:38:17 5.5 C 46 %
407 05-03-2020 19:48:18 5.7 C 46 %
408 05-03-2020 19:58:18 5.7 C 46 %
409 05-03-2020 20:08:17 5.8 C 45 %
410 05-03-2020 20:18:17 5.9 C 45 %
411 05-03-2020 20:28:17 6.1 C 45 %
412 05-03-2020 20:38:18 6.1 C 45 %
413 05-03-2020 20:48:17 6 C 45 %
414 05-03-2020 20:58:17 6 C 45 %
415 05-03-2020 21:08:18 6.1 C 45 %
416 05-03-2020 21:18:17 6.1 C 45 %
417 05-03-2020 21:28:17 6.1 C 45 %
418 05-03-2020 21:38:17 6.1 C 45 %
419 05-03-2020 21:48:17 6 C 45 %
420 05-03-2020 21:58:17 6.1 C 45 %
421 05-03-2020 22:08:17 6 C 45 %
422 05-03-2020 22:18:17 6.2 C 45 %
423 05-03-2020 22:28:17 6.1 C 45 %
424 05-03-2020 22:38:18 6 C 45 %
425 05-03-2020 22:48:17 6.1 C 45 %
Sensor: Nr:Datum:Temp:Feuchte:
Aussen-T/F 426 05-03-2020 22:58:17 6 C 45 %
427 05-03-2020 23:08:17 6.2 C 45 %
428 05-03-2020 23:18:17 6.1 C 45 %
429 05-03-2020 23:28:18 6.1 C 45 %
430 05-03-2020 23:38:18 6.1 C 45 %
431 05-03-2020 23:48:18 6.1 C 45 %
432 05-03-2020 23:58:18 6.1 C 44 %
433 06-03-2020 00:08:17 6.1 C 44 %
434 06-03-2020 00:18:17 6.2 C 44 %
435 06-03-2020 00:28:18 6.2 C 44 %
436 06-03-2020 00:38:18 6.2 C 44 %
437 06-03-2020 00:48:17 6.3 C 44 %
438 06-03-2020 00:58:17 6.4 C 44 %
439 06-03-2020 01:08:18 6.6 C 44 %
440 06-03-2020 01:18:17 6.7 C 44 %
441 06-03-2020 01:28:17 7 C 43 %
442 06-03-2020 01:38:18 7.1 C 43 %
443 06-03-2020 01:48:17 7.3 C 40 %
444 06-03-2020 01:58:18 6.9 C 40 %
445 06-03-2020 02:08:18 6.9 C 40 %
446 06-03-2020 02:18:18 6.9 C 40 %
447 06-03-2020 02:28:18 6.5 C 40 %
448 06-03-2020 02:38:17 6.4 C 41 %
449 06-03-2020 02:48:17 6.4 C 40 %
450 06-03-2020 02:58:17 6.4 C 40 %
Sensor: Nr:Datum:Temp:Feuchte:
Aussen-T/F 451 06-03-2020 03:08:17 6.2 C 40 %
452 06-03-2020 03:18:18 6.2 C 40 %
453 06-03-2020 03:28:18 6.4 C 40 %
454 06-03-2020 03:38:18 6 C 40 %
455 06-03-2020 03:48:17 5.8 C 41 %
456 06-03-2020 03:58:18 5.6 C 43 %
457 06-03-2020 04:08:17 5.5 C 44 %
458 06-03-2020 04:18:17 5.4 C 45 %
459 06-03-2020 04:28:17 5.5 C 45 %
460 06-03-2020 04:38:18 5.4 C 45 %
461 06-03-2020 04:48:17 5.4 C 46 %
462 06-03-2020 04:58:18 5.5 C 45 %
463 06-03-2020 05:08:18 5.6 C 44 %
464 06-03-2020 05:18:18 5.6 C 44 %
465 06-03-2020 05:28:18 5.6 C 45 %
466 06-03-2020 05:38:18 5.8 C 44 %
467 06-03-2020 05:48:17 5.8 C 44 %
468 06-03-2020 05:58:17 5.8 C 44 %
469 06-03-2020 06:08:17 5.8 C 45 %
470 06-03-2020 06:18:17 5.8 C 45 %
471 06-03-2020 06:28:17 5.9 C 45 %
472 06-03-2020 06:38:18 6 C 44 %
473 06-03-2020 06:48:17 6 C 44 %
474 06-03-2020 06:58:17 6.1 C 45 %
475 06-03-2020 07:08:17 6 C 45 %
Sensor: Nr:Datum:Temp:Feuchte:
Aussen-T/F 476 06-03-2020 07:18:18 6 C 45 %
477 06-03-2020 07:28:18 6 C 45 %
478 06-03-2020 07:38:18 6 C 45 %
479 06-03-2020 07:48:17 5.9 C 45 %
480 06-03-2020 07:58:18 5.6 C 43 %
481 06-03-2020 08:08:17 5.3 C 42 %
482 06-03-2020 08:18:17 5 C 41 %
483 06-03-2020 08:28:17 4.9 C 42 %
484 06-03-2020 08:38:17 4.9 C 43 %
485 06-03-2020 08:48:18 4.8 C 44 %
486 06-03-2020 08:58:18 4.8 C 44 %
487 06-03-2020 09:08:17 4.9 C 44 %
488 06-03-2020 09:18:17 4.9 C 43 %
489 06-03-2020 09:28:17 4.9 C 42 %
490 06-03-2020 09:38:18 4.8 C 42 %
491 06-03-2020 09:48:18 4.9 C 42 %
492 06-03-2020 09:58:18 4.8 C 41 %
493 06-03-2020 10:08:18 4.9 C 41 %
494 06-03-2020 10:18:18 4.7 C 42 %
495 06-03-2020 10:28:18 4.7 C 41 %
496 06-03-2020 10:38:18 4.7 C 41 %
497 06-03-2020 10:48:17 4.8 C 41 %
498 06-03-2020 10:58:18 4.9 C 41 %
499 06-03-2020 11:08:18 5 C 40 %
500 06-03-2020 11:18:18 5.2 C 40 %
Sensor: Nr:Datum:Temp:Feuchte:
Aussen-T/F 501 06-03-2020 11:28:18 5.3 C 40 %
502 06-03-2020 11:38:18 5.1 C 40 %
503 06-03-2020 11:48:17 4.9 C 41 %
504 06-03-2020 11:58:17 4.7 C 41 %
505 06-03-2020 12:08:17 4.6 C 41 %
506 06-03-2020 12:18:17 4.5 C 41 %
507 06-03-2020 12:28:17 4.6 C 41 %
508 06-03-2020 12:38:18 4.4 C 41 %
509 06-03-2020 12:48:18 4.6 C 41 %
510 06-03-2020 12:58:18 4.5 C 41 %
511 06-03-2020 13:08:18 4.7 C 41 %
512 06-03-2020 13:18:18 5 C 40 %
513 06-03-2020 13:28:18 5.1 C 40 %
514 06-03-2020 13:38:17 5.3 C 40 %
515 06-03-2020 13:48:17 5.1 C 40 %
516 06-03-2020 13:58:17 5 C 40 %
517 06-03-2020 14:08:17 4.8 C 41 %
518 06-03-2020 14:18:17 4.8 C 41 %
519 06-03-2020 14:28:17 4.8 C 41 %
520 06-03-2020 14:38:17 5 C 40 %
521 06-03-2020 14:48:17 5.3 C 40 %
522 06-03-2020 14:58:17 5.3 C 40 %
523 06-03-2020 15:08:17 5.4 C 39 %
524 06-03-2020 15:18:17 5.6 C 39 %
525 06-03-2020 15:28:17 5.8 C 39 %
Sensor: Nr:Datum:Temp:Feuchte:
Aussen-T/F 526 06-03-2020 15:38:18 5.9 C 38 %
527 06-03-2020 15:48:17 5.8 C 38 %
528 06-03-2020 15:58:17 6 C 37 %
529 06-03-2020 16:08:17 6.1 C 37 %
530 06-03-2020 16:18:18 6.1 C 37 %
531 06-03-2020 16:28:18 6.1 C 37 %
532 06-03-2020 16:38:18 6.1 C 38 %
533 06-03-2020 16:48:17 6 C 38 %
534 06-03-2020 16:58:17 6.3 C 38 %
535 06-03-2020 17:08:18 6.5 C 38 %
536 06-03-2020 17:18:18 6.9 C 37 %
537 06-03-2020 17:28:18 6.8 C 37 %
538 06-03-2020 17:38:18 6.8 C 37 %
539 06-03-2020 17:48:17 6.9 C 37 %
540 06-03-2020 17:58:18 6.7 C 37 %
541 06-03-2020 18:08:18 6.8 C 37 %
542 06-03-2020 18:18:18 6.6 C 37 %
543 06-03-2020 18:28:18 5.9 C 38 %
544 06-03-2020 18:38:18 6 C 37 %
545 06-03-2020 18:48:17 6.5 C 37 %
546 06-03-2020 18:58:18 6.4 C 37 %
547 06-03-2020 19:08:18 6.5 C 37 %
548 06-03-2020 19:18:18 6.3 C 37 %
549 06-03-2020 19:28:18 6.2 C 37 %
550 06-03-2020 19:38:18 6.3 C 37 %
Sensor: Nr:Datum:Temp:Feuchte:
Aussen-T/F 551 06-03-2020 19:48:17 6.3 C 37 %
552 06-03-2020 19:58:17 6.2 C 36 %
553 06-03-2020 20:08:18 6.2 C 36 %
554 06-03-2020 20:18:18 5.9 C 37 %
555 06-03-2020 20:28:18 5.7 C 37 %
556 06-03-2020 20:38:18 5.5 C 38 %
557 06-03-2020 20:48:17 5.4 C 38 %
558 06-03-2020 20:58:17 5.2 C 38 %
559 06-03-2020 21:08:17 5.3 C 38 %
560 06-03-2020 21:18:18 5.1 C 38 %
561 06-03-2020 21:28:18 5.2 C 38 %
562 06-03-2020 21:38:18 5.2 C 37 %
563 06-03-2020 21:48:17 4.9 C 38 %
564 06-03-2020 21:58:18 4.7 C 39 %
565 06-03-2020 22:08:17 4.8 C 39 %
566 06-03-2020 22:18:17 5.1 C 38 %
567 06-03-2020 22:28:18 5 C 38 %
568 06-03-2020 22:38:18 5.2 C 38 %
569 06-03-2020 22:48:17 5.3 C 38 %
570 06-03-2020 22:58:17 5.3 C 38 %
571 06-03-2020 23:08:18 5.2 C 38 %
572 06-03-2020 23:18:18 5.3 C 38 %
573 06-03-2020 23:28:18 5.2 C 37 %
574 06-03-2020 23:38:17 5.3 C 37 %
575 06-03-2020 23:48:17 5.3 C 37 %
Sensor: Nr:Datum:Temp:Feuchte:
Aussen-T/F 576 06-03-2020 23:58:17 5.1 C 38 %
577 07-03-2020 00:08:17 5.1 C 37 %
578 07-03-2020 00:18:18 5.1 C 37 %
579 07-03-2020 00:28:18 5.1 C 37 %
580 07-03-2020 00:38:17 5.1 C 37 %
581 07-03-2020 00:48:17 5.1 C 37 %
582 07-03-2020 00:58:17 5 C 37 %
583 07-03-2020 01:08:17 5.1 C 38 %
584 07-03-2020 01:18:17 5.1 C 38 %
585 07-03-2020 01:28:17 5.1 C 38 %
586 07-03-2020 01:38:18 5.3 C 37 %
587 07-03-2020 01:48:18 5.2 C 38 %
588 07-03-2020 01:58:18 5.2 C 38 %
589 07-03-2020 02:08:18 5.2 C 38 %
590 07-03-2020 02:18:17 5.3 C 38 %
591 07-03-2020 02:28:17 5.1 C 38 %
592 07-03-2020 02:38:17 5.1 C 38 %
593 07-03-2020 02:48:18 5.1 C 38 %
594 07-03-2020 02:58:18 5.1 C 38 %
595 07-03-2020 03:08:18 4.9 C 39 %
596 07-03-2020 03:18:17 4.7 C 40 %
597 07-03-2020 03:28:17 4.6 C 40 %
598 07-03-2020 03:38:17 4.7 C 40 %
599 07-03-2020 03:48:17 4.7 C 39 %
600 07-03-2020 03:58:17 4.6 C 40 %
Sensor: Nr:Datum:Temp:Feuchte:
Aussen-T/F 601 07-03-2020 04:08:18 4.6 C 40 %
602 07-03-2020 04:18:17 4.7 C 40 %
603 07-03-2020 04:28:17 4.8 C 39 %
604 07-03-2020 04:38:18 4.7 C 39 %
605 07-03-2020 04:48:17 4.7 C 39 %
606 07-03-2020 04:58:18 4.7 C 39 %
607 07-03-2020 05:08:18 4.6 C 39 %
608 07-03-2020 05:18:18 4.6 C 39 %
609 07-03-2020 05:28:18 4.6 C 39 %
610 07-03-2020 05:38:18 4.6 C 39 %
611 07-03-2020 05:48:18 4.5 C 39 %
612 07-03-2020 05:58:18 4.5 C 39 %
613 07-03-2020 06:08:17 4.6 C 39 %
614 07-03-2020 06:18:17 4.6 C 40 %
615 07-03-2020 06:28:17 4.6 C 39 %
616 07-03-2020 06:38:18 4.5 C 39 %
617 07-03-2020 06:48:17 4.5 C 39 %
618 07-03-2020 06:58:17 4.5 C 39 %
619 07-03-2020 07:08:18 4.5 C 39 %
620 07-03-2020 07:18:18 4.4 C 39 %
621 07-03-2020 07:28:18 4.4 C 39 %
622 07-03-2020 07:38:18 4.3 C 40 %
623 07-03-2020 07:48:17 4 C 40 %
624 07-03-2020 07:58:17 3.7 C 42 %
625 07-03-2020 08:08:18 3.7 C 45 %
Sensor: Nr:Datum:Temp:Feuchte:
Aussen-T/F 626 07-03-2020 08:18:17 3.7 C 44 %
627 07-03-2020 08:28:17 3.9 C 43 %
628 07-03-2020 08:38:17 4 C 42 %
629 07-03-2020 08:48:17 4.4 C 41 %
630 07-03-2020 08:58:17 4.7 C 40 %
631 07-03-2020 09:08:17 5.1 C 38 %
632 07-03-2020 09:18:17 5.3 C 37 %
633 07-03-2020 09:28:17 5.6 C 37 %
634 07-03-2020 09:38:17 5.7 C 36 %
635 07-03-2020 09:48:17 6.3 C 36 %
636 07-03-2020 09:58:17 6.5 C 35 %
637 07-03-2020 10:08:17 6.1 C 35 %
638 07-03-2020 10:18:17 5.7 C 36 %
639 07-03-2020 10:28:17 6.5 C 36 %
640 07-03-2020 10:38:17 6.4 C 35 %
641 07-03-2020 10:48:18 7 C 35 %
642 07-03-2020 10:58:18 7.3 C 35 %
643 07-03-2020 11:08:18 7.3 C 34 %
644 07-03-2020 11:18:18 7.8 C 32 %
645 07-03-2020 11:28:18 7.6 C 31 %
646 07-03-2020 11:38:18 7.8 C 30 %
647 07-03-2020 11:48:17 9.7 C 25 %
648 07-03-2020 11:58:18 7.6 C 29 %
649 07-03-2020 12:08:18 7.6 C 29 %
650 07-03-2020 12:18:18 7.8 C 29 %
Sensor: Nr:Datum:Temp:Feuchte:
Aussen-T/F 651 07-03-2020 12:28:18 7.8 C 30 %
652 07-03-2020 12:38:17 8.2 C 30 %
653 07-03-2020 12:48:18 7.5 C 28 %
654 07-03-2020 12:58:18 8 C 27 %
655 07-03-2020 13:08:17 9.5 C 26 %
656 07-03-2020 13:18:18 9.1 C 21 %
657 07-03-2020 13:28:18 9.1 C 25 %
658 07-03-2020 13:38:18 8.8 C 26 %
659 07-03-2020 13:48:18 9.1 C 26 %
660 07-03-2020 13:58:18 10 C 25 %
661 07-03-2020 14:08:17 8.9 C 26 %
662 07-03-2020 14:18:17 10.5 C 20 %
663 07-03-2020 14:28:17 10.1 C 20 %
664 07-03-2020 14:38:18 9.8 C 20 %
665 07-03-2020 14:48:17 11.6 C 20 %
666 07-03-2020 14:58:18 11.5 C 20 %
667 07-03-2020 15:08:18 12.4 C 20 %
668 07-03-2020 15:18:18 11.1 C 20 %
669 07-03-2020 15:28:18 9.8 C 20 %
670 07-03-2020 15:38:17 12.4 C 20 %
671 07-03-2020 15:48:18 10.8 C 20 %
672 07-03-2020 15:58:18 9.5 C 20 %
673 07-03-2020 16:08:17 11.7 C 20 %
674 07-03-2020 16:18:17 10.4 C 20 %
675 07-03-2020 16:28:17 9.6 C 20 %
Sensor: Nr:Datum:Temp:Feuchte:
Aussen-T/F 676 07-03-2020 16:38:17 9.1 C 20 %
677 07-03-2020 16:48:18 8.9 C 20 %
678 07-03-2020 16:58:18 8.8 C 20 %
679 07-03-2020 17:08:18 8.8 C 20 %
680 07-03-2020 17:18:18 8.5 C 20 %
681 07-03-2020 17:28:18 8.5 C 20 %
682 07-03-2020 17:38:18 8.6 C 25 %
683 07-03-2020 17:48:18 8.4 C 25 %
684 07-03-2020 17:58:18 7.1 C 31 %
685 07-03-2020 18:08:17 6.7 C 31 %
686 07-03-2020 18:19:17 6.3 C 33 %
687 07-03-2020 18:28:17 5.7 C 34 %
688 07-03-2020 18:38:18 5.2 C 35 %
689 07-03-2020 18:48:18 4.9 C 36 %
690 07-03-2020 18:58:18 5 C 35 %
691 07-03-2020 19:08:17 4.9 C 36 %
692 07-03-2020 19:18:17 4.7 C 36 %
693 07-03-2020 19:28:17 4.4 C 37 %
694 07-03-2020 19:38:17 4.5 C 37 %
695 07-03-2020 19:48:18 4.7 C 37 %
696 07-03-2020 19:58:18 4.5 C 37 %
697 07-03-2020 20:08:18 4.2 C 38 %
698 07-03-2020 20:18:17 4.4 C 38 %
699 07-03-2020 20:28:17 4.6 C 39 %
700 07-03-2020 20:38:17 4.6 C 38 %
Sensor: Nr:Datum:Temp:Feuchte:
Aussen-T/F 701 07-03-2020 20:49:17 4.5 C 38 %
702 07-03-2020 20:59:17 4.5 C 38 %
703 07-03-2020 21:09:17 4.5 C 39 %
704 07-03-2020 21:18:17 4.5 C 39 %
705 07-03-2020 21:28:17 4.7 C 39 %
706 07-03-2020 21:38:17 4.7 C 38 %
707 07-03-2020 21:48:18 5.1 C 37 %
708 07-03-2020 21:58:18 5.1 C 37 %
709 07-03-2020 22:08:17 5.3 C 37 %
710 07-03-2020 22:18:18 5.5 C 36 %
711 07-03-2020 22:28:18 5.6 C 36 %
712 07-03-2020 22:38:17 5.5 C 36 %
713 07-03-2020 22:49:17 5.5 C 36 %
714 07-03-2020 22:59:17 5.8 C 36 %
715 07-03-2020 23:09:17 6.2 C 35 %
716 07-03-2020 23:19:17 6.3 C 35 %
717 07-03-2020 23:29:17 6.4 C 35 %
718 07-03-2020 23:38:17 6.4 C 34 %
719 07-03-2020 23:48:18 6.4 C 34 %
720 07-03-2020 23:58:18 6.5 C 34 %
721 08-03-2020 00:08:18 6.5 C 35 %
722 08-03-2020 00:18:18 6.4 C 35 %
723 08-03-2020 00:28:18 6.8 C 35 %
724 08-03-2020 00:38:18 6.7 C 35 %
725 08-03-2020 00:48:18 7 C 34 %
Sensor: Nr:Datum:Temp:Feuchte:
Aussen-T/F 726 08-03-2020 00:58:18 7.1 C 35 %
727 08-03-2020 01:08:17 7.1 C 34 %
728 08-03-2020 01:18:17 6.8 C 35 %
729 08-03-2020 01:28:17 6.9 C 35 %
730 08-03-2020 01:38:17 6.7 C 35 %
731 08-03-2020 01:49:17 6.9 C 35 %
732 08-03-2020 01:59:17 6.7 C 35 %
733 08-03-2020 02:09:17 6.8 C 35 %
734 08-03-2020 02:19:17 7 C 35 %
735 08-03-2020 02:29:17 6.9 C 35 %
736 08-03-2020 02:38:17 7.3 C 35 %
737 08-03-2020 02:48:17 7.2 C 35 %
738 08-03-2020 02:58:17 7 C 35 %
739 08-03-2020 03:08:18 7.1 C 35 %
740 08-03-2020 03:19:17 6.7 C 35 %
741 08-03-2020 03:29:17 6.4 C 36 %
742 08-03-2020 03:39:17 6.5 C 36 %
743 08-03-2020 03:48:18 6.6 C 36 %
744 08-03-2020 03:58:18 6.8 C 35 %
745 08-03-2020 04:08:18 7 C 35 %
746 08-03-2020 04:19:17 7.1 C 35 %
747 08-03-2020 04:29:17 7 C 35 %
748 08-03-2020 04:39:17 7 C 35 %
749 08-03-2020 04:49:17 6.8 C 35 %
750 08-03-2020 04:59:17 6.9 C 35 %
Sensor: Nr:Datum:Temp:Feuchte:
Aussen-T/F 751 08-03-2020 05:09:17 7 C 35 %
752 08-03-2020 05:19:17 6.8 C 35 %
753 08-03-2020 05:29:17 6.5 C 35 %
754 08-03-2020 05:39:17 6.8 C 35 %
755 08-03-2020 05:49:17 6.6 C 35 %
756 08-03-2020 05:59:17 6.4 C 35 %
757 08-03-2020 06:09:17 6.4 C 35 %
758 08-03-2020 06:19:17 5.9 C 37 %
759 08-03-2020 06:29:18 6.3 C 36 %
760 08-03-2020 06:39:18 6.6 C 36 %
761 08-03-2020 06:49:17 6.9 C 36 %
762 08-03-2020 06:59:17 7.3 C 35 %
763 08-03-2020 07:09:17 7.4 C 35 %
764 08-03-2020 07:19:17 7.7 C 35 %
765 08-03-2020 07:29:17 7.8 C 35 %
766 08-03-2020 07:39:17 7.9 C 35 %
767 08-03-2020 07:49:17 8 C 35 %
768 08-03-2020 07:59:17 8.2 C 34 %
769 08-03-2020 08:09:17 8.2 C 34 %
770 08-03-2020 08:19:17 8.4 C 34 %
771 08-03-2020 08:29:17 8.6 C 34 %
772 08-03-2020 08:39:17 8.5 C 35 %
773 08-03-2020 08:49:17 8.6 C 34 %
774 08-03-2020 08:59:17 8.6 C 34 %
775 08-03-2020 09:09:17 8.6 C 34 %
Sensor: Nr:Datum:Temp:Feuchte:
Aussen-T/F 776 08-03-2020 09:19:17 8.8 C 34 %
777 08-03-2020 09:29:18 9.2 C 33 %
778 08-03-2020 09:39:17 9.6 C 33 %
779 08-03-2020 09:49:17 10.3 C 32 %
780 08-03-2020 09:59:17 10.2 C 32 %
781 08-03-2020 10:09:17 9.9 C 33 %
782 08-03-2020 10:19:17 10.1 C 32 %
783 08-03-2020 10:29:17 10.1 C 32 %
784 08-03-2020 10:39:17 11.4 C 30 %
785 08-03-2020 10:49:17 11.2 C 30 %
786 08-03-2020 10:59:18 11.9 C 30 %
787 08-03-2020 11:09:17 11.9 C 28 %
788 08-03-2020 11:19:16 11.9 C 29 %
789 08-03-2020 11:29:16 12.1 C 27 %
790 08-03-2020 11:39:17 12.5 C 26 %
791 08-03-2020 11:49:16 12.5 C 26 %
792 08-03-2020 11:59:16 13.4 C 25 %
793 08-03-2020 12:09:17 12.8 C 25 %
794 08-03-2020 12:19:17 13.1 C 25 %
795 08-03-2020 12:29:17 13.5 C 23 %
796 08-03-2020 12:39:17 13.2 C 24 %
797 08-03-2020 12:49:17 14.1 C 22 %
798 08-03-2020 12:59:18 13.2 C 22 %
799 08-03-2020 13:09:17 12.2 C 25 %
800 08-03-2020 13:19:16 12.3 C 25 %
Sensor: Nr:Datum:Temp:Feuchte:
Aussen-T/F 801 08-03-2020 13:29:16 12.3 C 25 %
802 08-03-2020 13:39:16 12.7 C 25 %
803 08-03-2020 13:49:17 12.7 C 25 %
804 08-03-2020 13:59:17 12.5 C 25 %
805 08-03-2020 14:09:17 13 C 23 %
806 08-03-2020 14:19:16 12.8 C 25 %
807 08-03-2020 14:29:16 12.5 C 25 %
808 08-03-2020 14:39:16 12.8 C 25 %
809 08-03-2020 14:49:16 12.7 C 25 %
810 08-03-2020 14:59:16 12.3 C 25 %
811 08-03-2020 15:09:16 12.8 C 25 %
812 08-03-2020 15:19:17 12.5 C 25 %
813 08-03-2020 15:29:17 12.5 C 25 %
814 08-03-2020 15:39:17 12.1 C 25 %
815 08-03-2020 15:49:17 12 C 25 %
816 08-03-2020 15:59:17 12.1 C 25 %
817 08-03-2020 16:09:17 12.5 C 25 %
818 08-03-2020 16:19:17 12.4 C 25 %
819 08-03-2020 16:29:17 12.1 C 25 %
820 08-03-2020 16:39:17 12.2 C 26 %
821 08-03-2020 16:49:17 12.2 C 26 %
822 08-03-2020 16:59:17 12 C 26 %
823 08-03-2020 17:09:17 12.6 C 25 %
824 08-03-2020 17:19:17 12.4 C 26 %
825 08-03-2020 17:29:17 12.3 C 26 %
Sensor: Nr:Datum:Temp:Feuchte:
Aussen-T/F 826 08-03-2020 17:39:17 12 C 26 %
827 08-03-2020 17:49:16 11.5 C 28 %
828 08-03-2020 17:59:16 11.4 C 29 %
829 08-03-2020 18:09:17 11.1 C 30 %
830 08-03-2020 18:19:17 10.9 C 31 %
831 08-03-2020 18:29:18 10.7 C 31 %
832 08-03-2020 18:39:17 10.4 C 32 %
833 08-03-2020 18:49:16 10.2 C 32 %
834 08-03-2020 18:59:16 9.6 C 35 %
835 08-03-2020 19:09:17 9.9 C 35 %
836 08-03-2020 19:19:16 9.8 C 35 %
837 08-03-2020 19:29:16 9.6 C 36 %
838 08-03-2020 19:39:17 9.4 C 36 %
839 08-03-2020 19:49:16 9.5 C 36 %
840 08-03-2020 19:59:16 9.5 C 36 %
841 08-03-2020 20:09:16 9.4 C 36 %
842 08-03-2020 20:19:16 9.3 C 36 %
843 08-03-2020 20:29:16 9.3 C 37 %
844 08-03-2020 20:39:17 9.2 C 37 %
845 08-03-2020 20:49:16 9.2 C 37 %
846 08-03-2020 20:59:16 9 C 37 %
847 08-03-2020 21:09:17 9 C 37 %
848 08-03-2020 21:19:17 9.1 C 37 %
849 08-03-2020 21:29:17 9.1 C 37 %
850 08-03-2020 21:39:17 9.3 C 37 %
Sensor: Nr:Datum:Temp:Feuchte:
Aussen-T/F 851 08-03-2020 21:49:17 9.3 C 37 %
852 08-03-2020 21:59:17 9.3 C 37 %
853 08-03-2020 22:09:17 9.3 C 37 %
854 08-03-2020 22:19:16 9.3 C 37 %
855 08-03-2020 22:29:16 8.9 C 37 %
856 08-03-2020 22:39:17 9.2 C 37 %
857 08-03-2020 22:49:16 8.7 C 37 %
858 08-03-2020 22:59:16 9 C 37 %
859 08-03-2020 23:09:16 9.3 C 37 %
860 08-03-2020 23:19:16 7.9 C 39 %
861 08-03-2020 23:29:16 7.8 C 40 %
862 08-03-2020 23:39:16 7.9 C 40 %
863 08-03-2020 23:49:16 7.9 C 39 %
864 08-03-2020 23:59:16 7.6 C 40 %
865 09-03-2020 00:09:17 7.3 C 41 %
866 09-03-2020 00:19:16 7 C 41 %
867 09-03-2020 00:29:16 6.8 C 43 %
868 09-03-2020 00:39:16 6.8 C 44 %
869 09-03-2020 00:49:16 6.6 C 45 %
870 09-03-2020 00:59:16 6.8 C 43 %
871 09-03-2020 01:09:16 6.9 C 42 %
872 09-03-2020 01:19:16 6.9 C 43 %
873 09-03-2020 01:29:16 6.7 C 45 %
874 09-03-2020 01:39:16 6.8 C 43 %
875 09-03-2020 01:49:16 6.9 C 42 %
Sensor: Nr:Datum:Temp:Feuchte:
Aussen-T/F 876 09-03-2020 01:59:16 6.7 C 43 %
877 09-03-2020 02:09:16 6.6 C 43 %
878 09-03-2020 02:19:16 6.4 C 44 %
879 09-03-2020 02:29:16 6.3 C 45 %
880 09-03-2020 02:39:16 6.2 C 45 %
881 09-03-2020 02:49:17 6.4 C 45 %
882 09-03-2020 02:59:17 6.4 C 44 %
883 09-03-2020 03:09:17 6.1 C 44 %
884 09-03-2020 03:19:17 6.5 C 43 %
885 09-03-2020 03:29:17 6.7 C 42 %
886 09-03-2020 03:39:17 6.4 C 42 %
887 09-03-2020 03:49:17 6.2 C 43 %
888 09-03-2020 03:59:17 6 C 44 %
889 09-03-2020 04:09:17 5.7 C 45 %
890 09-03-2020 04:19:17 5.5 C 45 %
891 09-03-2020 04:29:17 6.1 C 44 %
892 09-03-2020 04:39:18 6.3 C 43 %
893 09-03-2020 04:49:17 6.2 C 43 %
894 09-03-2020 04:59:17 6.2 C 43 %
895 09-03-2020 05:09:18 6.2 C 43 %
896 09-03-2020 05:19:17 6 C 43 %
897 09-03-2020 05:29:17 5.8 C 44 %
898 09-03-2020 05:39:17 5.6 C 44 %
899 09-03-2020 05:49:17 5.2 C 44 %
900 09-03-2020 05:59:17 5.3 C 43 %
Sensor: Nr:Datum:Temp:Feuchte:
Aussen-T/F 901 09-03-2020 06:09:17 5 C 43 %
902 09-03-2020 06:19:17 5.2 C 43 %
903 09-03-2020 06:29:17 5.1 C 43 %
904 09-03-2020 06:39:18 5.4 C 42 %
905 09-03-2020 06:49:17 5.7 C 41 %
906 09-03-2020 06:59:18 5.7 C 41 %
907 09-03-2020 07:09:18 5 C 42 %
908 09-03-2020 07:19:18 4.7 C 44 %
909 09-03-2020 07:29:18 5.7 C 42 %
910 09-03-2020 07:39:17 5.8 C 41 %
911 09-03-2020 07:49:17 5.4 C 41 %
912 09-03-2020 07:59:17 5.4 C 42 %
913 09-03-2020 08:09:17 5.4 C 42 %
914 09-03-2020 08:19:17 5 C 43 %
915 09-03-2020 08:29:17 5.3 C 43 %
916 09-03-2020 08:39:18 6.1 C 41 %
917 09-03-2020 08:49:17 6.8 C 40 %
918 09-03-2020 08:59:17 7.3 C 38 %
919 09-03-2020 09:09:17 7.4 C 38 %
920 09-03-2020 09:19:17 7.7 C 37 %
921 09-03-2020 09:29:17 8 C 37 %
922 09-03-2020 09:39:17 8.1 C 37 %
923 09-03-2020 09:49:17 8 C 37 %
924 09-03-2020 09:59:17 7.8 C 37 %
925 09-03-2020 10:09:17 8.3 C 36 %
Sensor: Nr:Datum:Temp:Feuchte:
Aussen-T/F 926 09-03-2020 10:19:17 8.2 C 36 %
927 09-03-2020 10:29:17 8.5 C 36 %
928 09-03-2020 10:39:17 8.6 C 36 %
929 09-03-2020 10:49:17 8.5 C 36 %
930 09-03-2020 10:59:17 8.1 C 36 %
931 09-03-2020 11:09:17 8.1 C 36 %
932 09-03-2020 11:19:17 8.5 C 36 %
933 09-03-2020 11:29:17 9.7 C 34 %
934 09-03-2020 11:39:17 9.1 C 34 %
935 09-03-2020 11:49:17 10.1 C 33 %
936 09-03-2020 11:59:17 10.6 C 29 %
937 09-03-2020 12:09:18 10.9 C 27 %
938 09-03-2020 12:19:18 11.2 C 25 %
939 09-03-2020 12:29:18 10.1 C 26 %
940 09-03-2020 12:39:18 10.3 C 26 %
941 09-03-2020 12:49:17 11 C 25 %
942 09-03-2020 12:59:17 10.1 C 26 %
943 09-03-2020 13:09:17 11.6 C 26 %
944 09-03-2020 13:19:17 9.8 C 29 %
945 09-03-2020 13:29:17 9.5 C 31 %
946 09-03-2020 13:39:17 10.5 C 30 %
947 09-03-2020 13:49:17 10.4 C 29 %
948 09-03-2020 13:59:17 10.5 C 29 %
949 09-03-2020 14:09:17 11.6 C 27 %
950 09-03-2020 14:19:17 11.5 C 26 %
Sensor: Nr:Datum:Temp:Feuchte:
Aussen-T/F 951 09-03-2020 14:29:17 10.4 C 27 %
952 09-03-2020 14:39:17 11.6 C 26 %
953 09-03-2020 14:49:17 12.8 C 20 %
954 09-03-2020 14:59:17 13.6 C 20 %
955 09-03-2020 15:09:18 12.6 C 20 %
956 09-03-2020 15:19:18 13 C 20 %
957 09-03-2020 15:29:18 12.9 C 20 %
958 09-03-2020 15:39:18 14.4 C 20 %
959 09-03-2020 15:49:17 14 C 20 %
960 09-03-2020 15:59:17 12.5 C 20 %
961 09-03-2020 16:09:18 11.2 C 20 %
962 09-03-2020 16:19:17 10.5 C 22 %
963 09-03-2020 16:29:17 10.7 C 23 %
964 09-03-2020 16:39:17 13.3 C 20 %
965 09-03-2020 16:49:17 14.2 C 20 %
966 09-03-2020 16:59:18 14.1 C 20 %
967 09-03-2020 17:09:18 12.2 C 20 %
968 09-03-2020 17:19:17 10.1 C 20 %
969 09-03-2020 17:29:17 9.9 C 25 %
970 09-03-2020 17:39:18 9.8 C 25 %
971 09-03-2020 17:49:17 9.7 C 27 %
972 09-03-2020 17:59:18 9.7 C 26 %
973 09-03-2020 18:09:18 9.5 C 27 %
974 09-03-2020 18:19:17 9.2 C 28 %
975 09-03-2020 18:29:17 8.9 C 30 %
Sensor: Nr:Datum:Temp:Feuchte:
Aussen-T/F 976 09-03-2020 18:39:17 8.7 C 30 %
977 09-03-2020 18:49:17 8.1 C 30 %
978 09-03-2020 18:59:17 7.7 C 32 %
979 09-03-2020 19:09:18 7.5 C 33 %
980 09-03-2020 19:19:17 7.4 C 33 %
981 09-03-2020 19:29:17 7.6 C 33 %
982 09-03-2020 19:39:17 7.4 C 34 %
983 09-03-2020 19:49:18 7.3 C 33 %
984 09-03-2020 19:59:18 7.2 C 34 %
985 09-03-2020 20:09:17 6.5 C 36 %
986 09-03-2020 20:19:17 6.9 C 35 %
987 09-03-2020 20:29:17 6.5 C 36 %
988 09-03-2020 20:39:18 6.5 C 36 %
989 09-03-2020 20:49:18 6.7 C 36 %
990 09-03-2020 20:59:18 6.8 C 35 %
991 09-03-2020 21:09:17 5.9 C 37 %
992 09-03-2020 21:19:17 5.6 C 38 %
993 09-03-2020 21:29:17 5.5 C 38 %
994 09-03-2020 21:39:17 5.4 C 38 %
995 09-03-2020 21:49:18 5.4 C 38 %
996 09-03-2020 21:59:18 5.6 C 38 %
997 09-03-2020 22:09:18 5.4 C 38 %
998 09-03-2020 22:19:17 5.6 C 38 %
999 09-03-2020 22:29:17 5.8 C 38 %
1000 09-03-2020 22:39:17 5.8 C 38 %
Sensor: Nr:Datum:Temp:Feuchte:
Aussen-T/F 1001 09-03-2020 22:49:17 5.4 C 38 %
1002 09-03-2020 22:59:17 5.1 C 39 %
1003 09-03-2020 23:09:18 5.1 C 39 %
1004 09-03-2020 23:19:17 5.2 C 39 %
1005 09-03-2020 23:29:17 5 C 39 %
1006 09-03-2020 23:39:17 4.6 C 40 %
1007 09-03-2020 23:49:17 4.6 C 41 %
1008 09-03-2020 23:59:17 4.5 C 41 %
1009 10-03-2020 00:09:17 4.6 C 41 %
1010 10-03-2020 00:19:18 4.7 C 41 %
1011 10-03-2020 00:29:18 5.1 C 40 %
1012 10-03-2020 00:39:18 5.5 C 40 %
1013 10-03-2020 00:49:18 5.5 C 40 %
1014 10-03-2020 00:59:18 5.8 C 39 %
1015 10-03-2020 01:09:18 5.8 C 39 %
1016 10-03-2020 01:19:17 5.9 C 39 %
1017 10-03-2020 01:29:18 6 C 38 %
1018 10-03-2020 01:39:18 6.3 C 38 %
1019 10-03-2020 01:49:17 6.7 C 37 %
1020 10-03-2020 01:59:17 6.6 C 37 %
1021 10-03-2020 02:09:18 6.7 C 37 %
1022 10-03-2020 02:19:17 6.6 C 37 %
1023 10-03-2020 02:29:18 6.7 C 37 %
1024 10-03-2020 02:39:18 6.8 C 37 %
1025 10-03-2020 02:49:17 6.9 C 37 %
Sensor: Nr:Datum:Temp:Feuchte:
Aussen-T/F 1026 10-03-2020 02:59:17 7.1 C 37 %
1027 10-03-2020 03:09:18 6.6 C 38 %
1028 10-03-2020 03:19:18 6.5 C 38 %
1029 10-03-2020 03:29:18 6.3 C 39 %
1030 10-03-2020 03:39:18 6.2 C 39 %
1031 10-03-2020 03:49:17 6 C 40 %
1032 10-03-2020 03:59:17 6 C 40 %
1033 10-03-2020 04:09:17 5.8 C 40 %
1034 10-03-2020 04:19:17 5.8 C 40 %
1035 10-03-2020 04:29:17 5.6 C 41 %
1036 10-03-2020 04:39:17 5.9 C 40 %
1037 10-03-2020 04:49:17 5.6 C 41 %
1038 10-03-2020 04:59:17 5.5 C 41 %
1039 10-03-2020 05:09:17 5.5 C 41 %
1040 10-03-2020 05:19:17 5.2 C 41 %
1041 10-03-2020 05:29:18 5.2 C 41 %
1042 10-03-2020 05:39:18 5.1 C 42 %
1043 10-03-2020 05:49:18 5.1 C 42 %
1044 10-03-2020 05:59:18 5 C 42 %
1045 10-03-2020 06:09:17 4.9 C 43 %
1046 10-03-2020 06:19:17 5 C 42 %
1047 10-03-2020 06:29:17 4.9 C 43 %
1048 10-03-2020 06:39:18 5 C 44 %
1049 10-03-2020 06:49:17 5.1 C 43 %
1050 10-03-2020 06:59:17 5 C 43 %
Sensor: Nr:Datum:Temp:Feuchte:
Aussen-T/F 1051 10-03-2020 07:09:18 5.1 C 42 %
1052 10-03-2020 07:19:18 5.3 C 42 %
1053 10-03-2020 07:29:18 5.8 C 41 %
1054 10-03-2020 07:39:18 5.8 C 42 %
1055 10-03-2020 07:49:18 5.7 C 41 %
1056 10-03-2020 07:59:18 5.9 C 41 %
1057 10-03-2020 08:09:18 6 C 41 %
1058 10-03-2020 08:19:18 6 C 41 %
1059 10-03-2020 08:29:18 6.3 C 41 %
1060 10-03-2020 08:39:18 6.5 C 40 %
1061 10-03-2020 08:49:18 6.3 C 41 %
1062 10-03-2020 08:59:18 6.5 C 41 %
1063 10-03-2020 09:09:17 6.6 C 41 %
1064 10-03-2020 09:19:17 6.6 C 41 %
1065 10-03-2020 09:29:17 6.7 C 42 %
1066 10-03-2020 09:39:17 6.8 C 42 %
1067 10-03-2020 09:49:17 6.9 C 42 %
1068 10-03-2020 09:59:17 7.1 C 41 %
1069 10-03-2020 10:09:18 7.2 C 41 %
1070 10-03-2020 10:19:18 7.3 C 41 %
1071 10-03-2020 10:29:18 7.4 C 41 %
1072 10-03-2020 10:39:18 7.5 C 41 %
1073 10-03-2020 10:49:18 7.8 C 41 %
1074 10-03-2020 10:59:18 7.9 C 41 %
1075 10-03-2020 11:09:18 8.1 C 41 %
Sensor: Nr:Datum:Temp:Feuchte:
Aussen-T/F 1076 10-03-2020 11:19:18 8.2 C 40 %
1077 10-03-2020 11:29:18 8.4 C 40 %
1078 10-03-2020 11:39:18 8.5 C 41 %
1079 10-03-2020 11:49:17 8.7 C 41 %
1080 10-03-2020 11:59:17 8.9 C 41 %
1081 10-03-2020 12:09:17 8.9 C 40 %
1082 10-03-2020 12:19:17 8.9 C 41 %
1083 10-03-2020 12:29:18 9 C 41 %
1084 10-03-2020 12:39:18 9.1 C 41 %
1085 10-03-2020 12:49:17 9.1 C 41 %
1086 10-03-2020 12:59:17 9.3 C 41 %
1087 10-03-2020 13:09:18 9.4 C 40 %
1088 10-03-2020 13:19:17 9.5 C 41 %
1089 10-03-2020 13:29:18 9.5 C 41 %
1090 10-03-2020 13:39:18 9.5 C 41 %
1091 10-03-2020 13:49:17 9.7 C 41 %
1092 10-03-2020 13:59:18 9.8 C 41 %
1093 10-03-2020 14:09:18 9.9 C 41 %
1094 10-03-2020 14:19:18 10.2 C 40 %
1095 10-03-2020 14:29:18 10.5 C 40 %
1096 10-03-2020 14:39:18 10.8 C 40 %
1097 10-03-2020 14:49:17 10.9 C 40 %
1098 10-03-2020 14:59:17 11.3 C 38 %
1099 10-03-2020 15:09:18 11.3 C 38 %
1100 10-03-2020 15:19:18 11.4 C 38 %
Sensor: Nr:Datum:Temp:Feuchte:
Aussen-T/F 1101 10-03-2020 15:29:18 11.8 C 38 %
1102 10-03-2020 15:39:18 12.3 C 37 %
1103 10-03-2020 15:49:17 12.3 C 36 %
1104 10-03-2020 15:59:18 12.5 C 37 %
1105 10-03-2020 16:09:18 13 C 35 %
1106 10-03-2020 16:19:18 12.6 C 36 %
1107 10-03-2020 16:29:18 12.5 C 37 %
1108 10-03-2020 16:39:18 12.4 C 37 %
1109 10-03-2020 16:49:17 12.5 C 37 %
1110 10-03-2020 16:59:18 12.5 C 37 %
1111 10-03-2020 17:09:18 12.7 C 37 %
1112 10-03-2020 17:19:17 12.6 C 37 %
1113 10-03-2020 17:29:18 12.7 C 37 %
1114 10-03-2020 17:39:18 12.6 C 37 %
1115 10-03-2020 17:49:17 12.5 C 37 %
1116 10-03-2020 17:59:18 12.5 C 38 %
1117 10-03-2020 18:09:18 12.3 C 38 %
1118 10-03-2020 18:19:17 12.3 C 38 %
1119 10-03-2020 18:29:18 12.3 C 38 %
1120 10-03-2020 18:39:18 12.5 C 38 %
1121 10-03-2020 18:49:17 12.4 C 38 %
1122 10-03-2020 18:59:17 12.3 C 38 %
1123 10-03-2020 19:09:18 12.5 C 38 %
1124 10-03-2020 19:19:17 12.3 C 38 %
1125 10-03-2020 19:29:17 12.4 C 38 %
Sensor: Nr:Datum:Temp:Feuchte:
Aussen-T/F 1126 10-03-2020 19:39:17 12.5 C 38 %
1127 10-03-2020 19:49:17 12.5 C 38 %
1128 10-03-2020 19:59:17 12.5 C 38 %
1129 10-03-2020 20:09:17 12.5 C 38 %
1130 10-03-2020 20:19:17 12.7 C 38 %
1131 10-03-2020 20:29:18 12.8 C 38 %
1132 10-03-2020 20:39:18 12.8 C 38 %
1133 10-03-2020 20:49:17 12.9 C 38 %
1134 10-03-2020 20:59:17 13.1 C 37 %
1135 10-03-2020 21:09:18 12.8 C 38 %
1136 10-03-2020 21:19:17 13.2 C 37 %
1137 10-03-2020 21:29:18 13.2 C 37 %
1138 10-03-2020 21:39:18 13.2 C 37 %
1139 10-03-2020 21:49:17 13.2 C 37 %
1140 10-03-2020 21:59:18 13.1 C 37 %
1141 10-03-2020 22:09:18 12.8 C 39 %
1142 10-03-2020 22:19:18 12.5 C 40 %
1143 10-03-2020 22:29:18 12.5 C 40 %
1144 10-03-2020 22:39:18 12.7 C 40 %
1145 10-03-2020 22:49:17 12.5 C 40 %
1146 10-03-2020 22:59:17 12.5 C 40 %
1147 10-03-2020 23:09:18 12.8 C 40 %
1148 10-03-2020 23:19:18 12.8 C 39 %
1149 10-03-2020 23:29:18 12.8 C 39 %
1150 10-03-2020 23:39:18 12.8 C 39 %
Sensor: Nr:Datum:Temp:Feuchte:
Aussen-T/F 1151 10-03-2020 23:49:17 12.9 C 39 %
1152 10-03-2020 23:59:17 13.1 C 37 %
1153 11-03-2020 00:09:17 13.5 C 36 %
1154 11-03-2020 00:19:17 13.5 C 36 %
1155 11-03-2020 00:29:17 13.6 C 36 %
1156 11-03-2020 00:39:18 13.7 C 36 %
1157 11-03-2020 00:49:17 13.7 C 36 %
1158 11-03-2020 00:59:17 13.7 C 36 %
1159 11-03-2020 01:09:17 13.5 C 36 %
1160 11-03-2020 01:19:17 13.4 C 37 %
1161 11-03-2020 01:29:17 13.4 C 37 %
1162 11-03-2020 01:39:17 13.3 C 37 %
1163 11-03-2020 01:49:17 13 C 38 %
1164 11-03-2020 01:59:17 12.9 C 39 %
1165 11-03-2020 02:09:17 13.2 C 38 %
1166 11-03-2020 02:19:17 13.1 C 38 %
1167 11-03-2020 02:29:17 13.1 C 38 %
1168 11-03-2020 02:39:17 13.2 C 37 %
1169 11-03-2020 02:49:17 13.4 C 37 %
1170 11-03-2020 02:59:17 13.5 C 37 %
1171 11-03-2020 03:09:17 13.1 C 37 %
1172 11-03-2020 03:19:18 13 C 38 %
1173 11-03-2020 03:29:18 13.2 C 37 %
1174 11-03-2020 03:39:18 13.4 C 37 %
1175 11-03-2020 03:49:17 13.5 C 37 %
Sensor: Nr:Datum:Temp:Feuchte:
Aussen-T/F 1176 11-03-2020 03:59:18 13.4 C 37 %
1177 11-03-2020 04:09:18 13.4 C 37 %
1178 11-03-2020 04:19:18 13.4 C 37 %
1179 11-03-2020 04:29:18 13.4 C 37 %
1180 11-03-2020 04:39:17 13.4 C 37 %
1181 11-03-2020 04:49:17 13.5 C 36 %
1182 11-03-2020 04:59:17 13.4 C 37 %
1183 11-03-2020 05:09:17 13.1 C 37 %
1184 11-03-2020 05:19:17 13.1 C 37 %
1185 11-03-2020 05:29:17 13.1 C 37 %
1186 11-03-2020 05:39:17 13.1 C 37 %
1187 11-03-2020 05:49:18 13 C 37 %
1188 11-03-2020 05:59:18 12.9 C 38 %
1189 11-03-2020 06:09:18 13.1 C 37 %
1190 11-03-2020 06:19:17 13.2 C 37 %
1191 11-03-2020 06:29:17 13.2 C 36 %
1192 11-03-2020 06:39:18 13.2 C 36 %
1193 11-03-2020 06:49:17 13.6 C 36 %
1194 11-03-2020 06:59:17 13.4 C 36 %
1195 11-03-2020 07:09:17 13.2 C 36 %
1196 11-03-2020 07:19:17 13.1 C 36 %
1197 11-03-2020 07:29:17 13.1 C 36 %
1198 11-03-2020 07:39:17 13.1 C 36 %
1199 11-03-2020 07:49:17 13.1 C 36 %
1200 11-03-2020 07:59:18 12.9 C 37 %
Sensor: Nr:Datum:Temp:Feuchte:
Aussen-T/F 1201 11-03-2020 08:09:18 12.8 C 37 %
1202 11-03-2020 08:19:18 12.6 C 37 %
1203 11-03-2020 08:29:18 12.6 C 37 %
1204 11-03-2020 08:39:18 12.7 C 37 %
1205 11-03-2020 08:49:18 12.8 C 37 %
1206 11-03-2020 08:59:18 12.7 C 37 %
1207 11-03-2020 09:09:18 13 C 36 %
1208 11-03-2020 09:19:18 13.2 C 36 %
1209 11-03-2020 09:29:18 13.6 C 36 %
1210 11-03-2020 09:39:18 13.8 C 36 %
1211 11-03-2020 09:49:18 14 C 35 %
1212 11-03-2020 09:59:18 13.9 C 35 %
1213 11-03-2020 10:09:18 13.7 C 36 %
1214 11-03-2020 10:19:17 13.8 C 36 %
1215 11-03-2020 10:29:17 14 C 35 %
1216 11-03-2020 10:39:18 14.3 C 35 %
1217 11-03-2020 10:49:18 14.4 C 35 %
1218 11-03-2020 10:59:18 14.5 C 35 %
1219 11-03-2020 11:09:17 14.9 C 35 %
1220 11-03-2020 11:19:17 14.6 C 35 %
1221 11-03-2020 11:29:17 15.8 C 33 %
1222 11-03-2020 11:39:17 15.8 C 33 %
1223 11-03-2020 11:49:17 15.6 C 33 %
1224 11-03-2020 11:59:17 15.9 C 33 %
1225 11-03-2020 12:09:18 15.9 C 33 %
Sensor: Nr:Datum:Temp:Feuchte:
Aussen-T/F 1226 11-03-2020 12:19:18 16.4 C 32 %
1227 11-03-2020 12:29:18 16.5 C 32 %
1228 11-03-2020 12:39:18 16.3 C 32 %
1229 11-03-2020 12:49:18 16.5 C 32 %
1230 11-03-2020 12:59:18 16.3 C 32 %
1231 11-03-2020 13:09:17 16 C 32 %
1232 11-03-2020 13:19:17 17 C 31 %
1233 11-03-2020 13:29:17 16.8 C 31 %
1234 11-03-2020 13:39:17 17.7 C 31 %
1235 11-03-2020 13:49:17 15.8 C 32 %
1236 11-03-2020 13:59:17 16.1 C 31 %
1237 11-03-2020 14:09:17 16.3 C 31 %
1238 11-03-2020 14:19:17 16.1 C 31 %
1239 11-03-2020 14:29:17 16.6 C 31 %
1240 11-03-2020 14:39:17 15.7 C 31 %
1241 11-03-2020 14:49:17 16.2 C 31 %
1242 11-03-2020 14:59:17 15.8 C 31 %
1243 11-03-2020 15:09:17 16.5 C 31 %
1244 11-03-2020 15:19:17 15.6 C 32 %
1245 11-03-2020 15:29:18 16.4 C 31 %
1246 11-03-2020 15:39:18 17.5 C 30 %
1247 11-03-2020 15:49:17 15.1 C 32 %
1248 11-03-2020 15:59:17 15.6 C 33 %
1249 11-03-2020 16:09:18 15 C 33 %
1250 11-03-2020 16:19:18 14.7 C 35 %
Sensor: Nr:Datum:Temp:Feuchte:
Aussen-T/F 1251 11-03-2020 16:29:18 15.1 C 34 %
1252 11-03-2020 16:39:17 14.5 C 35 %
1253 11-03-2020 16:49:18 14.5 C 35 %
1254 11-03-2020 16:59:18 14.5 C 34 %
1255 11-03-2020 17:09:18 14.1 C 35 %
1256 11-03-2020 17:19:18 14 C 35 %
1257 11-03-2020 17:29:18 13.2 C 38 %
1258 11-03-2020 17:39:17 13.2 C 38 %
1259 11-03-2020 17:49:18 13.2 C 38 %
1260 11-03-2020 17:59:18 13.4 C 37 %
1261 11-03-2020 18:09:18 13.5 C 37 %
1262 11-03-2020 18:19:17 13.5 C 36 %
1263 11-03-2020 18:29:17 13.3 C 36 %
1264 11-03-2020 18:39:17 13.4 C 36 %
1265 11-03-2020 18:49:17 13.5 C 36 %
1266 11-03-2020 18:59:17 13.4 C 36 %
1267 11-03-2020 19:09:17 13.2 C 37 %
1268 11-03-2020 19:19:17 13.1 C 37 %
1269 11-03-2020 19:29:17 13.1 C 37 %
1270 11-03-2020 19:39:18 13.4 C 36 %
1271 11-03-2020 19:49:17 13.3 C 36 %
1272 11-03-2020 19:59:17 13.2 C 36 %
1273 11-03-2020 20:09:17 13.4 C 36 %
1274 11-03-2020 20:19:17 13.6 C 36 %
1275 11-03-2020 20:29:18 13.6 C 36 %
Sensor: Nr:Datum:Temp:Feuchte:
Aussen-T/F 1276 11-03-2020 20:39:18 13.6 C 36 %
1277 11-03-2020 20:49:17 13.5 C 36 %
1278 11-03-2020 20:59:17 13.3 C 36 %
1279 11-03-2020 21:09:18 13.2 C 36 %
1280 11-03-2020 21:19:17 13.4 C 36 %
1281 11-03-2020 21:29:17 13.5 C 36 %
1282 11-03-2020 21:39:18 13.7 C 36 %
1283 11-03-2020 21:49:17 14 C 35 %
1284 11-03-2020 21:59:17 14 C 35 %
1285 11-03-2020 22:09:18 14.1 C 34 %
1286 11-03-2020 22:19:18 14 C 34 %
1287 11-03-2020 22:29:18 13.9 C 35 %
1288 11-03-2020 22:39:17 13.9 C 35 %
1289 11-03-2020 22:49:18 13.8 C 35 %
1290 11-03-2020 22:59:18 13.8 C 35 %
1291 11-03-2020 23:09:18 13.8 C 34 %
1292 11-03-2020 23:19:18 13.9 C 34 %
1293 11-03-2020 23:29:18 13.8 C 34 %
1294 11-03-2020 23:39:17 13.8 C 34 %
1295 11-03-2020 23:49:17 13.8 C 34 %
1296 11-03-2020 23:59:17 13.7 C 34 %
1297 12-03-2020 00:09:17 13.6 C 34 %
1298 12-03-2020 00:19:17 13.6 C 34 %
1299 12-03-2020 00:29:17 13.6 C 34 %
1300 12-03-2020 00:39:18 13.7 C 34 %
Sensor: Nr:Datum:Temp:Feuchte:
Aussen-T/F 1301 12-03-2020 00:49:17 13.8 C 34 %
1302 12-03-2020 00:59:17 13.9 C 34 %
1303 12-03-2020 01:09:18 13.9 C 34 %
1304 12-03-2020 01:19:17 13.8 C 34 %
1305 12-03-2020 01:29:17 13.9 C 34 %
1306 12-03-2020 01:39:18 13.8 C 34 %
1307 12-03-2020 01:49:17 13.7 C 34 %
1308 12-03-2020 01:59:17 13.8 C 34 %
1309 12-03-2020 02:09:18 13.7 C 34 %
1310 12-03-2020 02:19:17 13.7 C 34 %
1311 12-03-2020 02:29:18 13.6 C 34 %
1312 12-03-2020 02:39:18 13.6 C 33 %
1313 12-03-2020 02:49:18 13.6 C 33 %
1314 12-03-2020 02:59:18 13.5 C 33 %
1315 12-03-2020 03:09:18 13.5 C 33 %
1316 12-03-2020 03:19:18 13.5 C 32 %
1317 12-03-2020 03:29:18 13.5 C 32 %
1318 12-03-2020 03:39:17 13.4 C 32 %
1319 12-03-2020 03:49:17 13.2 C 32 %
1320 12-03-2020 03:59:17 13.1 C 32 %
1321 12-03-2020 04:09:17 13.1 C 32 %
1322 12-03-2020 04:19:17 13.1 C 32 %
1323 12-03-2020 04:29:17 13 C 32 %
1324 12-03-2020 04:39:17 13 C 32 %
1325 12-03-2020 04:49:17 13 C 32 %
Sensor: Nr:Datum:Temp:Feuchte:
Aussen-T/F 1326 12-03-2020 04:59:17 13 C 32 %
1327 12-03-2020 05:09:17 12.7 C 33 %
1328 12-03-2020 05:19:17 12.7 C 33 %
1329 12-03-2020 05:29:17 12.6 C 34 %
1330 12-03-2020 05:39:18 12.5 C 34 %
1331 12-03-2020 05:49:17 12.5 C 34 %
1332 12-03-2020 05:59:17 12.3 C 34 %
1333 12-03-2020 06:09:18 12.2 C 34 %
1334 12-03-2020 06:19:18 12.1 C 34 %
1335 12-03-2020 06:29:18 12 C 34 %
1336 12-03-2020 06:39:18 12 C 35 %
1337 12-03-2020 06:49:17 12 C 35 %
1338 12-03-2020 06:59:17 11.9 C 35 %
1339 12-03-2020 07:09:18 11.9 C 35 %
1340 12-03-2020 07:19:18 12 C 35 %
1341 12-03-2020 07:29:18 12 C 35 %
1342 12-03-2020 07:39:18 12 C 35 %
1343 12-03-2020 07:49:17 11.2 C 38 %
1344 12-03-2020 07:59:17 11 C 39 %
1345 12-03-2020 08:09:18 10.8 C 41 %
1346 12-03-2020 08:19:18 10.7 C 42 %
1347 12-03-2020 08:29:18 10.4 C 40 %
1348 12-03-2020 08:39:18 10.1 C 39 %
1349 12-03-2020 08:49:17 10.4 C 38 %
1350 12-03-2020 08:59:17 10.2 C 38 %
Sensor: Nr:Datum:Temp:Feuchte:
Aussen-T/F 1351 12-03-2020 09:09:18 10.4 C 38 %
1352 12-03-2020 09:19:17 10.5 C 37 %
1353 12-03-2020 09:29:17 10.9 C 36 %
1354 12-03-2020 09:39:17 10.8 C 36 %
1355 12-03-2020 09:49:18 11 C 36 %
1356 12-03-2020 09:59:18 11.5 C 35 %
1357 12-03-2020 10:09:18 11.7 C 34 %
1358 12-03-2020 10:19:17 11.5 C 34 %
1359 12-03-2020 10:29:17 11.5 C 34 %
1360 12-03-2020 10:39:17 11.8 C 33 %
1361 12-03-2020 10:49:17 11.3 C 33 %
1362 12-03-2020 10:59:17 11.3 C 32 %
1363 12-03-2020 11:09:18 11.6 C 28 %
1364 12-03-2020 11:19:17 11.5 C 27 %
1365 12-03-2020 11:29:17 11.7 C 26 %
1366 12-03-2020 11:39:17 11.9 C 23 %
1367 12-03-2020 11:49:18 11.9 C 20 %
1368 12-03-2020 11:59:18 12.3 C 20 %
1369 12-03-2020 12:09:18 12.2 C 20 %
1370 12-03-2020 12:19:18 12.4 C 20 %
1371 12-03-2020 12:29:18 12.8 C 20 %
1372 12-03-2020 12:39:17 12.4 C 20 %
1373 12-03-2020 12:49:17 12.1 C 20 %
1374 12-03-2020 12:59:18 12 C 20 %
1375 12-03-2020 13:09:18 12.2 C 20 %
Sensor: Nr:Datum:Temp:Feuchte:
Aussen-T/F 1376 12-03-2020 13:19:17 12.3 C 20 %
1377 12-03-2020 13:29:17 12.3 C 20 %
1378 12-03-2020 13:39:17 12.7 C 20 %
1379 12-03-2020 13:49:17 12.5 C 20 %
1380 12-03-2020 13:59:17 12.4 C 20 %
1381 12-03-2020 14:09:17 12.2 C 20 %
1382 12-03-2020 14:19:17 12.2 C 20 %
1383 12-03-2020 14:29:18 12.2 C 20 %
1384 12-03-2020 14:39:18 13.4 C 20 %
1385 12-03-2020 14:49:17 13 C 20 %
1386 12-03-2020 14:59:17 11.8 C 20 %
1387 12-03-2020 15:09:17 11.9 C 20 %
1388 12-03-2020 15:19:17 11.8 C 20 %
1389 12-03-2020 15:29:18 11.9 C 20 %
1390 12-03-2020 15:39:18 11.8 C 20 %
1391 12-03-2020 15:49:17 11.7 C 20 %
1392 12-03-2020 15:59:18 11.6 C 20 %
1393 12-03-2020 16:09:18 11.5 C 20 %
1394 12-03-2020 16:19:18 11.7 C 20 %
1395 12-03-2020 16:29:18 11.7 C 20 %
1396 12-03-2020 16:39:18 12.4 C 20 %
1397 12-03-2020 16:49:17 11.8 C 20 %
1398 12-03-2020 16:59:17 11.5 C 20 %
1399 12-03-2020 17:09:17 11.5 C 20 %
1400 12-03-2020 17:19:17 11.5 C 20 %
Sensor: Nr:Datum:Temp:Feuchte:
Aussen-T/F 1401 12-03-2020 17:29:17 11.2 C 20 %
1402 12-03-2020 17:39:18 10.9 C 20 %
1403 12-03-2020 17:49:17 11 C 20 %
1404 12-03-2020 17:59:18 10.8 C 22 %
1405 12-03-2020 18:09:18 10.3 C 25 %
1406 12-03-2020 18:19:18 9.8 C 27 %
1407 12-03-2020 18:29:18 9.3 C 30 %
1408 12-03-2020 18:39:17 8.7 C 31 %
1409 12-03-2020 18:49:17 7.9 C 33 %
1410 12-03-2020 18:59:17 7.6 C 35 %
1411 12-03-2020 19:09:17 7.5 C 34 %
1412 12-03-2020 19:19:17 7 C 35 %
1413 12-03-2020 19:29:17 6.6 C 36 %
1414 12-03-2020 19:39:17 6.5 C 36 %
1415 12-03-2020 19:49:17 7.1 C 35 %
1416 12-03-2020 19:59:17 6.8 C 35 %
1417 12-03-2020 20:09:17 7.6 C 35 %
1418 12-03-2020 20:19:17 7.3 C 35 %
1419 12-03-2020 20:29:17 6.8 C 35 %
1420 12-03-2020 20:39:17 6.8 C 36 %
1421 12-03-2020 20:49:17 6.4 C 36 %
1422 12-03-2020 20:59:17 6.7 C 36 %
1423 12-03-2020 21:09:17 6.3 C 36 %
1424 12-03-2020 21:19:17 7.2 C 35 %
1425 12-03-2020 21:29:17 7.6 C 35 %
Sensor: Nr:Datum:Temp:Feuchte:
Aussen-T/F 1426 12-03-2020 21:39:18 7.4 C 35 %
1427 12-03-2020 21:49:17 7.4 C 35 %
1428 12-03-2020 21:59:17 7.6 C 35 %
1429 12-03-2020 22:09:18 7.6 C 35 %
1430 12-03-2020 22:19:18 7.1 C 35 %
1431 12-03-2020 22:29:18 7.2 C 35 %
1432 12-03-2020 22:39:18 7.5 C 35 %
1433 12-03-2020 22:49:17 7.6 C 35 %
1434 12-03-2020 22:59:17 7.3 C 35 %
1435 12-03-2020 23:09:17 7.2 C 35 %
1436 12-03-2020 23:19:17 7 C 35 %
1437 12-03-2020 23:29:18 6.2 C 35 %
1438 12-03-2020 23:39:18 6.7 C 34 %
1439 12-03-2020 23:49:17 6.5 C 34 %
1440 12-03-2020 23:59:17 6.4 C 32 %
1441 13-03-2020 00:09:17 6.5 C 32 %
1442 13-03-2020 00:19:17 6.5 C 32 %
1443 13-03-2020 00:29:17 6.1 C 32 %
1444 13-03-2020 00:39:17 6.2 C 32 %
1445 13-03-2020 00:49:17 6 C 32 %
1446 13-03-2020 00:59:17 5.9 C 33 %
1447 13-03-2020 01:09:17 5.4 C 33 %
1448 13-03-2020 01:19:17 5.4 C 33 %
1449 13-03-2020 01:29:17 5.1 C 34 %
1450 13-03-2020 01:39:17 5.2 C 34 %
Sensor: Nr:Datum:Temp:Feuchte:
Aussen-T/F 1451 13-03-2020 01:49:17 5.2 C 33 %
1452 13-03-2020 01:59:17 5.2 C 33 %
1453 13-03-2020 02:09:17 4.8 C 35 %
1454 13-03-2020 02:19:17 5 C 34 %
1455 13-03-2020 02:29:17 5.1 C 34 %
1456 13-03-2020 02:39:18 5.1 C 34 %
1457 13-03-2020 02:49:17 5.1 C 34 %
1458 13-03-2020 02:59:17 5.1 C 34 %
1459 13-03-2020 03:09:17 5 C 34 %
1460 13-03-2020 03:19:17 5.2 C 34 %
1461 13-03-2020 03:29:17 5.2 C 34 %
1462 13-03-2020 03:39:18 5.1 C 34 %
1463 13-03-2020 03:49:17 5.1 C 34 %
1464 13-03-2020 03:59:17 5.2 C 34 %
1465 13-03-2020 04:09:17 5 C 34 %
1466 13-03-2020 04:19:17 4.9 C 35 %
1467 13-03-2020 04:29:17 5.1 C 35 %
1468 13-03-2020 04:39:17 5.1 C 35 %
1469 13-03-2020 04:49:17 5 C 34 %
1470 13-03-2020 04:59:17 5.2 C 34 %
1471 13-03-2020 05:09:17 5.2 C 34 %
1472 13-03-2020 05:19:17 5.6 C 34 %
1473 13-03-2020 05:29:17 5.4 C 34 %
1474 13-03-2020 05:39:17 5.4 C 34 %
1475 13-03-2020 05:49:18 5.4 C 34 %
Sensor: Nr:Datum:Temp:Feuchte:
Aussen-T/F 1476 13-03-2020 05:59:18 5.4 C 34 %
1477 13-03-2020 06:09:18 5.6 C 34 %
1478 13-03-2020 06:19:17 5.7 C 34 %
1479 13-03-2020 06:29:17 5.4 C 34 %
1480 13-03-2020 06:39:17 5.4 C 35 %
1481 13-03-2020 06:49:17 5.3 C 34 %
1482 13-03-2020 06:59:17 5.4 C 35 %
1483 13-03-2020 07:09:17 5.3 C 35 %
1484 13-03-2020 07:19:17 5.4 C 35 %
1485 13-03-2020 07:29:17 5.6 C 35 %
1486 13-03-2020 07:39:17 5.7 C 35 %
1487 13-03-2020 07:49:18 5.7 C 35 %
1488 13-03-2020 07:59:18 5.7 C 35 %
1489 13-03-2020 08:09:17 5.8 C 35 %
1490 13-03-2020 08:19:17 6 C 35 %
1491 13-03-2020 08:29:17 5.9 C 35 %
1492 13-03-2020 08:39:18 6 C 35 %
1493 13-03-2020 08:49:17 6.2 C 35 %
1494 13-03-2020 08:59:17 6.4 C 34 %
1495 13-03-2020 09:09:17 6.5 C 35 %
1496 13-03-2020 09:19:17 6.9 C 34 %
1497 13-03-2020 09:29:17 7.1 C 33 %
1498 13-03-2020 09:39:18 7.1 C 33 %
1499 13-03-2020 09:49:17 6.6 C 34 %
1500 13-03-2020 09:59:17 7.1 C 33 %
Sensor: Nr:Datum:Temp:Feuchte:
Aussen-T/F 1501 13-03-2020 10:09:18 7.5 C 33 %
1502 13-03-2020 10:19:17 8.5 C 32 %
1503 13-03-2020 10:29:17 8.1 C 32 %
1504 13-03-2020 10:39:18 8 C 32 %
1505 13-03-2020 10:49:17 7.6 C 33 %
1506 13-03-2020 10:59:17 7.4 C 35 %
1507 13-03-2020 11:09:17 8.9 C 33 %
1508 13-03-2020 11:19:17 9.1 C 31 %
1509 13-03-2020 11:29:17 8 C 32 %
1510 13-03-2020 11:39:17 7.3 C 35 %
1511 13-03-2020 11:49:18 7.4 C 35 %
1512 13-03-2020 11:59:18 8.2 C 33 %
1513 13-03-2020 12:09:18 8.9 C 32 %
1514 13-03-2020 12:19:18 9.7 C 29 %
1515 13-03-2020 12:29:18 9 C 30 %
1516 13-03-2020 12:39:18 9.6 C 30 %
1517 13-03-2020 12:49:18 9 C 31 %
1518 13-03-2020 12:59:18 8.8 C 31 %
1519 13-03-2020 13:09:18 8.4 C 32 %
1520 13-03-2020 13:19:18 8.6 C 33 %
1521 13-03-2020 13:29:18 9.5 C 31 %
1522 13-03-2020 13:39:18 9.9 C 30 %
1523 13-03-2020 13:49:17 9.7 C 30 %
1524 13-03-2020 13:59:17 9.6 C 30 %
1525 13-03-2020 14:09:18 9.3 C 30 %
Sensor: Nr:Datum:Temp:Feuchte:
Aussen-T/F 1526 13-03-2020 14:19:18 9.4 C 30 %
1527 13-03-2020 14:29:18 8.9 C 32 %
1528 13-03-2020 14:39:18 9.5 C 31 %
1529 13-03-2020 14:49:18 10.3 C 28 %
1530 13-03-2020 14:59:18 10.1 C 28 %
1531 13-03-2020 15:09:18 9.5 C 29 %
1532 13-03-2020 15:19:17 9.3 C 29 %
1533 13-03-2020 15:29:17 10.1 C 27 %
1534 13-03-2020 15:39:18 10.4 C 26 %
1535 13-03-2020 15:49:18 10.4 C 26 %
1536 13-03-2020 15:59:18 10.1 C 27 %
1537 13-03-2020 16:09:18 10 C 27 %
1538 13-03-2020 16:19:17 9.8 C 27 %
1539 13-03-2020 16:29:17 9.1 C 29 %
1540 13-03-2020 16:39:17 9 C 30 %
1541 13-03-2020 16:49:17 10 C 27 %
1542 13-03-2020 16:59:17 9.3 C 30 %
1543 13-03-2020 17:09:17 9.1 C 30 %
1544 13-03-2020 17:19:18 9.1 C 30 %
1545 13-03-2020 17:29:18 9.3 C 30 %
1546 13-03-2020 17:39:17 9.4 C 29 %
1547 13-03-2020 17:49:18 9.5 C 30 %
1548 13-03-2020 17:59:18 9.1 C 31 %
1549 13-03-2020 18:09:18 8.7 C 31 %
1550 13-03-2020 18:19:17 8.6 C 31 %
Sensor: Nr:Datum:Temp:Feuchte:
Aussen-T/F 1551 13-03-2020 18:29:17 8.4 C 31 %
1552 13-03-2020 18:39:17 8.2 C 31 %
1553 13-03-2020 18:49:17 8.1 C 32 %
1554 13-03-2020 18:59:17 8 C 32 %
1555 13-03-2020 19:09:17 7.8 C 33 %
1556 13-03-2020 19:19:17 7.3 C 35 %
1557 13-03-2020 19:29:17 7.3 C 35 %
1558 13-03-2020 19:39:18 7.3 C 35 %
1559 13-03-2020 19:49:17 7.3 C 35 %
1560 13-03-2020 19:59:18 7 C 35 %
1561 13-03-2020 20:09:18 6.7 C 36 %
1562 13-03-2020 20:19:17 6.7 C 36 %
1563 13-03-2020 20:29:17 6.9 C 36 %
1564 13-03-2020 20:39:17 6.4 C 36 %
1565 13-03-2020 20:49:17 6.3 C 37 %
1566 13-03-2020 20:59:17 6.2 C 37 %
1567 13-03-2020 21:09:18 5.8 C 38 %
1568 13-03-2020 21:19:18 5.8 C 38 %
1569 13-03-2020 21:29:18 5.8 C 38 %
1570 13-03-2020 21:39:18 6.2 C 37 %
1571 13-03-2020 21:49:17 5.7 C 38 %
1572 13-03-2020 21:59:17 5.8 C 38 %
1573 13-03-2020 22:09:18 5.4 C 39 %
1574 13-03-2020 22:19:17 5.6 C 39 %
1575 13-03-2020 22:29:18 5.4 C 39 %
Sensor: Nr:Datum:Temp:Feuchte:
Aussen-T/F 1576 13-03-2020 22:39:18 5.5 C 40 %
1577 13-03-2020 22:49:17 5.7 C 39 %
1578 13-03-2020 22:59:17 5.8 C 39 %
1579 13-03-2020 23:09:18 5.6 C 39 %
1580 13-03-2020 23:19:17 5.6 C 39 %
1581 13-03-2020 23:29:17 5.5 C 40 %
1582 13-03-2020 23:39:17 5.4 C 40 %
1583 13-03-2020 23:49:17 5.4 C 40 %
1584 13-03-2020 23:59:17 4.8 C 41 %
1585 14-03-2020 00:09:17 4.8 C 41 %
1586 14-03-2020 00:19:18 4.6 C 41 %
1587 14-03-2020 00:29:18 4.4 C 41 %
1588 14-03-2020 00:39:18 3.7 C 42 %
1589 14-03-2020 00:49:17 3.5 C 44 %
1590 14-03-2020 00:59:17 3 C 43 %
1591 14-03-2020 01:09:18 2.6 C 45 %
1592 14-03-2020 01:19:17 2.4 C 46 %
1593 14-03-2020 01:29:18 2 C 45 %
1594 14-03-2020 01:39:18 2 C 46 %
1595 14-03-2020 01:49:17 2.4 C 48 %
1596 14-03-2020 01:59:18 2.8 C 49 %
1597 14-03-2020 02:09:18 3.3 C 47 %
1598 14-03-2020 02:19:18 3.6 C 46 %
1599 14-03-2020 02:29:18 3.3 C 45 %
1600 14-03-2020 02:39:18 3 C 45 %
Sensor: Nr:Datum:Temp:Feuchte:
Aussen-T/F 1601 14-03-2020 02:49:18 2.8 C 45 %
1602 14-03-2020 02:59:18 2.3 C 46 %
1603 14-03-2020 03:09:18 2.2 C 46 %
1604 14-03-2020 03:19:17 1.5 C 47 %
1605 14-03-2020 03:29:17 1.3 C 47 %
1606 14-03-2020 03:39:17 1.4 C 48 %
1607 14-03-2020 03:49:18 1.5 C 48 %
1608 14-03-2020 03:59:18 1.5 C 49 %
1609 14-03-2020 04:09:17 1.7 C 49 %
1610 14-03-2020 04:19:17 1.6 C 48 %
1611 14-03-2020 04:29:17 1.6 C 49 %
1612 14-03-2020 04:39:17 1.5 C 48 %
1613 14-03-2020 04:49:17 1.3 C 48 %
1614 14-03-2020 04:59:17 1.3 C 48 %
1615 14-03-2020 05:09:17 1.3 C 49 %
1616 14-03-2020 05:19:17 1.1 C 48 %
1617 14-03-2020 05:29:17 0.8 C 49 %
1618 14-03-2020 05:39:18 0.9 C 50 %
1619 14-03-2020 05:49:17 1.3 C 49 %
1620 14-03-2020 05:59:17 0.5 C 49 %
1621 14-03-2020 06:09:18 0.3 C 49 %
1622 14-03-2020 06:19:18 0.6 C 50 %
1623 14-03-2020 06:29:18 0.4 C 49 %
1624 14-03-2020 06:39:18 0.4 C 50 %
1625 14-03-2020 06:49:17 0.8 C 50 %
Sensor: Nr:Datum:Temp:Feuchte:
Aussen-T/F 1626 14-03-2020 06:59:17 0.8 C 50 %
1627 14-03-2020 07:09:17 0.7 C 50 %
1628 14-03-2020 07:19:17 0.8 C 50 %
1629 14-03-2020 07:29:17 0.6 C 49 %
1630 14-03-2020 07:39:18 0.6 C 49 %
1631 14-03-2020 07:49:17 0.8 C 49 %
1632 14-03-2020 07:59:17 0.8 C 50 %
1633 14-03-2020 08:09:17 1 C 48 %
1634 14-03-2020 08:19:17 1.4 C 49 %
1635 14-03-2020 08:29:17 1.7 C 49 %
1636 14-03-2020 08:39:18 1.9 C 49 %
1637 14-03-2020 08:49:17 2.2 C 48 %
1638 14-03-2020 08:59:17 2.5 C 48 %
1639 14-03-2020 09:09:17 2.8 C 48 %
1640 14-03-2020 09:19:17 3.4 C 46 %
1641 14-03-2020 09:29:17 3.7 C 45 %
1642 14-03-2020 09:39:18 4.1 C 43 %
1643 14-03-2020 09:49:17 4.5 C 43 %
1644 14-03-2020 09:59:17 5 C 41 %
1645 14-03-2020 10:09:18 5.7 C 41 %
1646 14-03-2020 10:19:18 6 C 39 %
1647 14-03-2020 10:29:18 6.8 C 40 %
1648 14-03-2020 10:39:18 7.7 C 38 %
1649 14-03-2020 10:49:17 7.7 C 37 %
1650 14-03-2020 10:59:17 8.4 C 36 %
Sensor: Nr:Datum:Temp:Feuchte:
Aussen-T/F 1651 14-03-2020 11:09:18 9 C 35 %
1652 14-03-2020 11:19:18 10.4 C 34 %
1653 14-03-2020 11:29:18 11 C 31 %
1654 14-03-2020 11:39:18 10.4 C 31 %
1655 14-03-2020 11:49:17 10.1 C 32 %
1656 14-03-2020 11:59:17 11.3 C 31 %
1657 14-03-2020 12:09:18 13 C 27 %
1658 14-03-2020 12:19:17 12.4 C 27 %
1659 14-03-2020 12:29:18 12 C 27 %
1660 14-03-2020 12:39:18 11.3 C 28 %
1661 14-03-2020 12:49:17 11.5 C 28 %
1662 14-03-2020 12:59:17 13.1 C 26 %
1663 14-03-2020 13:09:18 12.9 C 25 %
1664 14-03-2020 13:19:17 13 C 22 %
1665 14-03-2020 13:29:17 13.3 C 23 %
1666 14-03-2020 13:39:17 12.5 C 22 %
1667 14-03-2020 13:49:17 12.4 C 22 %
1668 14-03-2020 13:59:17 13.8 C 21 %
1669 14-03-2020 14:09:18 12.3 C 22 %
1670 14-03-2020 14:19:17 12.5 C 21 %
1671 14-03-2020 14:29:17 14 C 20 %
1672 14-03-2020 14:39:17 13.7 C 20 %
1673 14-03-2020 14:49:18 12.3 C 20 %
1674 14-03-2020 14:59:18 11.6 C 23 %
1675 14-03-2020 15:09:18 11.4 C 22 %
Sensor: Nr:Datum:Temp:Feuchte:
Aussen-T/F 1676 14-03-2020 15:19:17 12.1 C 21 %
1677 14-03-2020 15:29:17 12.1 C 20 %
1678 14-03-2020 15:39:18 11.7 C 21 %
1679 14-03-2020 15:49:17 12 C 20 %
1680 14-03-2020 15:59:17 11.8 C 21 %
1681 14-03-2020 16:09:18 11.2 C 23 %
1682 14-03-2020 16:19:17 10.6 C 25 %
1683 14-03-2020 16:29:17 10.4 C 26 %
1684 14-03-2020 16:39:18 9.9 C 26 %
1685 14-03-2020 16:49:18 10.1 C 26 %
1686 14-03-2020 16:59:18 9.8 C 27 %
1687 14-03-2020 17:09:18 10.3 C 26 %
1688 14-03-2020 17:19:17 10.3 C 26 %
1689 14-03-2020 17:29:17 10.7 C 26 %
1690 14-03-2020 17:39:17 9.6 C 27 %
1691 14-03-2020 17:49:17 9.3 C 28 %
1692 14-03-2020 17:59:17 8.6 C 30 %
1693 14-03-2020 18:09:17 8.1 C 31 %
1694 14-03-2020 18:19:17 7.3 C 33 %
1695 14-03-2020 18:29:17 7.1 C 33 %
1696 14-03-2020 18:39:17 6.3 C 36 %
1697 14-03-2020 18:49:17 5.9 C 37 %
1698 14-03-2020 18:59:17 5.9 C 38 %
1699 14-03-2020 19:09:17 5.3 C 38 %
1700 14-03-2020 19:19:17 5.5 C 39 %
Sensor: Nr:Datum:Temp:Feuchte:
Aussen-T/F 1701 14-03-2020 19:29:17 5.1 C 39 %
1702 14-03-2020 19:39:17 5.6 C 39 %
1703 14-03-2020 19:49:17 5.2 C 39 %
1704 14-03-2020 19:59:17 5.3 C 39 %
1705 14-03-2020 20:09:18 5.3 C 39 %
1706 14-03-2020 20:19:18 5.3 C 39 %
1707 14-03-2020 20:29:18 5.3 C 39 %
1708 14-03-2020 20:39:18 5.6 C 39 %
1709 14-03-2020 20:49:17 5.5 C 39 %
1710 14-03-2020 20:59:18 5.7 C 39 %
1711 14-03-2020 21:09:18 5.7 C 39 %
1712 14-03-2020 21:19:18 5.7 C 39 %
1713 14-03-2020 21:29:18 5.6 C 38 %
1714 14-03-2020 21:39:17 5.1 C 39 %
1715 14-03-2020 21:49:18 5.2 C 39 %
1716 14-03-2020 21:59:18 5 C 39 %
1717 14-03-2020 22:09:18 5 C 39 %
1718 14-03-2020 22:19:17 5 C 39 %
1719 14-03-2020 22:29:17 5 C 39 %
1720 14-03-2020 22:39:18 5.1 C 39 %
1721 14-03-2020 22:49:18 4.8 C 40 %
1722 14-03-2020 22:59:18 5.1 C 39 %
1723 14-03-2020 23:09:17 5.5 C 39 %
1724 14-03-2020 23:19:17 5.7 C 39 %
1725 14-03-2020 23:29:17 5.6 C 40 %
Sensor: Nr:Datum:Temp:Feuchte:
Aussen-T/F 1726 14-03-2020 23:39:17 5.6 C 39 %
1727 14-03-2020 23:49:18 5.8 C 40 %
1728 14-03-2020 23:59:18 5.8 C 40 %
1729 15-03-2020 00:09:18 5.9 C 39 %
1730 15-03-2020 00:19:17 5.8 C 39 %
1731 15-03-2020 00:29:17 6.1 C 37 %
1732 15-03-2020 00:39:18 6 C 38 %
1733 15-03-2020 00:49:18 5.6 C 39 %
1734 15-03-2020 00:59:18 5.3 C 39 %
1735 15-03-2020 01:09:17 5.1 C 40 %
1736 15-03-2020 01:19:18 5.1 C 39 %
1737 15-03-2020 01:29:18 5.5 C 39 %
1738 15-03-2020 01:39:17 5.2 C 40 %
1739 15-03-2020 01:49:17 5.2 C 40 %
1740 15-03-2020 01:59:17 5.2 C 40 %
1741 15-03-2020 02:09:17 5.1 C 40 %
1742 15-03-2020 02:19:17 5.1 C 40 %
1743 15-03-2020 02:29:17 4.8 C 40 %
1744 15-03-2020 02:39:18 4.5 C 40 %
1745 15-03-2020 02:49:17 4.9 C 40 %
1746 15-03-2020 02:59:17 5 C 40 %
1747 15-03-2020 03:09:17 4.8 C 40 %
1748 15-03-2020 03:19:17 4.2 C 40 %
1749 15-03-2020 03:29:17 4 C 40 %
1750 15-03-2020 03:39:18 4 C 40 %
Sensor: Nr:Datum:Temp:Feuchte:
Aussen-T/F 1751 15-03-2020 03:49:17 3.8 C 41 %
1752 15-03-2020 03:59:17 3.7 C 42 %
1753 15-03-2020 04:09:18 3.7 C 41 %
1754 15-03-2020 04:19:18 3.9 C 41 %
1755 15-03-2020 04:29:18 3.7 C 41 %
1756 15-03-2020 04:39:18 3.8 C 41 %
1757 15-03-2020 04:49:17 3.7 C 41 %
1758 15-03-2020 04:59:18 3.5 C 41 %
1759 15-03-2020 05:09:18 3.5 C 41 %
1760 15-03-2020 05:19:17 3.3 C 41 %
1761 15-03-2020 05:29:18 3.2 C 41 %
1762 15-03-2020 05:39:18 3 C 41 %
1763 15-03-2020 05:49:17 3.1 C 41 %
1764 15-03-2020 05:59:17 3.1 C 41 %
1765 15-03-2020 06:09:18 3.1 C 41 %
1766 15-03-2020 06:19:17 3.1 C 41 %
1767 15-03-2020 06:29:17 2.9 C 43 %
1768 15-03-2020 06:39:18 3.3 C 41 %
1769 15-03-2020 06:49:18 3.6 C 41 %
1770 15-03-2020 06:59:18 3.3 C 41 %
1771 15-03-2020 07:09:18 3 C 42 %
1772 15-03-2020 07:19:18 3.1 C 42 %
1773 15-03-2020 07:29:18 3.6 C 41 %
1774 15-03-2020 07:39:18 3.6 C 41 %
1775 15-03-2020 07:49:18 3.5 C 41 %
Sensor: Nr:Datum:Temp:Feuchte:
Aussen-T/F 1776 15-03-2020 07:59:18 4 C 41 %
1777 15-03-2020 08:09:18 4.8 C 40 %
1778 15-03-2020 08:19:18 5.4 C 39 %
1779 15-03-2020 08:29:18 5.7 C 39 %
1780 15-03-2020 08:39:18 5.9 C 38 %
1781 15-03-2020 08:49:17 6.4 C 38 %
1782 15-03-2020 08:59:17 6.7 C 38 %
1783 15-03-2020 09:09:18 6.8 C 37 %
1784 15-03-2020 09:19:18 6.9 C 38 %
1785 15-03-2020 09:29:18 7.1 C 37 %
1786 15-03-2020 09:39:18 7.8 C 36 %
1787 15-03-2020 09:49:18 9.2 C 33 %
1788 15-03-2020 09:59:18 9.9 C 32 %
1789 15-03-2020 10:09:18 9.9 C 31 %
1790 15-03-2020 10:19:18 9.8 C 32 %
1791 15-03-2020 10:29:18 10 C 32 %
1792 15-03-2020 10:39:18 10.8 C 31 %
1793 15-03-2020 10:49:17 11.8 C 29 %
1794 15-03-2020 10:59:17 12.5 C 27 %
1795 15-03-2020 11:09:17 13.4 C 25 %
1796 15-03-2020 11:19:17 14.7 C 23 %
1797 15-03-2020 11:29:17 16 C 20 %
1798 15-03-2020 11:39:18 15.5 C 20 %
1799 15-03-2020 11:49:17 14.9 C 20 %
1800 15-03-2020 11:59:18 15.2 C 20 %
Sensor: Nr:Datum:Temp:Feuchte:
Aussen-T/F 1801 15-03-2020 12:09:18 14.5 C 20 %
1802 15-03-2020 12:19:18 14.1 C 20 %
1803 15-03-2020 12:29:18 14.4 C 20 %
1804 15-03-2020 12:39:18 14.7 C 20 %
1805 15-03-2020 12:49:17 15.2 C 20 %
1806 15-03-2020 12:59:17 15.4 C 20 %
1807 15-03-2020 13:09:18 14.8 C 20 %
1808 15-03-2020 13:19:17 17 C 20 %
1809 15-03-2020 13:29:17 18.6 C 20 %
1810 15-03-2020 13:39:18 17.4 C 20 %
1811 15-03-2020 13:49:17 16.7 C 20 %
1812 15-03-2020 13:59:17 16.2 C 20 %
1813 15-03-2020 14:09:17 15.5 C 20 %
1814 15-03-2020 14:19:17 16.5 C 20 %
1815 15-03-2020 14:29:17 16.3 C 20 %
1816 15-03-2020 14:39:18 16.6 C 20 %
1817 15-03-2020 14:49:17 16.2 C 20 %
1818 15-03-2020 14:59:17 16 C 20 %
1819 15-03-2020 15:09:17 17.4 C 20 %
1820 15-03-2020 15:19:17 20.3 C 20 %
1821 15-03-2020 15:29:18 20.4 C 20 %
1822 15-03-2020 15:39:18 19.4 C 20 %
1823 15-03-2020 15:49:17 20.7 C 20 %
1824 15-03-2020 15:59:17 19.9 C 20 %
1825 15-03-2020 16:09:17 21.2 C 20 %
Sensor: Nr:Datum:Temp:Feuchte:
Aussen-T/F 1826 15-03-2020 16:19:17 20.2 C 20 %
1827 15-03-2020 16:29:17 20.5 C 20 %
1828 15-03-2020 16:39:17 19.7 C 20 %
1829 15-03-2020 16:49:18 18.1 C 20 %
1830 15-03-2020 16:59:18 16.9 C 20 %
1831 15-03-2020 17:09:18 16 C 20 %
1832 15-03-2020 17:19:18 15.5 C 20 %
1833 15-03-2020 17:29:18 15.5 C 20 %
1834 15-03-2020 17:39:18 14.9 C 20 %
1835 15-03-2020 17:49:18 13.8 C 20 %
1836 15-03-2020 17:59:18 12.6 C 23 %
1837 15-03-2020 18:09:18 12.1 C 25 %
1838 15-03-2020 18:19:18 11.7 C 26 %
1839 15-03-2020 18:29:18 11.1 C 27 %
1840 15-03-2020 18:39:18 10.6 C 28 %
1841 15-03-2020 18:49:17 10.4 C 28 %
1842 15-03-2020 18:59:17 10 C 28 %
1843 15-03-2020 19:09:18 9.6 C 30 %
1844 15-03-2020 19:19:18 9.4 C 30 %
1845 15-03-2020 19:29:18 9.2 C 31 %
1846 15-03-2020 19:39:18 9.1 C 30 %
1847 15-03-2020 19:49:17 9 C 31 %
1848 15-03-2020 19:59:17 8.9 C 31 %
1849 15-03-2020 20:09:18 8.6 C 31 %
1850 15-03-2020 20:19:17 8.5 C 32 %
Sensor: Nr:Datum:Temp:Feuchte:
Aussen-T/F 1851 15-03-2020 20:29:17 8.2 C 32 %
1852 15-03-2020 20:39:18 8.2 C 32 %
1853 15-03-2020 20:49:18 8 C 32 %
1854 15-03-2020 20:59:18 7.4 C 34 %
1855 15-03-2020 21:09:18 7.1 C 35 %
1856 15-03-2020 21:19:17 7 C 35 %
1857 15-03-2020 21:29:17 7.4 C 35 %
1858 15-03-2020 21:39:17 7.5 C 35 %
1859 15-03-2020 21:49:17 7.1 C 35 %
1860 15-03-2020 21:59:17 6.3 C 36 %
1861 15-03-2020 22:09:17 5.8 C 37 %
1862 15-03-2020 22:19:17 5.4 C 37 %
1863 15-03-2020 22:29:18 5 C 38 %
1864 15-03-2020 22:39:17 4.7 C 40 %
1865 15-03-2020 22:49:17 4.7 C 40 %
1866 15-03-2020 22:59:17 4.7 C 40 %
1867 15-03-2020 23:09:17 4.7 C 40 %
1868 15-03-2020 23:19:17 4.6 C 40 %
1869 15-03-2020 23:29:17 4.5 C 40 %
1870 15-03-2020 23:39:17 4.5 C 40 %
1871 15-03-2020 23:49:17 4.3 C 40 %
1872 15-03-2020 23:59:17 4.1 C 40 %
1873 16-03-2020 00:09:17 4 C 40 %
1874 16-03-2020 00:19:17 3.8 C 41 %
1875 16-03-2020 00:29:17 3.4 C 41 %
Sensor: Nr:Datum:Temp:Feuchte:
Aussen-T/F 1876 16-03-2020 00:39:17 3.4 C 42 %
1877 16-03-2020 00:49:17 3.3 C 42 %
1878 16-03-2020 00:59:17 3.3 C 42 %
1879 16-03-2020 01:09:18 2.9 C 43 %
1880 16-03-2020 01:19:17 3 C 43 %
1881 16-03-2020 01:29:17 3 C 42 %
1882 16-03-2020 01:39:17 3.2 C 42 %
1883 16-03-2020 01:49:18 2.8 C 43 %
1884 16-03-2020 01:59:18 2.6 C 44 %
1885 16-03-2020 02:09:17 2.7 C 45 %
1886 16-03-2020 02:19:17 2.7 C 44 %
1887 16-03-2020 02:29:17 2.4 C 44 %
1888 16-03-2020 02:39:17 2.6 C 45 %
1889 16-03-2020 02:49:17 2.8 C 45 %
1890 16-03-2020 02:59:17 2.8 C 44 %
1891 16-03-2020 03:09:18 2.2 C 44 %
1892 16-03-2020 03:19:17 2.3 C 44 %
1893 16-03-2020 03:29:17 2.2 C 45 %
1894 16-03-2020 03:39:17 1.8 C 45 %
1895 16-03-2020 03:49:18 2 C 46 %
1896 16-03-2020 03:59:18 1.8 C 46 %
1897 16-03-2020 04:09:18 1.6 C 46 %
1898 16-03-2020 04:19:18 1.7 C 46 %
1899 16-03-2020 04:29:18 2 C 46 %
1900 16-03-2020 04:39:18 1.5 C 46 %
Sensor: Nr:Datum:Temp:Feuchte:
Aussen-T/F 1901 16-03-2020 04:49:17 1.7 C 46 %
1902 16-03-2020 04:59:18 1.9 C 46 %
1903 16-03-2020 05:09:18 1.7 C 46 %
1904 16-03-2020 05:19:18 1.7 C 46 %
1905 16-03-2020 05:29:18 1.4 C 46 %
1906 16-03-2020 05:39:18 1.3 C 46 %
1907 16-03-2020 05:49:17 1.2 C 46 %
1908 16-03-2020 05:59:17 1.3 C 47 %
1909 16-03-2020 06:09:18 1.1 C 47 %
1910 16-03-2020 06:19:17 0.6 C 48 %
1911 16-03-2020 06:29:17 0.6 C 48 %
1912 16-03-2020 06:39:17 0.6 C 48 %
1913 16-03-2020 06:49:17 0.6 C 48 %
1914 16-03-2020 06:59:17 0.9 C 49 %
1915 16-03-2020 07:09:17 1.2 C 49 %
1916 16-03-2020 07:19:17 1.1 C 47 %
1917 16-03-2020 07:29:17 1 C 47 %
1918 16-03-2020 07:39:17 1.4 C 49 %
1919 16-03-2020 07:49:17 1.4 C 48 %
1920 16-03-2020 07:59:17 1.7 C 48 %
1921 16-03-2020 08:09:18 2 C 47 %
1922 16-03-2020 08:19:17 2.3 C 47 %
1923 16-03-2020 08:29:18 2.4 C 46 %
1924 16-03-2020 08:39:18 2.4 C 46 %
1925 16-03-2020 08:49:17 2.6 C 46 %
Sensor: Nr:Datum:Temp:Feuchte:
Aussen-T/F 1926 16-03-2020 08:59:17 2.9 C 47 %
1927 16-03-2020 09:09:18 3.4 C 46 %
1928 16-03-2020 09:19:18 3.7 C 45 %
1929 16-03-2020 09:29:18 4 C 45 %
1930 16-03-2020 09:39:18 4.6 C 44 %
1931 16-03-2020 09:49:18 5 C 43 %
1932 16-03-2020 09:59:18 5.6 C 42 %
1933 16-03-2020 10:09:18 6.6 C 41 %
1934 16-03-2020 10:19:18 7.3 C 40 %
1935 16-03-2020 10:29:18 8.3 C 39 %
1936 16-03-2020 10:39:17 9.3 C 38 %
1937 16-03-2020 10:49:18 10.4 C 37 %
1938 16-03-2020 10:59:18 12.4 C 34 %
1939 16-03-2020 11:09:17 13.3 C 32 %
1940 16-03-2020 11:19:17 14.3 C 30 %
1941 16-03-2020 11:29:17 15.4 C 27 %
1942 16-03-2020 11:39:18 15.7 C 26 %
1943 16-03-2020 11:49:17 15.6 C 25 %
1944 16-03-2020 11:59:17 16.1 C 25 %
1945 16-03-2020 12:09:17 16.5 C 25 %
1946 16-03-2020 12:19:17 16.8 C 25 %
1947 16-03-2020 12:29:17 16.4 C 24 %
1948 16-03-2020 12:39:17 16.9 C 24 %
1949 16-03-2020 12:49:17 18.3 C 21 %
1950 16-03-2020 12:59:17 18.7 C 20 %
Sensor: Nr:Datum:Temp:Feuchte:
Aussen-T/F 1951 16-03-2020 13:09:17 22.3 C 20 %
1952 16-03-2020 13:19:17 21.2 C 20 %
1953 16-03-2020 13:29:17 21.1 C 20 %
1954 16-03-2020 13:39:17 20.6 C 20 %
1955 16-03-2020 13:49:17 21.1 C 20 %
1956 16-03-2020 13:59:17 19.7 C 20 %
1957 16-03-2020 14:09:17 18.7 C 20 %
1958 16-03-2020 14:19:17 19.7 C 20 %
1959 16-03-2020 14:29:17 19.7 C 20 %
1960 16-03-2020 14:39:17 20 C 20 %
1961 16-03-2020 14:49:17 19.2 C 20 %
1962 16-03-2020 14:59:17 20.8 C 20 %
1963 16-03-2020 15:09:17 20 C 20 %
1964 16-03-2020 15:19:17 19.1 C 20 %
1965 16-03-2020 15:29:17 18.8 C 20 %
1966 16-03-2020 15:39:18 18.8 C 20 %
1967 16-03-2020 15:49:17 19 C 20 %
1968 16-03-2020 15:59:17 19 C 20 %
1969 16-03-2020 16:09:18 18.7 C 20 %
1970 16-03-2020 16:19:18 19 C 20 %
1971 16-03-2020 16:29:18 21.4 C 20 %
1972 16-03-2020 16:39:17 20.8 C 20 %
1973 16-03-2020 16:49:17 20.2 C 20 %
1974 16-03-2020 16:59:17 19.4 C 20 %
1975 16-03-2020 17:09:17 18.4 C 20 %
Sensor: Nr:Datum:Temp:Feuchte:
Aussen-T/F 1976 16-03-2020 17:19:17 17.9 C 20 %
1977 16-03-2020 17:29:18 17.7 C 20 %
1978 16-03-2020 17:39:18 17.5 C 20 %
1979 16-03-2020 17:49:17 16.8 C 21 %
1980 16-03-2020 17:59:18 16 C 23 %
1981 16-03-2020 18:09:18 15 C 26 %
1982 16-03-2020 18:19:18 14.3 C 27 %
1983 16-03-2020 18:29:18 13.7 C 29 %
1984 16-03-2020 18:39:18 13.1 C 30 %
1985 16-03-2020 18:49:18 12.7 C 31 %
1986 16-03-2020 18:59:18 12.4 C 32 %
1987 16-03-2020 19:09:18 12.1 C 32 %
1988 16-03-2020 19:19:18 12.2 C 32 %
1989 16-03-2020 19:29:18 12.2 C 32 %
1990 16-03-2020 19:39:18 11.9 C 34 %
1991 16-03-2020 19:49:17 11.5 C 34 %
1992 16-03-2020 19:59:18 11 C 35 %
1993 16-03-2020 20:09:18 10.7 C 36 %
1994 16-03-2020 20:19:18 11.4 C 35 %
1995 16-03-2020 20:29:18 10.8 C 36 %
1996 16-03-2020 20:39:18 10.3 C 36 %
1997 16-03-2020 20:49:18 9.5 C 38 %
1998 16-03-2020 20:59:18 10.8 C 37 %
1999 16-03-2020 21:09:18 10.1 C 37 %
2000 16-03-2020 21:19:17 10.3 C 38 %
Sensor: Nr:Datum:Temp:Feuchte:
Aussen-T/F 2001 16-03-2020 21:29:17 9.9 C 38 %
2002 16-03-2020 21:39:17 9.7 C 38 %
2003 16-03-2020 21:49:18 10.2 C 37 %
2004 16-03-2020 21:59:18 9.9 C 38 %
2005 16-03-2020 22:09:18 9.7 C 38 %
2006 16-03-2020 22:19:18 9.5 C 38 %
2007 16-03-2020 22:29:18 9.5 C 39 %
2008 16-03-2020 22:39:18 9.2 C 38 %
2009 16-03-2020 22:49:18 8.9 C 39 %
2010 16-03-2020 22:59:18 9.1 C 39 %
2011 16-03-2020 23:09:18 9.4 C 39 %
2012 16-03-2020 23:19:17 9.4 C 39 %
2013 16-03-2020 23:29:17 9.4 C 39 %
2014 16-03-2020 23:39:17 9.5 C 39 %
2015 16-03-2020 23:49:17 9.5 C 40 %
2016 16-03-2020 23:59:17 9.5 C 39 %
2017 17-03-2020 00:09:17 9.3 C 39 %
2018 17-03-2020 00:19:17 9.7 C 40 %
2019 17-03-2020 00:29:17 9.5 C 39 %
2020 17-03-2020 00:39:18 9.3 C 39 %
2021 17-03-2020 00:49:18 9.1 C 40 %
2022 17-03-2020 00:59:18 9 C 40 %
2023 17-03-2020 01:09:18 9.3 C 40 %
2024 17-03-2020 01:19:17 9.2 C 40 %
2025 17-03-2020 01:29:17 8.9 C 40 %
Sensor: Nr:Datum:Temp:Feuchte:
Aussen-T/F 2026 17-03-2020 01:39:17 8.7 C 41 %
2027 17-03-2020 01:49:18 8.8 C 41 %
2028 17-03-2020 01:59:18 8.8 C 41 %
2029 17-03-2020 02:09:18 8.7 C 41 %
2030 17-03-2020 02:19:17 8.7 C 41 %
2031 17-03-2020 02:29:17 8.7 C 41 %
2032 17-03-2020 02:39:17 8.9 C 41 %
2033 17-03-2020 02:49:17 8.9 C 41 %
2034 17-03-2020 02:59:17 8.8 C 41 %
2035 17-03-2020 03:09:18 8.6 C 41 %
2036 17-03-2020 03:19:18 8.6 C 41 %
2037 17-03-2020 03:29:18 8.4 C 41 %
2038 17-03-2020 03:39:17 8.3 C 41 %
2039 17-03-2020 03:49:18 8.1 C 42 %
2040 17-03-2020 03:59:18 8 C 41 %
2041 17-03-2020 04:09:18 8.9 C 42 %
2042 17-03-2020 04:19:18 9.2 C 40 %
2043 17-03-2020 04:29:18 9.3 C 40 %
2044 17-03-2020 04:39:17 9 C 40 %
2045 17-03-2020 04:49:18 9 C 40 %
2046 17-03-2020 04:59:18 8.6 C 41 %
2047 17-03-2020 05:09:17 8.9 C 41 %
2048 17-03-2020 05:19:17 9 C 40 %
2049 17-03-2020 05:29:17 8.6 C 41 %
2050 17-03-2020 05:39:17 8.3 C 41 %
Sensor: Nr:Datum:Temp:Feuchte:
Aussen-T/F 2051 17-03-2020 05:49:17 8.2 C 41 %
2052 17-03-2020 05:59:18 8.2 C 41 %
2053 17-03-2020 06:09:18 8.1 C 41 %
2054 17-03-2020 06:19:18 8.1 C 41 %
2055 17-03-2020 06:29:18 8 C 41 %
2056 17-03-2020 06:39:18 8.2 C 41 %
2057 17-03-2020 06:49:18 8.1 C 41 %
2058 17-03-2020 06:59:18 8.2 C 41 %
2059 17-03-2020 07:09:17 8.8 C 40 %
2060 17-03-2020 07:19:17 9 C 40 %
2061 17-03-2020 07:29:17 9.5 C 39 %
2062 17-03-2020 07:39:17 9.6 C 39 %
2063 17-03-2020 07:49:18 9.6 C 39 %
2064 17-03-2020 07:59:18 9.8 C 38 %
2065 17-03-2020 08:09:18 10.1 C 37 %
2066 17-03-2020 08:19:17 10 C 37 %
2067 17-03-2020 08:29:17 9.8 C 38 %
2068 17-03-2020 08:39:17 9.9 C 38 %
2069 17-03-2020 08:49:17 9.9 C 38 %
2070 17-03-2020 08:59:17 10 C 37 %
2071 17-03-2020 09:09:17 10.2 C 37 %
2072 17-03-2020 09:19:18 10.4 C 37 %
2073 17-03-2020 09:29:18 10.4 C 37 %
2074 17-03-2020 09:39:18 10.6 C 37 %
2075 17-03-2020 09:49:17 10.6 C 37 %
Sensor: Nr:Datum:Temp:Feuchte:
Aussen-T/F 2076 17-03-2020 09:59:17 10.7 C 37 %
2077 17-03-2020 10:09:17 10.7 C 37 %
2078 17-03-2020 10:19:17 10.9 C 36 %
2079 17-03-2020 10:29:17 11 C 35 %
2080 17-03-2020 10:39:17 11.7 C 35 %
2081 17-03-2020 10:49:17 12.4 C 33 %
2082 17-03-2020 10:59:17 12.9 C 33 %
2083 17-03-2020 11:09:17 13.1 C 32 %
2084 17-03-2020 11:19:17 13.3 C 31 %
2085 17-03-2020 11:29:17 13.3 C 31 %
2086 17-03-2020 11:39:17 14.7 C 30 %
2087 17-03-2020 11:49:17 14.1 C 29 %
2088 17-03-2020 11:59:17 15.4 C 28 %
2089 17-03-2020 12:09:17 14.5 C 29 %
2090 17-03-2020 12:19:18 14.6 C 27 %
2091 17-03-2020 12:29:18 15.2 C 26 %
2092 17-03-2020 12:39:18 16.5 C 26 %
2093 17-03-2020 12:49:18 16.6 C 24 %
2094 17-03-2020 12:59:18 19.3 C 20 %
2095 17-03-2020 13:09:17 18.8 C 20 %
2096 17-03-2020 13:19:17 20.4 C 20 %
2097 17-03-2020 13:29:17 19.5 C 20 %
2098 17-03-2020 13:39:17 18.5 C 20 %
2099 17-03-2020 13:49:18 18.8 C 20 %
2100 17-03-2020 13:59:18 19.3 C 20 %
Sensor: Nr:Datum:Temp:Feuchte:
Aussen-T/F 2101 17-03-2020 14:09:17 18.3 C 20 %
2102 17-03-2020 14:19:17 18.5 C 20 %
2103 17-03-2020 14:29:17 17.9 C 20 %
2104 17-03-2020 14:39:18 17.1 C 20 %
2105 17-03-2020 14:49:18 20.5 C 20 %
2106 17-03-2020 14:59:18 22.2 C 20 %
2107 17-03-2020 15:09:17 22.5 C 20 %
2108 17-03-2020 15:19:17 22.1 C 20 %
2109 17-03-2020 15:29:17 23.8 C 20 %
2110 17-03-2020 15:39:18 23.6 C 20 %
2111 17-03-2020 15:49:17 23.8 C 20 %
2112 17-03-2020 15:59:17 23.9 C 20 %
2113 17-03-2020 16:09:18 23.3 C 20 %
2114 17-03-2020 16:19:18 21.8 C 20 %
2115 17-03-2020 16:29:18 23.2 C 20 %
2116 17-03-2020 16:39:17 21.4 C 20 %
2117 17-03-2020 16:49:17 22.3 C 20 %
2118 17-03-2020 16:59:17 20.1 C 20 %
2119 17-03-2020 17:09:17 18.7 C 20 %
2120 17-03-2020 17:19:18 17.7 C 20 %
2121 17-03-2020 17:29:18 17.3 C 20 %
2122 17-03-2020 17:39:18 16.8 C 20 %
2123 17-03-2020 17:49:17 16.1 C 22 %
2124 17-03-2020 17:59:18 15.3 C 24 %
2125 17-03-2020 18:09:18 14.1 C 27 %
Sensor: Nr:Datum:Temp:Feuchte:
Aussen-T/F 2126 17-03-2020 18:19:17 13.5 C 28 %
2127 17-03-2020 18:29:17 13.2 C 29 %
2128 17-03-2020 18:39:18 12.8 C 30 %
2129 17-03-2020 18:49:18 12.4 C 31 %
2130 17-03-2020 18:59:18 12 C 31 %
2131 17-03-2020 19:09:18 11.9 C 32 %
2132 17-03-2020 19:19:17 11.8 C 32 %
2133 17-03-2020 19:29:17 11.1 C 33 %
2134 17-03-2020 19:39:17 11 C 34 %
2135 17-03-2020 19:49:17 10.4 C 35 %
2136 17-03-2020 19:59:17 10.2 C 35 %
2137 17-03-2020 20:09:17 9.9 C 36 %
2138 17-03-2020 20:19:17 10.1 C 36 %
2139 17-03-2020 20:29:17 10.7 C 35 %
2140 17-03-2020 20:39:18 10.4 C 35 %
2141 17-03-2020 20:49:18 9.6 C 37 %
2142 17-03-2020 20:59:18 9.5 C 37 %
2143 17-03-2020 21:09:18 9 C 37 %
2144 17-03-2020 21:19:17 8.4 C 39 %
2145 17-03-2020 21:29:17 8.4 C 39 %
2146 17-03-2020 21:39:17 8.1 C 39 %
2147 17-03-2020 21:49:18 8 C 40 %
2148 17-03-2020 21:59:18 7.6 C 40 %
2149 17-03-2020 22:09:18 7.3 C 40 %
2150 17-03-2020 22:19:18 7.2 C 41 %
Sensor: Nr:Datum:Temp:Feuchte:
Aussen-T/F 2151 17-03-2020 22:29:18 7 C 41 %
2152 17-03-2020 22:39:17 6.9 C 41 %
2153 17-03-2020 22:49:17 6.7 C 42 %
2154 17-03-2020 22:59:17 6.5 C 42 %
2155 17-03-2020 23:09:17 6.4 C 42 %
2156 17-03-2020 23:19:17 6.3 C 42 %
2157 17-03-2020 23:29:17 6.1 C 42 %
2158 17-03-2020 23:39:18 6.1 C 42 %
2159 17-03-2020 23:49:18 6.2 C 43 %
2160 17-03-2020 23:59:18 6.3 C 43 %
2161 18-03-2020 00:09:17 5.9 C 43 %
2162 18-03-2020 00:19:17 5.8 C 44 %
2163 18-03-2020 00:29:17 5.9 C 44 %
2164 18-03-2020 00:39:17 5.8 C 44 %
2165 18-03-2020 00:49:17 6 C 44 %
2166 18-03-2020 00:59:17 6 C 43 %
2167 18-03-2020 01:09:17 5.7 C 44 %
2168 18-03-2020 01:19:17 5.6 C 44 %
2169 18-03-2020 01:29:17 5.3 C 44 %
2170 18-03-2020 01:39:17 5.6 C 45 %
2171 18-03-2020 01:49:17 5.3 C 45 %
2172 18-03-2020 01:59:17 5.6 C 46 %
2173 18-03-2020 02:09:17 5.1 C 44 %
2174 18-03-2020 02:19:17 4.8 C 45 %
2175 18-03-2020 02:29:17 4.8 C 45 %
Sensor: Nr:Datum:Temp:Feuchte:
Aussen-T/F 2176 18-03-2020 02:39:17 4.6 C 46 %
2177 18-03-2020 02:49:18 4.3 C 46 %
2178 18-03-2020 02:59:18 4.3 C 46 %
2179 18-03-2020 03:09:18 4.2 C 46 %
2180 18-03-2020 03:19:17 4.2 C 46 %
2181 18-03-2020 03:29:17 4.1 C 46 %
2182 18-03-2020 03:39:17 4 C 46 %
2183 18-03-2020 03:49:17 3.8 C 47 %
2184 18-03-2020 03:59:17 3.8 C 47 %
2185 18-03-2020 04:09:17 3.8 C 47 %
2186 18-03-2020 04:19:18 3.8 C 47 %
2187 18-03-2020 04:29:18 3.7 C 47 %
2188 18-03-2020 04:39:18 3.7 C 47 %
2189 18-03-2020 04:49:18 3.6 C 47 %
2190 18-03-2020 04:59:18 3.6 C 47 %
2191 18-03-2020 05:09:18 3.7 C 48 %
2192 18-03-2020 05:19:18 3.8 C 48 %
2193 18-03-2020 05:29:18 3.3 C 47 %
2194 18-03-2020 05:39:18 3.2 C 47 %
2195 18-03-2020 05:49:18 3.3 C 47 %
2196 18-03-2020 05:59:18 3.1 C 47 %
2197 18-03-2020 06:09:18 2.9 C 48 %
2198 18-03-2020 06:19:17 3.3 C 47 %
2199 18-03-2020 06:29:18 3.1 C 47 %
2200 18-03-2020 06:39:18 3.1 C 47 %
Sensor: Nr:Datum:Temp:Feuchte:
Aussen-T/F 2201 18-03-2020 06:49:17 3.1 C 47 %
2202 18-03-2020 06:59:18 3.6 C 47 %
2203 18-03-2020 07:09:18 3.5 C 47 %
2204 18-03-2020 07:19:17 3.4 C 47 %
2205 18-03-2020 07:29:17 3.7 C 47 %
2206 18-03-2020 07:39:17 3.9 C 47 %
2207 18-03-2020 07:49:18 4 C 46 %
2208 18-03-2020 07:59:18 4.9 C 46 %
2209 18-03-2020 08:09:18 4.6 C 46 %
2210 18-03-2020 08:19:18 4.5 C 46 %
2211 18-03-2020 08:29:18 4.7 C 46 %
2212 18-03-2020 08:39:17 5 C 45 %
2213 18-03-2020 08:49:18 5.3 C 46 %
2214 18-03-2020 08:59:18 5.6 C 46 %
2215 18-03-2020 09:09:17 6.7 C 45 %
2216 18-03-2020 09:19:17 7.1 C 45 %
2217 18-03-2020 09:29:17 8.5 C 45 %
2218 18-03-2020 09:39:17 9.7 C 41 %
2219 18-03-2020 09:49:18 10.5 C 40 %
2220 18-03-2020 09:59:18 11 C 38 %
2221 18-03-2020 10:09:18 11.1 C 38 %
2222 18-03-2020 10:19:18 11.6 C 38 %
2223 18-03-2020 10:29:18 11.6 C 37 %
2224 18-03-2020 10:39:18 11.7 C 38 %
2225 18-03-2020 10:49:18 12 C 36 %
Sensor: Nr:Datum:Temp:Feuchte:
Aussen-T/F 2226 18-03-2020 10:59:18 12.2 C 35 %
2227 18-03-2020 11:09:18 12.7 C 35 %
2228 18-03-2020 11:19:18 12.8 C 34 %
2229 18-03-2020 11:29:18 13.3 C 34 %
2230 18-03-2020 11:39:18 13.9 C 33 %
2231 18-03-2020 11:49:17 14.7 C 32 %
2232 18-03-2020 11:59:17 15.3 C 30 %
2233 18-03-2020 12:09:18 15.8 C 30 %
2234 18-03-2020 12:19:17 16.6 C 29 %
2235 18-03-2020 12:29:18 17 C 27 %
2236 18-03-2020 12:39:18 17.8 C 26 %
2237 18-03-2020 12:49:17 19.1 C 25 %
2238 18-03-2020 12:59:17 19.8 C 20 %
2239 18-03-2020 13:09:17 21 C 20 %
2240 18-03-2020 13:19:17 21.2 C 20 %
2241 18-03-2020 13:29:17 19.5 C 20 %
2242 18-03-2020 13:39:18 17.7 C 20 %
2243 18-03-2020 13:49:17 16.6 C 22 %
2244 18-03-2020 13:59:17 16 C 22 %
2245 18-03-2020 14:09:17 17.6 C 21 %
2246 18-03-2020 14:19:17 16.7 C 20 %
2247 18-03-2020 14:29:17 17.9 C 20 %
2248 18-03-2020 14:39:18 18.5 C 20 %
2249 18-03-2020 14:49:17 17.4 C 20 %
2250 18-03-2020 14:59:17 17.4 C 20 %
Sensor: Nr:Datum:Temp:Feuchte:
Aussen-T/F 2251 18-03-2020 15:09:17 20.6 C 20 %
2252 18-03-2020 15:19:18 17.9 C 20 %
2253 18-03-2020 15:29:18 18.2 C 20 %
2254 18-03-2020 15:39:18 17.7 C 20 %
2255 18-03-2020 15:49:17 16.9 C 20 %
2256 18-03-2020 15:59:17 16.7 C 21 %
2257 18-03-2020 16:09:17 16.4 C 21 %
2258 18-03-2020 16:19:17 16.4 C 22 %
2259 18-03-2020 16:29:17 16.4 C 20 %
2260 18-03-2020 16:39:17 16.5 C 20 %
2261 18-03-2020 16:49:18 16.2 C 21 %
2262 18-03-2020 16:59:18 16.1 C 21 %
2263 18-03-2020 17:09:17 16 C 21 %
2264 18-03-2020 17:19:17 16 C 21 %
2265 18-03-2020 17:29:17 15.7 C 22 %
2266 18-03-2020 17:39:18 16 C 20 %
2267 18-03-2020 17:49:17 16.3 C 20 %
2268 18-03-2020 17:59:17 15.8 C 22 %
2269 18-03-2020 18:09:17 15.4 C 22 %
2270 18-03-2020 18:19:17 14.7 C 26 %
2271 18-03-2020 18:29:17 13.7 C 26 %
2272 18-03-2020 18:39:17 13.3 C 28 %
2273 18-03-2020 18:49:17 12.7 C 30 %
2274 18-03-2020 18:59:17 12 C 31 %
2275 18-03-2020 19:09:17 11.7 C 32 %
Sensor: Nr:Datum:Temp:Feuchte:
Aussen-T/F 2276 18-03-2020 19:19:18 11.5 C 32 %
2277 18-03-2020 19:29:18 10.5 C 34 %
2278 18-03-2020 19:39:18 10.9 C 34 %
2279 18-03-2020 19:49:18 11.1 C 34 %
2280 18-03-2020 19:59:18 10.9 C 35 %
2281 18-03-2020 20:09:18 10.6 C 35 %
2282 18-03-2020 20:19:17 10.4 C 35 %
2283 18-03-2020 20:29:17 10.4 C 35 %
2284 18-03-2020 20:39:18 10 C 36 %
2285 18-03-2020 20:49:17 9.7 C 37 %
2286 18-03-2020 20:59:17 9.7 C 37 %
2287 18-03-2020 21:09:18 9.7 C 37 %
2288 18-03-2020 21:19:17 9.6 C 37 %
2289 18-03-2020 21:29:17 9.4 C 37 %
2290 18-03-2020 21:39:17 9 C 37 %
2291 18-03-2020 21:49:17 8.7 C 38 %
2292 18-03-2020 21:59:17 8.4 C 39 %
2293 18-03-2020 22:09:17 8.2 C 39 %
2294 18-03-2020 22:19:17 8.1 C 40 %
2295 18-03-2020 22:29:17 8 C 40 %
2296 18-03-2020 22:39:17 8 C 40 %
2297 18-03-2020 22:49:17 8.1 C 40 %
2298 18-03-2020 22:59:17 8.2 C 40 %
2299 18-03-2020 23:09:18 8.3 C 40 %
2300 18-03-2020 23:19:17 8.1 C 40 %
Sensor: Nr:Datum:Temp:Feuchte:
Aussen-T/F 2301 18-03-2020 23:29:17 8 C 40 %
2302 18-03-2020 23:39:18 8 C 40 %
2303 18-03-2020 23:49:18 8.4 C 40 %
2304 18-03-2020 23:59:18 8.9 C 40 %
2305 19-03-2020 00:09:17 8.9 C 39 %
2306 19-03-2020 00:19:18 8.9 C 38 %
2307 19-03-2020 00:29:18 9 C 38 %
2308 19-03-2020 00:39:18 9 C 38 %
2309 19-03-2020 00:49:17 9.1 C 38 %
2310 19-03-2020 00:59:17 9.1 C 38 %
2311 19-03-2020 01:09:18 9 C 38 %
2312 19-03-2020 01:19:17 9.1 C 38 %
2313 19-03-2020 01:29:17 9 C 38 %
2314 19-03-2020 01:39:17 9 C 38 %
2315 19-03-2020 01:49:17 8.9 C 38 %
2316 19-03-2020 01:59:17 8.8 C 39 %
2317 19-03-2020 02:09:18 8.7 C 39 %
2318 19-03-2020 02:19:17 8.7 C 39 %
2319 19-03-2020 02:29:17 8.6 C 39 %
2320 19-03-2020 02:39:17 8.5 C 39 %
2321 19-03-2020 02:49:18 8.5 C 39 %
2322 19-03-2020 02:59:18 8.5 C 39 %
2323 19-03-2020 03:09:18 8.5 C 39 %
2324 19-03-2020 03:19:18 8.6 C 39 %
2325 19-03-2020 03:29:18 8.5 C 39 %
Sensor: Nr:Datum:Temp:Feuchte:
Aussen-T/F 2326 19-03-2020 03:39:17 8.5 C 39 %
2327 19-03-2020 03:49:18 8.4 C 39 %
2328 19-03-2020 03:59:18 8.4 C 40 %
2329 19-03-2020 04:09:18 8.4 C 40 %
2330 19-03-2020 04:19:17 8.5 C 40 %
2331 19-03-2020 04:29:17 8.5 C 39 %
2332 19-03-2020 04:39:17 8.5 C 39 %
2333 19-03-2020 04:49:18 8.5 C 39 %
2334 19-03-2020 04:59:18 8.5 C 39 %
2335 19-03-2020 05:09:18 8.6 C 39 %
2336 19-03-2020 05:19:18 8.9 C 38 %
2337 19-03-2020 05:29:18 8.7 C 39 %
2338 19-03-2020 05:39:18 8.6 C 39 %
2339 19-03-2020 05:49:17 8.5 C 39 %
2340 19-03-2020 05:59:18 8.4 C 39 %
2341 19-03-2020 06:09:18 8.4 C 39 %
2342 19-03-2020 06:19:17 8.3 C 40 %
2343 19-03-2020 06:29:17 8.2 C 39 %
2344 19-03-2020 06:39:17 8.1 C 40 %
2345 19-03-2020 06:49:17 8.1 C 40 %
2346 19-03-2020 06:59:17 8.2 C 40 %
2347 19-03-2020 07:09:17 8.2 C 40 %
2348 19-03-2020 07:19:17 8.5 C 40 %
2349 19-03-2020 07:29:17 8.7 C 39 %
2350 19-03-2020 07:39:18 8.9 C 39 %
Sensor: Nr:Datum:Temp:Feuchte:
Aussen-T/F 2351 19-03-2020 07:49:18 9.1 C 38 %
2352 19-03-2020 07:59:18 9.4 C 38 %
2353 19-03-2020 08:09:18 9.7 C 38 %
2354 19-03-2020 08:19:17 9.9 C 37 %
2355 19-03-2020 08:29:17 9.9 C 37 %
2356 19-03-2020 08:39:17 10.5 C 36 %
2357 19-03-2020 08:49:18 10.4 C 36 %
2358 19-03-2020 08:59:18 10.2 C 36 %
2359 19-03-2020 09:09:17 11.2 C 35 %
2360 19-03-2020 09:19:17 11.7 C 35 %
2361 19-03-2020 09:29:17 11.5 C 35 %
2362 19-03-2020 09:39:18 11.8 C 35 %
2363 19-03-2020 09:49:17 11.6 C 35 %
2364 19-03-2020 09:59:17 12.4 C 33 %
2365 19-03-2020 10:09:18 12.3 C 32 %
2366 19-03-2020 10:19:18 13.1 C 31 %
2367 19-03-2020 10:29:18 13.5 C 30 %
2368 19-03-2020 10:39:17 13.9 C 31 %
2369 19-03-2020 10:49:17 14.2 C 30 %
2370 19-03-2020 10:59:17 15.4 C 29 %
2371 19-03-2020 11:09:17 15.5 C 29 %
2372 19-03-2020 11:19:17 16.4 C 26 %
2373 19-03-2020 11:29:17 17.7 C 26 %
2374 19-03-2020 11:39:17 18.5 C 24 %
2375 19-03-2020 11:49:17 15.8 C 26 %
Sensor: Nr:Datum:Temp:Feuchte:
Aussen-T/F 2376 19-03-2020 11:59:17 15 C 28 %
2377 19-03-2020 12:09:17 15.2 C 28 %
2378 19-03-2020 12:19:17 15.5 C 28 %
2379 19-03-2020 12:29:17 16.8 C 26 %
2380 19-03-2020 12:39:18 18.1 C 22 %
2381 19-03-2020 12:49:17 18.6 C 20 %
2382 19-03-2020 12:59:17 17.9 C 20 %
2383 19-03-2020 13:09:18 20.4 C 20 %
2384 19-03-2020 13:19:18 25.8 C 20 %
2385 19-03-2020 13:29:18 25.6 C 20 %
2386 19-03-2020 13:39:18 19.7 C 20 %
2387 19-03-2020 13:49:17 18.8 C 20 %
2388 19-03-2020 13:59:17 18.2 C 20 %
2389 19-03-2020 14:09:17 18.7 C 20 %
2390 19-03-2020 14:19:17 18.9 C 20 %
2391 19-03-2020 14:29:17 18.8 C 20 %
2392 19-03-2020 14:39:17 18.9 C 20 %
2393 19-03-2020 14:49:17 19.3 C 20 %
2394 19-03-2020 14:59:17 19.1 C 20 %
2395 19-03-2020 15:09:18 18.5 C 20 %
2396 19-03-2020 15:19:18 19.1 C 20 %
2397 19-03-2020 15:29:18 19.3 C 20 %
2398 19-03-2020 15:39:18 19.8 C 20 %
2399 19-03-2020 15:49:17 21.8 C 20 %
2400 19-03-2020 15:59:18 19.5 C 20 %
Sensor: Nr:Datum:Temp:Feuchte:
Aussen-T/F 2401 19-03-2020 16:09:18 19.1 C 20 %
2402 19-03-2020 16:20:17 19.1 C 20 %
2403 19-03-2020 16:29:17 19.1 C 20 %
2404 19-03-2020 16:39:17 19.1 C 20 %
2405 19-03-2020 16:49:17 19.1 C 20 %
2406 19-03-2020 16:59:17 18.4 C 20 %
2407 19-03-2020 17:09:18 17.6 C 20 %
2408 19-03-2020 17:19:18 17.3 C 20 %
2409 19-03-2020 17:29:18 17 C 20 %
2410 19-03-2020 17:39:18 16.8 C 20 %
2411 19-03-2020 17:49:18 16.9 C 20 %
2412 19-03-2020 17:59:18 16.7 C 20 %
2413 19-03-2020 18:09:18 16.3 C 20 %
2414 19-03-2020 18:20:17 15.7 C 23 %
2415 19-03-2020 18:30:17 13.9 C 29 %
2416 19-03-2020 18:40:17 13.5 C 30 %
2417 19-03-2020 18:50:17 12.8 C 31 %
2418 19-03-2020 18:59:18 12.7 C 31 %
2419 19-03-2020 19:09:18 12.3 C 31 %
2420 19-03-2020 19:20:17 12.2 C 31 %
2421 19-03-2020 19:30:17 11.9 C 32 %
2422 19-03-2020 19:40:17 11.7 C 32 %
2423 19-03-2020 19:50:17 11.7 C 33 %
2424 19-03-2020 19:59:17 11.7 C 33 %
2425 19-03-2020 20:09:17 11.7 C 33 %
Sensor: Nr:Datum:Temp:Feuchte:
Aussen-T/F 2426 19-03-2020 20:29:17 11.5 C 34 %
2427 19-03-2020 20:29:17 11.6 C 34 %
2428 19-03-2020 20:39:17 12 C 33 %
2429 19-03-2020 20:49:17 11.8 C 34 %
2430 19-03-2020 20:59:17 11.5 C 35 %
2431 19-03-2020 21:09:18 12 C 33 %
2432 19-03-2020 21:20:17 11.4 C 35 %
2433 19-03-2020 21:30:17 11.3 C 35 %
2434 19-03-2020 21:40:17 10.3 C 36 %
2435 19-03-2020 21:50:17 10.7 C 36 %
2436 19-03-2020 21:59:18 10.6 C 36 %
2437 19-03-2020 22:09:18 10.1 C 37 %
2438 19-03-2020 22:19:18 9.7 C 38 %
2439 19-03-2020 22:29:18 9.8 C 38 %
2440 19-03-2020 22:39:18 9.5 C 39 %
2441 19-03-2020 22:49:18 9.4 C 39 %
2442 19-03-2020 22:59:18 9.5 C 38 %
2443 19-03-2020 23:09:18 9.5 C 38 %
2444 19-03-2020 23:20:17 9.4 C 39 %
2445 19-03-2020 23:30:17 9.2 C 39 %
2446 19-03-2020 23:40:17 9.6 C 38 %
2447 19-03-2020 23:50:17 9.1 C 39 %
2448 19-03-2020 23:59:18 8.7 C 40 %
2449 20-03-2020 00:09:18 8.6 C 40 %
2450 20-03-2020 00:19:18 9.3 C 39 %
Sensor: Nr:Datum:Temp:Feuchte:
Aussen-T/F 2451 20-03-2020 00:29:18 9.1 C 39 %
2452 20-03-2020 00:39:18 9 C 39 %
2453 20-03-2020 00:59:17 8.8 C 40 %
2454 20-03-2020 01:00:18 8.8 C 40 %
2455 20-03-2020 01:10:18 8.7 C 40 %
2456 20-03-2020 01:20:17 8.7 C 40 %
2457 20-03-2020 01:30:18 8.6 C 40 %
2458 20-03-2020 01:40:18 8.4 C 40 %
2459 20-03-2020 01:50:17 8.5 C 40 %
2460 20-03-2020 02:00:18 8.3 C 40 %
2461 20-03-2020 02:10:18 7.9 C 40 %
2462 20-03-2020 02:20:17 7.6 C 41 %
2463 20-03-2020 02:30:17 7.4 C 41 %
2464 20-03-2020 02:40:17 7.4 C 41 %
2465 20-03-2020 02:50:17 7.1 C 41 %
2466 20-03-2020 03:00:17 7.1 C 42 %
2467 20-03-2020 03:10:17 7.1 C 42 %
2468 20-03-2020 03:20:17 7.1 C 42 %
2469 20-03-2020 03:30:18 7.2 C 42 %
2470 20-03-2020 03:40:18 7.3 C 42 %
2471 20-03-2020 03:50:17 7.5 C 42 %
2472 20-03-2020 04:00:18 7.5 C 42 %
2473 20-03-2020 04:10:18 7.7 C 42 %
2474 20-03-2020 04:20:18 7.6 C 41 %
2475 20-03-2020 04:30:18 7.4 C 42 %
Sensor: Nr:Datum:Temp:Feuchte:
Aussen-T/F 2476 20-03-2020 04:40:18 7.2 C 42 %
2477 20-03-2020 04:50:17 7 C 42 %
2478 20-03-2020 05:00:18 6.9 C 43 %
2479 20-03-2020 05:10:18 6.8 C 43 %
2480 20-03-2020 05:20:17 6.5 C 43 %
2481 20-03-2020 05:30:17 6.2 C 43 %
2482 20-03-2020 05:40:17 5.9 C 44 %
2483 20-03-2020 05:50:17 5.6 C 44 %
2484 20-03-2020 06:00:17 5.4 C 45 %
2485 20-03-2020 06:10:17 5.2 C 45 %
2486 20-03-2020 06:20:17 5 C 45 %
2487 20-03-2020 06:30:17 5.1 C 46 %
2488 20-03-2020 06:40:17 5 C 46 %
2489 20-03-2020 06:50:17 5 C 46 %
2490 20-03-2020 07:00:17 5.1 C 46 %
2491 20-03-2020 07:10:17 5.3 C 46 %
2492 20-03-2020 07:20:17 5.5 C 46 %
2493 20-03-2020 07:30:17 5.6 C 46 %
2494 20-03-2020 07:40:17 5.7 C 46 %
2495 20-03-2020 07:50:18 5.8 C 46 %
2496 20-03-2020 08:00:17 6.3 C 46 %
2497 20-03-2020 08:10:17 6.9 C 45 %
2498 20-03-2020 08:20:17 7.2 C 43 %
2499 20-03-2020 08:30:17 7.1 C 43 %
2500 20-03-2020 08:40:17 7.1 C 43 %
Sensor: Nr:Datum:Temp:Feuchte:
Aussen-T/F 2501 20-03-2020 08:50:17 7.3 C 43 %
2502 20-03-2020 09:00:17 8 C 43 %
2503 20-03-2020 09:10:17 8.2 C 42 %
2504 20-03-2020 09:20:17 9.6 C 42 %
2505 20-03-2020 09:30:17 10 C 40 %
2506 20-03-2020 09:40:17 10.2 C 40 %
2507 20-03-2020 09:50:17 10.5 C 39 %
2508 20-03-2020 10:00:18 10.8 C 39 %
2509 20-03-2020 10:10:18 11.2 C 38 %
2510 20-03-2020 10:20:18 11.1 C 37 %
2511 20-03-2020 10:30:18 11 C 37 %
2512 20-03-2020 10:40:18 11.5 C 37 %
2513 20-03-2020 10:50:18 12.6 C 36 %
2514 20-03-2020 11:00:17 13.1 C 35 %
2515 20-03-2020 11:10:18 13.1 C 35 %
2516 20-03-2020 11:20:18 14.2 C 33 %
2517 20-03-2020 11:30:18 14.5 C 32 %
2518 20-03-2020 11:40:18 15.3 C 31 %
2519 20-03-2020 11:50:18 14.6 C 32 %
2520 20-03-2020 12:00:17 15.6 C 31 %
2521 20-03-2020 12:10:17 15.4 C 30 %
2522 20-03-2020 12:20:17 15.6 C 30 %
2523 20-03-2020 12:30:18 14.4 C 31 %
2524 20-03-2020 12:40:18 14.9 C 31 %
2525 20-03-2020 12:50:18 14.9 C 31 %
Sensor: Nr:Datum:Temp:Feuchte:
Aussen-T/F 2526 20-03-2020 13:00:18 14.9 C 31 %
2527 20-03-2020 13:10:18 14.9 C 31 %
2528 20-03-2020 13:20:18 14.9 C 31 %
2529 20-03-2020 13:30:18 14.9 C 31 %
2530 20-03-2020 13:40:18 14.9 C 31 %
2531 20-03-2020 13:50:17 16.4 C 26 %
2532 20-03-2020 14:00:17 16.2 C 27 %
2533 20-03-2020 14:10:17 16.6 C 26 %
2534 20-03-2020 14:20:17 16.2 C 27 %
2535 20-03-2020 14:30:18 17.4 C 26 %
2536 20-03-2020 14:40:18 17.3 C 26 %
2537 20-03-2020 14:50:18 17.9 C 25 %
2538 20-03-2020 15:00:17 17.9 C 25 %
2539 20-03-2020 15:10:17 18.1 C 25 %
2540 20-03-2020 15:20:17 17 C 25 %
2541 20-03-2020 15:30:18 17.9 C 25 %
2542 20-03-2020 15:40:18 18.5 C 25 %
2543 20-03-2020 15:50:18 17 C 25 %
2544 20-03-2020 16:00:17 16.2 C 26 %
2545 20-03-2020 16:10:17 16.1 C 26 %
2546 20-03-2020 16:20:17 15.5 C 26 %
2547 20-03-2020 16:30:18 15.8 C 26 %
2548 20-03-2020 16:40:18 15.3 C 26 %
2549 20-03-2020 16:50:18 17 C 25 %
2550 20-03-2020 17:00:18 16.1 C 26 %
Sensor: Nr:Datum:Temp:Feuchte:
Aussen-T/F 2551 20-03-2020 17:10:18 15.2 C 27 %
2552 20-03-2020 17:20:18 14.3 C 28 %
2553 20-03-2020 17:30:18 13.9 C 30 %
2554 20-03-2020 17:40:18 12.8 C 31 %
2555 20-03-2020 17:50:17 12.5 C 31 %
2556 20-03-2020 18:00:17 12.4 C 32 %
2557 20-03-2020 18:10:17 11.9 C 33 %
2558 20-03-2020 18:20:17 11.8 C 34 %
2559 20-03-2020 18:30:17 11.6 C 34 %
2560 20-03-2020 18:40:17 11.6 C 34 %
2561 20-03-2020 18:50:18 11.5 C 34 %
2562 20-03-2020 19:00:17 11.5 C 34 %
2563 20-03-2020 19:10:17 11.3 C 34 %
2564 20-03-2020 19:20:17 11.1 C 34 %
2565 20-03-2020 19:30:17 11 C 35 %
2566 20-03-2020 19:40:17 10.7 C 35 %
2567 20-03-2020 19:50:17 10.6 C 35 %
2568 20-03-2020 20:00:17 10.4 C 35 %
2569 20-03-2020 20:10:17 10.2 C 35 %
2570 20-03-2020 20:20:17 10.3 C 35 %
2571 20-03-2020 20:30:17 10.3 C 35 %
2572 20-03-2020 20:40:17 10.2 C 35 %
2573 20-03-2020 20:50:18 10.3 C 35 %
2574 20-03-2020 21:00:18 10.1 C 35 %
2575 20-03-2020 21:10:18 9.9 C 35 %
Sensor: Nr:Datum:Temp:Feuchte:
Aussen-T/F 2576 20-03-2020 21:20:17 9.5 C 35 %
2577 20-03-2020 21:30:17 9.2 C 35 %
2578 20-03-2020 21:40:17 9.1 C 35 %
2579 20-03-2020 21:50:17 8.7 C 36 %
2580 20-03-2020 22:00:17 8.5 C 36 %
2581 20-03-2020 22:10:17 8.4 C 36 %
2582 20-03-2020 22:20:18 8.3 C 36 %
2583 20-03-2020 22:30:17 8.2 C 36 %
2584 20-03-2020 22:40:18 8.1 C 36 %
2585 20-03-2020 22:50:17 8.1 C 36 %
2586 20-03-2020 23:00:18 8 C 35 %
2587 20-03-2020 23:10:18 7.9 C 36 %
2588 20-03-2020 23:20:17 7.9 C 36 %
2589 20-03-2020 23:30:18 7.9 C 35 %
2590 20-03-2020 23:40:18 7.8 C 35 %
2591 20-03-2020 23:50:18 7.7 C 35 %
2592 21-03-2020 00:00:17 7.6 C 34 %
2593 21-03-2020 00:10:17 7.6 C 34 %
2594 21-03-2020 00:20:17 7.4 C 34 %
2595 21-03-2020 00:30:17 7.3 C 34 %
2596 21-03-2020 00:40:17 7.3 C 34 %
2597 21-03-2020 00:50:17 7.3 C 34 %
2598 21-03-2020 01:00:17 7.2 C 33 %
2599 21-03-2020 01:10:17 7.1 C 33 %
2600 21-03-2020 01:20:17 6.8 C 35 %
Sensor: Nr:Datum:Temp:Feuchte:
Aussen-T/F 2601 21-03-2020 01:30:18 6.5 C 35 %
2602 21-03-2020 01:40:18 6.2 C 36 %
2603 21-03-2020 01:50:17 5.9 C 38 %
2604 21-03-2020 02:00:18 5.6 C 39 %
2605 21-03-2020 02:10:18 5.3 C 40 %
2606 21-03-2020 02:20:17 5.1 C 41 %
2607 21-03-2020 02:30:18 4.9 C 43 %
2608 21-03-2020 02:40:18 4.9 C 43 %
2609 21-03-2020 02:50:18 4.6 C 43 %
2610 21-03-2020 03:00:17 4.5 C 43 %
2611 21-03-2020 03:10:17 4.4 C 44 %
2612 21-03-2020 03:20:17 4.5 C 45 %
2613 21-03-2020 03:30:18 4.5 C 45 %
2614 21-03-2020 03:40:18 4.4 C 45 %
2615 21-03-2020 03:50:17 4.4 C 45 %
2616 21-03-2020 04:00:18 4.3 C 45 %
2617 21-03-2020 04:10:18 4.2 C 45 %
2618 21-03-2020 04:20:17 4.1 C 45 %
2619 21-03-2020 04:30:18 4.1 C 45 %
2620 21-03-2020 04:40:18 4 C 45 %
2621 21-03-2020 04:50:18 3.9 C 46 %
2622 21-03-2020 05:00:18 3.9 C 46 %
2623 21-03-2020 05:10:18 4 C 46 %
2624 21-03-2020 05:20:18 3.9 C 47 %
2625 21-03-2020 05:30:18 3.9 C 47 %
Sensor: Nr:Datum:Temp:Feuchte:
Aussen-T/F 2626 21-03-2020 05:40:18 3.9 C 47 %
2627 21-03-2020 05:50:17 4 C 46 %
2628 21-03-2020 06:00:18 4 C 47 %
2629 21-03-2020 06:10:18 3.9 C 47 %
2630 21-03-2020 06:20:17 4 C 47 %
2631 21-03-2020 06:30:18 4 C 47 %
2632 21-03-2020 06:40:18 4 C 47 %
2633 21-03-2020 06:50:17 4 C 47 %
2634 21-03-2020 07:00:17 4.1 C 47 %
2635 21-03-2020 07:10:18 4.1 C 47 %
2636 21-03-2020 07:20:18 4.1 C 47 %
2637 21-03-2020 07:30:18 4.2 C 47 %
2638 21-03-2020 07:40:18 4.3 C 47 %
2639 21-03-2020 07:50:17 4.3 C 47 %
2640 21-03-2020 08:00:18 4.4 C 47 %
2641 21-03-2020 08:10:18 4.5 C 47 %
2642 21-03-2020 08:20:17 4.5 C 46 %
2643 21-03-2020 08:30:17 4.6 C 46 %
2644 21-03-2020 08:40:17 4.7 C 46 %
2645 21-03-2020 08:50:18 4.8 C 46 %
2646 21-03-2020 09:00:18 4.7 C 46 %
2647 21-03-2020 09:10:18 4.6 C 45 %
2648 21-03-2020 09:20:18 5.2 C 43 %
2649 21-03-2020 09:30:18 5.6 C 42 %
2650 21-03-2020 09:40:18 5.8 C 41 %
Sensor: Nr:Datum:Temp:Feuchte:
Aussen-T/F 2651 21-03-2020 09:50:17 6 C 41 %
2652 21-03-2020 10:00:17 6.2 C 41 %
2653 21-03-2020 10:10:18 6.4 C 39 %
2654 21-03-2020 10:20:18 6.5 C 40 %
2655 21-03-2020 10:30:18 6.7 C 39 %
2656 21-03-2020 10:40:18 6.7 C 38 %
2657 21-03-2020 10:50:17 6.4 C 39 %
2658 21-03-2020 11:00:17 6.5 C 37 %
2659 21-03-2020 11:10:18 7.1 C 36 %
2660 21-03-2020 11:20:18 7.3 C 36 %
2661 21-03-2020 11:30:18 8.1 C 34 %
2662 21-03-2020 11:40:18 8 C 34 %
2663 21-03-2020 11:50:18 8.3 C 32 %
2664 21-03-2020 12:00:18 7.8 C 32 %
2665 21-03-2020 12:10:18 7.6 C 33 %
2666 21-03-2020 12:20:17 7.9 C 31 %
2667 21-03-2020 12:30:17 8.7 C 32 %
2668 21-03-2020 12:40:17 8.2 C 30 %
2669 21-03-2020 12:50:17 7.8 C 31 %
2670 21-03-2020 13:00:17 7.9 C 30 %
2671 21-03-2020 13:10:17 8.7 C 30 %
2672 21-03-2020 13:20:18 8.9 C 28 %
2673 21-03-2020 13:30:18 8.5 C 28 %
2674 21-03-2020 13:40:18 8.2 C 27 %
2675 21-03-2020 13:50:17 8.4 C 27 %
Sensor: Nr:Datum:Temp:Feuchte:
Aussen-T/F 2676 21-03-2020 14:00:18 8.6 C 27 %
2677 21-03-2020 14:10:18 9.1 C 26 %
2678 21-03-2020 14:20:18 8.7 C 27 %
2679 21-03-2020 14:30:18 9.1 C 25 %
2680 21-03-2020 14:40:18 11.1 C 24 %
2681 21-03-2020 14:50:17 9.8 C 23 %
2682 21-03-2020 15:00:18 11 C 20 %
2683 21-03-2020 15:10:18 10.1 C 20 %
2684 21-03-2020 15:20:17 11.2 C 20 %
2685 21-03-2020 15:30:17 11.7 C 20 %
2686 21-03-2020 15:40:17 9.4 C 20 %
2687 21-03-2020 15:50:17 8.6 C 20 %
2688 21-03-2020 16:00:18 9.4 C 20 %
2689 21-03-2020 16:10:18 9.5 C 20 %
2690 21-03-2020 16:20:17 12.1 C 20 %
2691 21-03-2020 16:30:17 12 C 20 %
2692 21-03-2020 16:40:17 13.3 C 20 %
2693 21-03-2020 16:50:17 10.9 C 20 %
2694 21-03-2020 17:00:17 9.2 C 20 %
2695 21-03-2020 17:10:17 8.9 C 20 %
2696 21-03-2020 17:20:17 8.3 C 20 %
2697 21-03-2020 17:30:18 7.8 C 20 %
2698 21-03-2020 17:40:18 7.8 C 20 %
2699 21-03-2020 17:50:17 7.5 C 20 %
2700 21-03-2020 18:00:17 7 C 20 %
Sensor: Nr:Datum:Temp:Feuchte:
Aussen-T/F 2701 21-03-2020 18:10:17 6.9 C 20 %
2702 21-03-2020 18:20:17 6.6 C 21 %
2703 21-03-2020 18:30:17 6.4 C 23 %
2704 21-03-2020 18:40:17 5.9 C 25 %
2705 21-03-2020 18:50:17 5.5 C 27 %
2706 21-03-2020 19:00:17 5.5 C 26 %
2707 21-03-2020 19:10:17 5.1 C 28 %
2708 21-03-2020 19:20:17 4.7 C 30 %
2709 21-03-2020 19:30:18 4.4 C 31 %
2710 21-03-2020 19:40:18 4.5 C 30 %
2711 21-03-2020 19:50:17 4.4 C 29 %
2712 21-03-2020 20:00:18 4.1 C 30 %
2713 21-03-2020 20:10:18 3.7 C 31 %
2714 21-03-2020 20:20:18 3.2 C 33 %
2715 21-03-2020 20:30:18 3.7 C 32 %
2716 21-03-2020 20:40:18 3.9 C 30 %
2717 21-03-2020 20:50:17 3.6 C 31 %
2718 21-03-2020 21:00:18 3.3 C 32 %
2719 21-03-2020 21:10:18 3 C 32 %
2720 21-03-2020 21:20:18 3.4 C 32 %
2721 21-03-2020 21:30:18 3.1 C 31 %
2722 21-03-2020 21:40:18 2.9 C 32 %
2723 21-03-2020 21:50:17 2.6 C 33 %
2724 21-03-2020 22:00:17 1.9 C 36 %
2725 21-03-2020 22:10:17 2.3 C 34 %
Sensor: Nr:Datum:Temp:Feuchte:
Aussen-T/F 2726 21-03-2020 22:20:17 3 C 32 %
2727 21-03-2020 22:30:18 2.7 C 32 %
2728 21-03-2020 22:40:18 2.3 C 33 %
2729 21-03-2020 22:50:18 2.7 C 32 %
2730 21-03-2020 23:00:18 2 C 34 %
2731 21-03-2020 23:10:18 2.2 C 33 %
2732 21-03-2020 23:20:18 1.6 C 35 %
2733 21-03-2020 23:30:18 1.7 C 35 %
2734 21-03-2020 23:40:18 1.8 C 35 %
2735 21-03-2020 23:50:17 1.7 C 35 %
2736 22-03-2020 00:00:18 1.4 C 35 %
2737 22-03-2020 00:10:18 1.5 C 35 %
2738 22-03-2020 00:20:17 0.9 C 37 %
2739 22-03-2020 00:30:17 0.7 C 38 %
2740 22-03-2020 00:40:17 1.2 C 36 %
2741 22-03-2020 00:50:17 0.9 C 37 %
2742 22-03-2020 01:00:18 1.5 C 35 %
2743 22-03-2020 01:10:18 1.5 C 35 %
2744 22-03-2020 01:20:18 1.1 C 35 %
2745 22-03-2020 01:30:18 1.1 C 35 %
2746 22-03-2020 01:40:18 0.9 C 36 %
2747 22-03-2020 01:50:18 1 C 35 %
2748 22-03-2020 02:00:18 1 C 35 %
2749 22-03-2020 02:10:18 0.1 C 38 %
2750 22-03-2020 02:20:17 0.3 C 38 %
Sensor: Nr:Datum:Temp:Feuchte:
Aussen-T/F 2751 22-03-2020 02:30:18 0.5 C 37 %
2752 22-03-2020 02:40:18 0.5 C 37 %
2753 22-03-2020 02:50:18 0.4 C 37 %
2754 22-03-2020 03:00:18 0.2 C 37 %
2755 22-03-2020 03:10:18 0.7 C 37 %
2756 22-03-2020 03:20:18 -0.4 C 38 %
2757 22-03-2020 03:30:18 -0.1 C 38 %
2758 22-03-2020 03:40:18 -0.4 C 39 %
2759 22-03-2020 03:50:17 -0.3 C 39 %
2760 22-03-2020 04:00:17 -0.2 C 38 %
2761 22-03-2020 04:10:17 0 C 37 %
2762 22-03-2020 04:20:17 -0.4 C 38 %
2763 22-03-2020 04:30:17 0.3 C 37 %
2764 22-03-2020 04:40:17 0.1 C 37 %
2765 22-03-2020 04:50:17 -0.2 C 38 %
2766 22-03-2020 05:00:18 0.1 C 37 %
2767 22-03-2020 05:10:18 -0.3 C 37 %
2768 22-03-2020 05:20:17 -0.4 C 37 %
2769 22-03-2020 05:30:18 -0.5 C 38 %
2770 22-03-2020 05:40:18 -0.7 C 38 %
2771 22-03-2020 05:50:17 -1 C 39 %
2772 22-03-2020 06:00:17 -1.1 C 39 %
2773 22-03-2020 06:10:17 -0.8 C 39 %
2774 22-03-2020 06:20:17 0.1 C 37 %
2775 22-03-2020 06:30:17 -0.3 C 37 %
Sensor: Nr:Datum:Temp:Feuchte:
Aussen-T/F 2776 22-03-2020 06:40:17 -0.4 C 37 %
2777 22-03-2020 06:50:18 0 C 36 %
2778 22-03-2020 07:00:18 -0.3 C 37 %
2779 22-03-2020 07:10:18 -0.2 C 37 %
2780 22-03-2020 07:20:18 -0.4 C 37 %
2781 22-03-2020 07:30:18 -0.1 C 36 %
2782 22-03-2020 07:40:18 -0.2 C 37 %
2783 22-03-2020 07:50:17 -0.1 C 36 %
2784 22-03-2020 08:00:18 -0.1 C 36 %
2785 22-03-2020 08:10:18 0.3 C 36 %
2786 22-03-2020 08:20:18 0.3 C 35 %
2787 22-03-2020 08:30:18 0.5 C 35 %
2788 22-03-2020 08:40:18 0.8 C 35 %
2789 22-03-2020 08:50:18 0.4 C 35 %
2790 22-03-2020 09:00:18 0.8 C 35 %
2791 22-03-2020 09:10:18 1.2 C 32 %
2792 22-03-2020 09:20:18 1.6 C 32 %
2793 22-03-2020 09:30:18 2.2 C 30 %
2794 22-03-2020 09:40:18 2.5 C 27 %
2795 22-03-2020 09:50:17 2.8 C 26 %
2796 22-03-2020 10:00:18 3.3 C 25 %
2797 22-03-2020 10:10:18 3.6 C 25 %
2798 22-03-2020 10:20:18 3.9 C 20 %
2799 22-03-2020 10:30:18 4.4 C 20 %
2800 22-03-2020 10:40:18 4.6 C 20 %
Sensor: Nr:Datum:Temp:Feuchte:
Aussen-T/F 2801 22-03-2020 10:50:17 5.2 C 20 %
2802 22-03-2020 11:00:18 5.5 C 20 %
2803 22-03-2020 11:10:18 6.3 C 20 %
2804 22-03-2020 11:20:17 6.5 C 20 %
2805 22-03-2020 11:30:18 6.7 C 20 %
2806 22-03-2020 11:40:18 6.7 C 20 %
2807 22-03-2020 11:50:17 6.5 C 20 %
2808 22-03-2020 12:00:18 7 C 20 %
2809 22-03-2020 12:10:18 7.4 C 20 %
2810 22-03-2020 12:20:18 7.3 C 20 %
2811 22-03-2020 12:30:17 6.9 C 20 %
2812 22-03-2020 12:40:17 8 C 20 %
2813 22-03-2020 12:50:18 8.5 C 20 %
2814 22-03-2020 13:00:18 10.1 C 20 %
2815 22-03-2020 13:10:18 11.1 C 20 %
2816 22-03-2020 13:20:17 11.9 C 20 %
2817 22-03-2020 13:30:18 11.6 C 20 %
2818 22-03-2020 13:40:18 10.9 C 20 %
2819 22-03-2020 13:50:18 10.3 C 20 %
2820 22-03-2020 14:00:17 9.6 C 20 %
2821 22-03-2020 14:10:17 10.2 C 20 %
2822 22-03-2020 14:20:17 12.2 C 20 %
2823 22-03-2020 14:30:17 12.6 C 20 %
2824 22-03-2020 14:40:17 14.4 C 20 %
2825 22-03-2020 14:50:17 14.4 C 20 %
Sensor: Nr:Datum:Temp:Feuchte:
Aussen-T/F 2826 22-03-2020 15:00:18 15 C 20 %
2827 22-03-2020 15:10:18 14.4 C 20 %
2828 22-03-2020 15:20:17 14.7 C 20 %
2829 22-03-2020 15:30:17 13.6 C 20 %
2830 22-03-2020 15:40:17 13.7 C 20 %
2831 22-03-2020 15:50:18 15.4 C 20 %
2832 22-03-2020 16:00:18 16.2 C 20 %
2833 22-03-2020 16:10:18 14.9 C 20 %
2834 22-03-2020 16:20:18 14.1 C 20 %
2835 22-03-2020 16:30:18 13.3 C 20 %
2836 22-03-2020 16:40:18 13.2 C 20 %
2837 22-03-2020 16:50:17 11.7 C 20 %
2838 22-03-2020 17:00:17 10.7 C 20 %
2839 22-03-2020 17:10:17 9.9 C 20 %
2840 22-03-2020 17:20:17 9.7 C 20 %
2841 22-03-2020 17:30:17 9.8 C 20 %
2842 22-03-2020 17:40:17 9.5 C 20 %
2843 22-03-2020 17:50:17 8.9 C 20 %
2844 22-03-2020 18:00:18 8.6 C 20 %
2845 22-03-2020 18:10:18 8.4 C 20 %
2846 22-03-2020 18:20:17 7.9 C 20 %
2847 22-03-2020 18:30:17 7.5 C 20 %
2848 22-03-2020 18:40:17 7 C 20 %
2849 22-03-2020 18:50:17 6.5 C 20 %
2850 22-03-2020 19:00:17 5.6 C 20 %
Sensor: Nr:Datum:Temp:Feuchte:
Aussen-T/F 2851 22-03-2020 19:10:17 4.9 C 21 %
2852 22-03-2020 19:20:17 5.2 C 20 %
2853 22-03-2020 19:30:17 4.3 C 26 %
2854 22-03-2020 19:40:17 3.8 C 27 %
2855 22-03-2020 19:50:18 3.7 C 28 %
2856 22-03-2020 20:00:18 3.6 C 28 %
2857 22-03-2020 20:10:18 3.6 C 27 %
2858 22-03-2020 20:20:17 3.6 C 26 %
2859 22-03-2020 20:30:17 3.2 C 26 %
2860 22-03-2020 20:40:17 3 C 26 %
2861 22-03-2020 20:50:17 2.5 C 30 %
2862 22-03-2020 21:00:17 2.9 C 26 %
2863 22-03-2020 21:10:17 2.7 C 27 %
2864 22-03-2020 21:20:17 2.3 C 30 %
2865 22-03-2020 21:30:17 2.2 C 29 %
2866 22-03-2020 21:40:17 1.8 C 30 %
2867 22-03-2020 21:50:18 1.5 C 31 %
2868 22-03-2020 22:00:18 2 C 30 %
2869 22-03-2020 22:10:18 2.5 C 26 %
2870 22-03-2020 22:20:17 1.8 C 30 %
2871 22-03-2020 22:30:17 1.5 C 29 %
2872 22-03-2020 22:40:17 1.3 C 31 %
2873 22-03-2020 22:50:17 1.4 C 30 %
2874 22-03-2020 23:00:17 0.7 C 33 %
2875 22-03-2020 23:10:17 1.1 C 30 %
Sensor: Nr:Datum:Temp:Feuchte:
Aussen-T/F 2876 22-03-2020 23:20:17 0.8 C 32 %
2877 22-03-2020 23:30:18 0.3 C 33 %
2878 22-03-2020 23:40:18 0.3 C 34 %
2879 22-03-2020 23:50:18 0.6 C 33 %
2880 23-03-2020 00:00:18 0.4 C 34 %
2881 23-03-2020 00:10:18 0 C 33 %
2882 23-03-2020 00:20:17 -0.2 C 33 %
2883 23-03-2020 00:30:17 -0.5 C 35 %
2884 23-03-2020 00:40:17 -0.7 C 36 %
2885 23-03-2020 00:50:18 -1.1 C 36 %
2886 23-03-2020 01:00:17 -0.6 C 35 %
2887 23-03-2020 01:10:17 -0.7 C 36 %
2888 23-03-2020 01:20:17 -0.9 C 35 %
2889 23-03-2020 01:30:18 -0.8 C 35 %
2890 23-03-2020 01:40:18 -1.1 C 35 %
2891 23-03-2020 01:50:18 -0.8 C 35 %
2892 23-03-2020 02:00:18 -1.1 C 35 %
2893 23-03-2020 02:10:18 -1.4 C 35 %
2894 23-03-2020 02:20:17 -1.2 C 35 %
2895 23-03-2020 02:30:17 -1.2 C 35 %
2896 23-03-2020 02:40:17 -1.2 C 35 %
2897 23-03-2020 02:50:17 -1.3 C 35 %
2898 23-03-2020 03:00:17 -1.6 C 35 %
2899 23-03-2020 03:10:18 -1.9 C 35 %
2900 23-03-2020 03:20:18 -1.6 C 35 %
Sensor: Nr:Datum:Temp:Feuchte:
Aussen-T/F 2901 23-03-2020 03:30:18 -1.7 C 35 %
2902 23-03-2020 03:40:18 -1.9 C 35 %
2903 23-03-2020 03:50:18 -1.8 C 35 %
2904 23-03-2020 04:00:18 -1.8 C 35 %
2905 23-03-2020 04:10:18 -2.1 C 35 %
2906 23-03-2020 04:20:17 -1.9 C 35 %
2907 23-03-2020 04:30:17 -2 C 35 %
2908 23-03-2020 04:40:17 -2.1 C 35 %
2909 23-03-2020 04:50:17 -2.7 C 36 %
2910 23-03-2020 05:00:18 -2.5 C 36 %
2911 23-03-2020 05:10:18 -2.4 C 36 %
2912 23-03-2020 05:20:17 -2.3 C 36 %
2913 23-03-2020 05:30:18 -2.4 C 35 %
2914 23-03-2020 05:40:18 -2.7 C 36 %
2915 23-03-2020 05:50:17 -2.7 C 36 %
2916 23-03-2020 06:00:18 -2.6 C 36 %
2917 23-03-2020 06:10:18 -2.9 C 36 %
2918 23-03-2020 06:20:17 -2.6 C 36 %
2919 23-03-2020 06:30:18 -2.8 C 36 %
2920 23-03-2020 06:40:18 -3.2 C 36 %
2921 23-03-2020 06:50:18 -3 C 36 %
2922 23-03-2020 07:00:18 -3 C 36 %
2923 23-03-2020 07:10:18 -3.1 C 36 %
2924 23-03-2020 07:20:18 -2.5 C 35 %
2925 23-03-2020 07:30:18 -2.7 C 36 %
Sensor: Nr:Datum:Temp:Feuchte:
Aussen-T/F 2926 23-03-2020 07:40:18 -2.6 C 36 %
2927 23-03-2020 07:50:18 -1.9 C 34 %
2928 23-03-2020 08:00:18 -2 C 35 %
2929 23-03-2020 08:10:18 -1.4 C 32 %
2930 23-03-2020 08:20:17 -1.1 C 31 %
2931 23-03-2020 08:30:18 -0.2 C 27 %
2932 23-03-2020 08:40:18 -0.2 C 26 %
2933 23-03-2020 08:50:18 -0.3 C 25 %
2934 23-03-2020 09:00:18 0 C 23 %
2935 23-03-2020 09:10:18 0.2 C 23 %
2936 23-03-2020 09:20:18 0.5 C 20 %
2937 23-03-2020 09:30:17 0.7 C 20 %
2938 23-03-2020 09:40:17 1.5 C 20 %
2939 23-03-2020 09:50:18 1.8 C 20 %
2940 23-03-2020 10:00:18 2.4 C 20 %
2941 23-03-2020 10:10:18 2.7 C 20 %
2942 23-03-2020 10:20:18 3 C 20 %
2943 23-03-2020 10:30:17 3.8 C 20 %
2944 23-03-2020 10:40:17 4.1 C 20 %
2945 23-03-2020 10:50:17 4.7 C 20 %
2946 23-03-2020 11:00:17 5.5 C 20 %
2947 23-03-2020 11:10:17 5.5 C 20 %
2948 23-03-2020 11:20:17 6 C 20 %
2949 23-03-2020 11:30:18 6.7 C 20 %
2950 23-03-2020 11:40:18 6.2 C 20 %
Sensor: Nr:Datum:Temp:Feuchte:
Aussen-T/F 2951 23-03-2020 11:50:17 6.3 C 20 %
2952 23-03-2020 12:00:18 7 C 20 %
2953 23-03-2020 12:10:18 7.4 C 20 %
2954 23-03-2020 12:20:18 7.8 C 20 %
2955 23-03-2020 12:30:18 7.5 C 20 %
2956 23-03-2020 12:40:18 8.1 C 20 %
2957 23-03-2020 12:50:18 8.7 C 20 %
2958 23-03-2020 13:00:17 10.4 C 20 %
2959 23-03-2020 13:10:17 10.7 C 20 %
2960 23-03-2020 13:20:17 11.9 C 20 %
2961 23-03-2020 13:30:17 11.4 C 20 %
2962 23-03-2020 13:40:17 10 C 20 %
2963 23-03-2020 13:50:17 9.8 C 20 %
2964 23-03-2020 14:00:18 9.2 C 20 %
2965 23-03-2020 14:10:18 10.5 C 20 %
2966 23-03-2020 14:20:18 12.9 C 20 %
2967 23-03-2020 14:30:18 13 C 20 %
2968 23-03-2020 14:40:18 14.2 C 20 %
2969 23-03-2020 14:50:18 14.3 C 20 %
2970 23-03-2020 15:00:18 14.3 C 20 %
2971 23-03-2020 15:10:18 14.4 C 20 %
2972 23-03-2020 15:20:17 14.7 C 20 %
2973 23-03-2020 15:30:17 13.5 C 20 %
2974 23-03-2020 15:40:17 14.4 C 20 %
2975 23-03-2020 15:50:17 14.1 C 20 %
Sensor: Nr:Datum:Temp:Feuchte:
Aussen-T/F 2976 23-03-2020 16:00:17 13.8 C 20 %
2977 23-03-2020 16:10:17 14.7 C 20 %
2978 23-03-2020 16:20:17 15.3 C 20 %
2979 23-03-2020 16:30:18 14.7 C 20 %
2980 23-03-2020 16:40:18 14.8 C 20 %
2981 23-03-2020 16:50:17 11.4 C 20 %
2982 23-03-2020 17:00:18 10.1 C 20 %
2983 23-03-2020 17:10:18 9.7 C 20 %
2984 23-03-2020 17:20:18 9.4 C 20 %
2985 23-03-2020 17:30:18 9 C 20 %
2986 23-03-2020 17:40:18 9 C 20 %
2987 23-03-2020 17:50:17 8.6 C 20 %
2988 23-03-2020 18:00:18 8.3 C 20 %
2989 23-03-2020 18:10:18 7.6 C 20 %
2990 23-03-2020 18:20:17 7.4 C 20 %
2991 23-03-2020 18:30:18 7 C 20 %
2992 23-03-2020 18:40:18 5.3 C 20 %
2993 23-03-2020 18:50:18 4.4 C 20 %
2994 23-03-2020 19:00:18 4.2 C 20 %
2995 23-03-2020 19:10:18 4.1 C 20 %
2996 23-03-2020 19:20:17 3.7 C 20 %
2997 23-03-2020 19:30:18 3.6 C 20 %
2998 23-03-2020 19:40:18 3.4 C 20 %
2999 23-03-2020 19:50:18 2.7 C 20 %
3000 23-03-2020 20:00:17 2.9 C 20 %
Sensor: Nr:Datum:Temp:Feuchte:
Aussen-T/F 3001 23-03-2020 20:10:17 2.6 C 20 %
3002 23-03-2020 20:20:17 2.5 C 20 %
3003 23-03-2020 20:30:18 2.3 C 20 %
3004 23-03-2020 20:40:18 2.4 C 20 %
3005 23-03-2020 20:50:18 2.3 C 20 %
3006 23-03-2020 21:00:18 2.1 C 20 %
3007 23-03-2020 21:10:18 0.9 C 27 %
3008 23-03-2020 21:20:17 1 C 26 %
3009 23-03-2020 21:30:18 1.1 C 28 %
3010 23-03-2020 21:40:18 0.7 C 29 %
3011 23-03-2020 21:50:18 0.2 C 30 %
3012 23-03-2020 22:00:17 -0.4 C 31 %
3013 23-03-2020 22:10:18 -0.9 C 35 %
3014 23-03-2020 22:20:18 -0.2 C 34 %
3015 23-03-2020 22:30:18 -0.9 C 35 %
3016 23-03-2020 22:40:18 -0.9 C 35 %
3017 23-03-2020 22:50:18 -1.3 C 35 %
3018 23-03-2020 23:00:18 -1.4 C 36 %
3019 23-03-2020 23:10:18 -1.6 C 36 %
3020 23-03-2020 23:20:17 -1.7 C 36 %
3021 23-03-2020 23:30:17 -1.7 C 37 %
3022 23-03-2020 23:40:17 -1.9 C 37 %
3023 23-03-2020 23:50:18 -1.8 C 37 %
3024 24-03-2020 00:00:18 -1.9 C 36 %
3025 24-03-2020 00:10:18 -2 C 36 %
Sensor: Nr:Datum:Temp:Feuchte:
Aussen-T/F 3026 24-03-2020 00:20:17 -2.2 C 36 %
3027 24-03-2020 00:30:18 -2.4 C 37 %
3028 24-03-2020 00:40:18 -2.4 C 38 %
3029 24-03-2020 00:50:18 -2.5 C 38 %
3030 24-03-2020 01:00:18 -2.3 C 37 %
3031 24-03-2020 01:10:18 -2.6 C 37 %
3032 24-03-2020 01:20:18 -2.7 C 38 %
3033 24-03-2020 01:30:18 -2.7 C 38 %
3034 24-03-2020 01:40:18 -3 C 38 %
3035 24-03-2020 01:50:18 -2.5 C 37 %
3036 24-03-2020 02:00:18 -2.6 C 38 %
3037 24-03-2020 02:10:18 -2.8 C 38 %
3038 24-03-2020 02:20:17 -3.1 C 38 %
3039 24-03-2020 02:30:17 -3.2 C 38 %
3040 24-03-2020 02:40:17 -3.3 C 38 %
3041 24-03-2020 02:50:17 -3.2 C 38 %
3042 24-03-2020 03:00:17 -3.4 C 38 %
3043 24-03-2020 03:10:17 -3.5 C 38 %
3044 24-03-2020 03:20:17 -3.6 C 39 %
3045 24-03-2020 03:30:17 -3.6 C 38 %
3046 24-03-2020 03:40:17 -3.7 C 38 %
3047 24-03-2020 03:50:17 -3.9 C 39 %
3048 24-03-2020 04:00:18 -3.7 C 39 %
3049 24-03-2020 04:10:18 -3.9 C 38 %
3050 24-03-2020 04:20:18 -4 C 38 %
Sensor: Nr:Datum:Temp:Feuchte:
Aussen-T/F 3051 24-03-2020 04:30:18 -4 C 38 %
3052 24-03-2020 04:40:18 -4 C 38 %
3053 24-03-2020 04:50:17 -3.9 C 38 %
3054 24-03-2020 05:00:17 -4.2 C 38 %
3055 24-03-2020 05:10:17 -4.3 C 39 %
3056 24-03-2020 05:20:17 -4.2 C 38 %
3057 24-03-2020 05:30:18 -4.3 C 38 %
3058 24-03-2020 05:40:18 -4.4 C 38 %
3059 24-03-2020 05:50:18 -4.6 C 39 %
3060 24-03-2020 06:00:17 -4.7 C 39 %
3061 24-03-2020 06:10:18 -4.7 C 38 %
3062 24-03-2020 06:20:17 -4.7 C 39 %
3063 24-03-2020 06:30:18 -4.7 C 38 %
3064 24-03-2020 06:40:18 -4.6 C 39 %
3065 24-03-2020 06:50:18 -4.4 C 38 %
3066 24-03-2020 07:00:18 -4.5 C 39 %
3067 24-03-2020 07:10:18 -4.4 C 39 %
3068 24-03-2020 07:20:18 -4.3 C 39 %
3069 24-03-2020 07:30:18 -4.2 C 39 %
3070 24-03-2020 07:40:18 -4 C 39 %
3071 24-03-2020 07:50:17 -3.8 C 39 %
3072 24-03-2020 08:00:17 -3.7 C 39 %
3073 24-03-2020 08:10:17 -3.5 C 38 %
3074 24-03-2020 08:20:17 -3.3 C 38 %
3075 24-03-2020 08:30:17 -2.5 C 38 %
Sensor: Nr:Datum:Temp:Feuchte:
Aussen-T/F 3076 24-03-2020 08:40:17 -2.4 C 37 %
3077 24-03-2020 08:50:17 -2 C 37 %
3078 24-03-2020 09:00:17 -1.6 C 36 %
3079 24-03-2020 09:10:17 -0.7 C 35 %
3080 24-03-2020 09:20:17 -0.2 C 34 %
3081 24-03-2020 09:30:17 0.4 C 30 %
3082 24-03-2020 09:40:17 1 C 27 %
3083 24-03-2020 09:50:18 1.7 C 23 %
3084 24-03-2020 10:00:18 3 C 20 %
3085 24-03-2020 10:10:18 3.3 C 20 %
3086 24-03-2020 10:20:17 3.9 C 20 %
3087 24-03-2020 10:30:17 4.3 C 20 %
3088 24-03-2020 10:40:17 4.7 C 20 %
3089 24-03-2020 10:50:17 5.7 C 20 %
3090 24-03-2020 11:00:18 5.7 C 20 %
3091 24-03-2020 11:10:18 6.4 C 20 %
3092 24-03-2020 11:20:17 6.9 C 20 %
3093 24-03-2020 11:30:17 7.9 C 20 %
3094 24-03-2020 11:40:17 7.2 C 20 %
3095 24-03-2020 11:50:18 6.8 C 20 %
3096 24-03-2020 12:00:18 7.8 C 20 %
3097 24-03-2020 12:10:18 8.6 C 20 %
3098 24-03-2020 12:20:17 8.2 C 20 %
3099 24-03-2020 12:30:17 8.2 C 20 %
3100 24-03-2020 12:40:17 9 C 20 %
Sensor: Nr:Datum:Temp:Feuchte:
Aussen-T/F 3101 24-03-2020 12:50:17 9.2 C 20 %
3102 24-03-2020 13:00:18 10.4 C 20 %
3103 24-03-2020 13:10:18 11.7 C 20 %
3104 24-03-2020 13:20:17 12.5 C 20 %
3105 24-03-2020 13:30:17 13 C 20 %
3106 24-03-2020 13:40:17 11.9 C 20 %
3107 24-03-2020 13:50:18 11 C 20 %
3108 24-03-2020 14:00:17 10.8 C 20 %
3109 24-03-2020 14:10:17 11.3 C 20 %
3110 24-03-2020 14:20:17 13.7 C 20 %
3111 24-03-2020 14:30:17 12.2 C 20 %
3112 24-03-2020 14:40:17 14.4 C 20 %
3113 24-03-2020 14:50:18 13.4 C 20 %
3114 24-03-2020 15:00:18 13.5 C 20 %
3115 24-03-2020 15:10:18 14.1 C 20 %
3116 24-03-2020 15:20:18 15.3 C 20 %
3117 24-03-2020 15:30:18 14.1 C 20 %
3118 24-03-2020 15:40:18 15.4 C 20 %
3119 24-03-2020 15:50:18 14.9 C 20 %
3120 24-03-2020 16:00:18 14.8 C 20 %
3121 24-03-2020 16:10:18 14.8 C 20 %
3122 24-03-2020 16:20:18 14.1 C 20 %
3123 24-03-2020 16:30:18 13.6 C 20 %
3124 24-03-2020 16:40:18 14.3 C 20 %
3125 24-03-2020 16:50:18 11.4 C 20 %
Sensor: Nr:Datum:Temp:Feuchte:
Aussen-T/F 3126 24-03-2020 17:00:18 10.8 C 20 %
3127 24-03-2020 17:10:18 10.4 C 20 %
3128 24-03-2020 17:20:18 10.1 C 20 %
3129 24-03-2020 17:30:18 9.9 C 20 %
3130 24-03-2020 17:40:18 9.6 C 20 %
3131 24-03-2020 17:50:17 9.3 C 20 %
3132 24-03-2020 18:00:17 9 C 20 %
3133 24-03-2020 18:10:17 8.6 C 20 %
3134 24-03-2020 18:20:17 8.4 C 20 %
3135 24-03-2020 18:30:17 7.6 C 20 %
3136 24-03-2020 18:40:18 6.4 C 20 %
3137 24-03-2020 18:50:17 5.4 C 20 %
3138 24-03-2020 19:00:18 4.9 C 20 %
3139 24-03-2020 19:10:18 4.6 C 20 %
3140 24-03-2020 19:20:18 4.5 C 20 %
3141 24-03-2020 19:30:18 4.1 C 20 %
3142 24-03-2020 19:40:18 3.9 C 20 %
3143 24-03-2020 19:50:17 3.6 C 20 %
3144 24-03-2020 20:00:18 3.6 C 20 %
3145 24-03-2020 20:10:18 3.5 C 20 %
3146 24-03-2020 20:20:17 3.4 C 20 %
3147 24-03-2020 20:30:18 3.4 C 20 %
3148 24-03-2020 20:40:18 2.9 C 20 %
3149 24-03-2020 20:50:18 2.7 C 20 %
3150 24-03-2020 21:00:18 2.7 C 20 %
Sensor: Nr:Datum:Temp:Feuchte:
Aussen-T/F 3151 24-03-2020 21:10:18 2.6 C 20 %
3152 24-03-2020 21:20:17 2.3 C 20 %
3153 24-03-2020 21:30:17 2.3 C 20 %
3154 24-03-2020 21:40:17 2.2 C 20 %
3155 24-03-2020 21:50:17 2.2 C 20 %
3156 24-03-2020 22:00:18 1.7 C 20 %
3157 24-03-2020 22:10:18 1.6 C 20 %
3158 24-03-2020 22:20:17 1.6 C 20 %
3159 24-03-2020 22:30:18 0.3 C 25 %
3160 24-03-2020 22:40:18 -0.2 C 30 %
3161 24-03-2020 22:50:17 -0.7 C 30 %
3162 24-03-2020 23:00:18 -1.2 C 32 %
3163 24-03-2020 23:10:18 -1.1 C 31 %
3164 24-03-2020 23:20:17 -1.4 C 31 %
3165 24-03-2020 23:30:18 -1.7 C 30 %
3166 24-03-2020 23:40:18 -0.9 C 30 %
3167 24-03-2020 23:50:18 -1.2 C 30 %
3168 25-03-2020 00:00:17 -1.6 C 30 %
3169 25-03-2020 00:10:17 -1.6 C 31 %
3170 25-03-2020 00:20:17 -1.8 C 32 %
3171 25-03-2020 00:30:17 -1.8 C 30 %
3172 25-03-2020 00:40:18 -1.9 C 31 %
3173 25-03-2020 00:50:17 -1.8 C 32 %
3174 25-03-2020 01:00:17 -1.6 C 32 %
3175 25-03-2020 01:10:18 -1.3 C 31 %
Sensor: Nr:Datum:Temp:Feuchte:
Aussen-T/F 3176 25-03-2020 01:20:17 -1.1 C 30 %
3177 25-03-2020 01:30:18 -1.1 C 29 %
3178 25-03-2020 01:40:18 -0.9 C 28 %
3179 25-03-2020 01:50:17 -1.1 C 28 %
3180 25-03-2020 02:00:17 -1.1 C 28 %
3181 25-03-2020 02:10:18 -1.3 C 27 %
3182 25-03-2020 02:20:18 -1.4 C 29 %
3183 25-03-2020 02:30:18 -1.6 C 27 %
3184 25-03-2020 02:40:18 -1.5 C 27 %
3185 25-03-2020 02:50:18 -1.4 C 27 %
3186 25-03-2020 03:00:18 -1.4 C 26 %
3187 25-03-2020 03:10:18 -1.4 C 26 %
3188 25-03-2020 03:20:17 -1.5 C 27 %
3189 25-03-2020 03:30:17 -2.3 C 30 %
3190 25-03-2020 03:40:17 -2.6 C 31 %
3191 25-03-2020 03:50:17 -2.8 C 32 %
3192 25-03-2020 04:00:17 -3.1 C 33 %
3193 25-03-2020 04:10:17 -3.2 C 34 %
3194 25-03-2020 04:20:17 -3.3 C 34 %
3195 25-03-2020 04:30:18 -3.3 C 34 %
3196 25-03-2020 04:40:18 -3 C 33 %
3197 25-03-2020 04:50:17 -3.2 C 33 %
3198 25-03-2020 05:00:18 -3 C 32 %
3199 25-03-2020 05:10:18 -2.6 C 32 %
3200 25-03-2020 05:20:17 -2.3 C 30 %
Sensor: Nr:Datum:Temp:Feuchte:
Aussen-T/F 3201 25-03-2020 05:30:17 -2.5 C 30 %
3202 25-03-2020 05:40:17 -3.4 C 33 %
3203 25-03-2020 05:50:17 -4 C 35 %
3204 25-03-2020 06:00:17 -4.4 C 36 %
3205 25-03-2020 06:10:17 -4.2 C 36 %
3206 25-03-2020 06:20:17 -4.2 C 36 %
3207 25-03-2020 06:30:17 -4.4 C 36 %
3208 25-03-2020 06:40:17 -4.3 C 36 %
3209 25-03-2020 06:50:17 -4.3 C 36 %
3210 25-03-2020 07:00:17 -4.3 C 37 %
3211 25-03-2020 07:10:17 -4.3 C 37 %
3212 25-03-2020 07:20:17 -4.1 C 37 %
3213 25-03-2020 07:30:17 -4 C 37 %
3214 25-03-2020 07:40:17 -3.8 C 37 %
3215 25-03-2020 07:50:17 -3.2 C 36 %
3216 25-03-2020 08:00:17 -2.6 C 35 %
3217 25-03-2020 08:10:17 -2 C 32 %
3218 25-03-2020 08:20:17 -2.7 C 35 %
3219 25-03-2020 08:30:17 -2 C 34 %
3220 25-03-2020 08:40:17 -1.9 C 34 %
3221 25-03-2020 08:50:17 -1.6 C 34 %
3222 25-03-2020 09:00:17 -1.5 C 34 %
3223 25-03-2020 09:10:17 -1.3 C 35 %
3224 25-03-2020 09:20:17 -1 C 35 %
3225 25-03-2020 09:30:17 -0.2 C 32 %
Sensor: Nr:Datum:Temp:Feuchte:
Aussen-T/F 3226 25-03-2020 09:40:18 0.7 C 29 %
3227 25-03-2020 09:50:17 2.1 C 20 %
3228 25-03-2020 10:00:18 2.8 C 20 %
3229 25-03-2020 10:10:18 3.2 C 20 %
3230 25-03-2020 10:20:17 3.6 C 20 %
3231 25-03-2020 10:30:17 4.1 C 20 %
3232 25-03-2020 10:40:17 4.7 C 20 %
3233 25-03-2020 10:50:17 5.1 C 20 %
3234 25-03-2020 11:00:17 5.3 C 20 %
3235 25-03-2020 11:10:17 5.7 C 20 %
3236 25-03-2020 11:20:17 7.2 C 20 %
3237 25-03-2020 11:30:18 7.7 C 20 %
3238 25-03-2020 11:40:18 7.3 C 20 %
3239 25-03-2020 11:50:17 6.8 C 20 %
3240 25-03-2020 12:00:17 7.8 C 20 %
3241 25-03-2020 12:10:17 8.3 C 20 %
3242 25-03-2020 12:20:17 8.4 C 20 %
3243 25-03-2020 12:30:17 8.4 C 20 %
3244 25-03-2020 12:40:17 8.6 C 20 %
3245 25-03-2020 12:50:17 10.3 C 20 %
3246 25-03-2020 13:00:17 11.2 C 20 %
3247 25-03-2020 13:10:17 12.2 C 20 %
3248 25-03-2020 13:20:18 13.8 C 20 %
3249 25-03-2020 13:30:18 14.5 C 20 %
3250 25-03-2020 13:40:18 12.4 C 20 %
Sensor: Nr:Datum:Temp:Feuchte:
Aussen-T/F 3251 25-03-2020 13:50:18 12 C 20 %
3252 25-03-2020 14:00:18 11.3 C 20 %
3253 25-03-2020 14:10:18 11.1 C 20 %
3254 25-03-2020 14:20:17 13.2 C 20 %
3255 25-03-2020 14:30:17 13.5 C 20 %
3256 25-03-2020 14:40:17 12.7 C 20 %
3257 25-03-2020 14:50:17 13.5 C 20 %
3258 25-03-2020 15:00:17 13.8 C 20 %
3259 25-03-2020 15:10:17 14.1 C 20 %
3260 25-03-2020 15:20:18 14.9 C 20 %
3261 25-03-2020 15:30:18 14.4 C 20 %
3262 25-03-2020 15:40:18 14.4 C 20 %
3263 25-03-2020 15:50:17 15 C 20 %
3264 25-03-2020 16:00:18 15.3 C 20 %
3265 25-03-2020 16:10:18 14.5 C 20 %
3266 25-03-2020 16:20:17 15.7 C 20 %
3267 25-03-2020 16:30:17 13.8 C 20 %
3268 25-03-2020 16:40:17 12.9 C 20 %
3269 25-03-2020 16:50:18 12.2 C 20 %
3270 25-03-2020 17:00:18 11.9 C 20 %
3271 25-03-2020 17:10:18 11.5 C 20 %
3272 25-03-2020 17:20:17 11.1 C 20 %
3273 25-03-2020 17:30:17 11 C 20 %
3274 25-03-2020 17:40:17 10.7 C 20 %
3275 25-03-2020 17:50:17 10.5 C 20 %
Sensor: Nr:Datum:Temp:Feuchte:
Aussen-T/F 3276 25-03-2020 18:00:18 10.5 C 20 %
3277 25-03-2020 18:10:18 10.1 C 20 %
3278 25-03-2020 18:20:17 9.6 C 20 %
3279 25-03-2020 18:30:18 8.8 C 20 %
3280 25-03-2020 18:40:18 7.7 C 20 %
3281 25-03-2020 18:50:18 7 C 20 %
3282 25-03-2020 19:00:18 6.3 C 20 %
3283 25-03-2020 19:10:18 6.1 C 20 %
3284 25-03-2020 19:20:17 5.4 C 20 %
3285 25-03-2020 19:30:18 5.8 C 20 %
3286 25-03-2020 19:40:18 5.1 C 20 %
3287 25-03-2020 19:50:17 4.6 C 20 %
3288 25-03-2020 20:00:17 4.5 C 20 %
3289 25-03-2020 20:10:17 4.1 C 20 %
3290 25-03-2020 20:20:17 4 C 20 %
3291 25-03-2020 20:30:18 4.7 C 20 %
3292 25-03-2020 20:40:18 4.3 C 20 %
3293 25-03-2020 20:50:17 3.8 C 20 %
3294 25-03-2020 21:00:18 4.6 C 20 %
3295 25-03-2020 21:10:18 4.6 C 20 %
3296 25-03-2020 21:20:17 4.3 C 20 %
3297 25-03-2020 21:30:17 4.3 C 20 %
3298 25-03-2020 21:40:17 4 C 20 %
3299 25-03-2020 21:50:17 3.6 C 20 %
3300 25-03-2020 22:00:17 2.8 C 20 %
Sensor: Nr:Datum:Temp:Feuchte:
Aussen-T/F 3301 25-03-2020 22:10:17 2.6 C 20 %
3302 25-03-2020 22:20:17 2.6 C 20 %
3303 25-03-2020 22:30:18 2.1 C 20 %
3304 25-03-2020 22:40:18 2.3 C 20 %
3305 25-03-2020 22:50:18 2.1 C 20 %
3306 25-03-2020 23:00:18 1.7 C 20 %
3307 25-03-2020 23:10:18 1.7 C 23 %
3308 25-03-2020 23:20:17 1.6 C 23 %
3309 25-03-2020 23:30:18 1.5 C 21 %
3310 25-03-2020 23:40:18 1.8 C 20 %
3311 25-03-2020 23:50:18 1.8 C 20 %
3312 26-03-2020 00:00:18 1.4 C 21 %
3313 26-03-2020 00:10:18 1.2 C 21 %
3314 26-03-2020 00:20:18 1.3 C 21 %
3315 26-03-2020 00:30:18 0.9 C 23 %
3316 26-03-2020 00:40:18 0.9 C 25 %
3317 26-03-2020 00:50:18 1 C 23 %
3318 26-03-2020 01:00:18 0.7 C 25 %
3319 26-03-2020 01:10:18 0.4 C 25 %
3320 26-03-2020 01:20:17 0.5 C 25 %
3321 26-03-2020 01:30:17 0.7 C 25 %
3322 26-03-2020 01:40:17 0.7 C 23 %
3323 26-03-2020 01:50:17 0.7 C 21 %
3324 26-03-2020 02:00:17 0.6 C 23 %
3325 26-03-2020 02:10:17 0.7 C 21 %
Sensor: Nr:Datum:Temp:Feuchte:
Aussen-T/F 3326 26-03-2020 02:20:17 0.7 C 21 %
3327 26-03-2020 02:30:17 0.6 C 21 %
3328 26-03-2020 02:40:18 0.4 C 21 %
3329 26-03-2020 02:50:17 0.3 C 23 %
3330 26-03-2020 03:00:17 0 C 23 %
3331 26-03-2020 03:10:18 0.1 C 23 %
3332 26-03-2020 03:20:18 0 C 23 %
3333 26-03-2020 03:30:18 -0.3 C 25 %
3334 26-03-2020 03:40:18 -0.3 C 27 %
3335 26-03-2020 03:50:17 -0.4 C 27 %
3336 26-03-2020 04:00:17 -0.1 C 26 %
3337 26-03-2020 04:10:17 -0.3 C 25 %
3338 26-03-2020 04:20:17 -0.3 C 26 %
3339 26-03-2020 04:30:18 -0.4 C 26 %
3340 26-03-2020 04:40:18 -0.4 C 26 %
3341 26-03-2020 04:50:17 -0.5 C 26 %
3342 26-03-2020 05:00:18 -0.5 C 27 %
3343 26-03-2020 05:10:18 -0.6 C 27 %
3344 26-03-2020 05:20:17 -0.6 C 28 %
3345 26-03-2020 05:30:17 -0.7 C 28 %
3346 26-03-2020 05:40:18 -0.5 C 28 %
3347 26-03-2020 05:50:17 -0.6 C 28 %
3348 26-03-2020 06:00:18 -0.7 C 29 %
3349 26-03-2020 06:10:18 -0.8 C 28 %
3350 26-03-2020 06:20:18 -0.9 C 28 %
Sensor: Nr:Datum:Temp:Feuchte:
Aussen-T/F 3351 26-03-2020 06:30:18 -1 C 28 %
3352 26-03-2020 06:40:18 -0.9 C 30 %
3353 26-03-2020 06:50:18 -1.1 C 30 %
3354 26-03-2020 07:00:18 -0.8 C 30 %
3355 26-03-2020 07:10:18 -1.1 C 30 %
3356 26-03-2020 07:20:18 -0.6 C 30 %
3357 26-03-2020 07:30:18 -0.4 C 30 %
3358 26-03-2020 07:40:18 0.2 C 27 %
3359 26-03-2020 07:50:17 0.5 C 25 %
3360 26-03-2020 08:00:18 0.3 C 28 %
3361 26-03-2020 08:10:18 0.4 C 28 %
3362 26-03-2020 08:20:18 0.7 C 26 %
3363 26-03-2020 08:30:18 1.4 C 21 %
3364 26-03-2020 08:40:18 1.7 C 21 %
3365 26-03-2020 08:50:17 2.2 C 20 %
3366 26-03-2020 09:00:18 2.3 C 20 %
3367 26-03-2020 09:10:18 2.3 C 20 %
3368 26-03-2020 09:20:18 2.7 C 20 %
3369 26-03-2020 09:30:18 3.2 C 20 %
3370 26-03-2020 09:40:18 3.5 C 20 %
3371 26-03-2020 09:50:18 4.1 C 20 %
3372 26-03-2020 10:00:18 4.4 C 20 %
3373 26-03-2020 10:10:18 4.9 C 20 %
3374 26-03-2020 10:20:18 5 C 20 %
3375 26-03-2020 10:30:18 5.4 C 20 %
Sensor: Nr:Datum:Temp:Feuchte:
Aussen-T/F 3376 26-03-2020 10:40:18 5.9 C 20 %
3377 26-03-2020 10:50:17 6 C 20 %
3378 26-03-2020 11:00:18 6.6 C 20 %
3379 26-03-2020 11:10:18 6.9 C 20 %
3380 26-03-2020 11:20:18 7.3 C 20 %
3381 26-03-2020 11:30:18 8.5 C 20 %
3382 26-03-2020 11:40:18 8.3 C 20 %
3383 26-03-2020 11:50:18 7.3 C 20 %
3384 26-03-2020 12:00:18 8 C 20 %
3385 26-03-2020 12:10:18 9.1 C 20 %
3386 26-03-2020 12:20:17 9.6 C 20 %
3387 26-03-2020 12:30:17 9.6 C 20 %
3388 26-03-2020 12:40:17 9.6 C 20 %
3389 26-03-2020 12:50:17 9.7 C 20 %
3390 26-03-2020 13:00:17 10.4 C 20 %
3391 26-03-2020 13:10:17 10.8 C 20 %
3392 26-03-2020 13:20:18 11.5 C 20 %
3393 26-03-2020 13:30:18 11.5 C 20 %
3394 26-03-2020 13:40:18 12.1 C 20 %
3395 26-03-2020 13:50:18 13 C 20 %
3396 26-03-2020 14:00:18 12 C 20 %
3397 26-03-2020 14:10:18 12.2 C 20 %
3398 26-03-2020 14:20:18 11.9 C 20 %
3399 26-03-2020 14:30:18 14.3 C 20 %
3400 26-03-2020 14:40:18 14.2 C 20 %
Sensor: Nr:Datum:Temp:Feuchte:
Aussen-T/F 3401 26-03-2020 14:50:17 14 C 20 %
3402 26-03-2020 15:00:17 15.3 C 20 %
3403 26-03-2020 15:10:18 14.2 C 20 %
3404 26-03-2020 15:20:18 14 C 20 %
3405 26-03-2020 15:30:18 15.6 C 20 %
3406 26-03-2020 15:40:18 15.6 C 20 %
3407 26-03-2020 15:50:18 16.5 C 20 %
3408 26-03-2020 16:00:18 15.6 C 20 %
3409 26-03-2020 16:10:18 15.3 C 20 %
3410 26-03-2020 16:20:18 12.5 C 20 %
3411 26-03-2020 16:30:18 12.3 C 20 %
3412 26-03-2020 16:40:18 13.9 C 20 %
3413 26-03-2020 16:50:18 12.8 C 20 %
3414 26-03-2020 17:00:18 11.4 C 20 %
3415 26-03-2020 17:10:18 11 C 20 %
3416 26-03-2020 17:20:17 10.9 C 20 %
3417 26-03-2020 17:30:17 11 C 20 %
3418 26-03-2020 17:40:17 11.1 C 20 %
3419 26-03-2020 17:50:17 10.7 C 20 %
3420 26-03-2020 18:00:17 10.5 C 20 %
3421 26-03-2020 18:10:17 10.3 C 20 %
3422 26-03-2020 18:20:18 10.1 C 20 %
3423 26-03-2020 18:30:18 9.8 C 20 %
3424 26-03-2020 18:40:18 9.4 C 20 %
3425 26-03-2020 18:50:17 8.6 C 20 %
Sensor: Nr:Datum:Temp:Feuchte:
Aussen-T/F 3426 26-03-2020 19:00:17 8 C 20 %
3427 26-03-2020 19:10:17 7.4 C 20 %
3428 26-03-2020 19:20:17 6.9 C 21 %
3429 26-03-2020 19:30:17 6.7 C 21 %
3430 26-03-2020 19:40:17 6.4 C 21 %
3431 26-03-2020 19:50:17 6.5 C 21 %
3432 26-03-2020 20:00:17 6.2 C 23 %
3433 26-03-2020 20:10:18 6 C 23 %
3434 26-03-2020 20:20:18 5.7 C 25 %
3435 26-03-2020 20:30:17 5.4 C 26 %
3436 26-03-2020 20:40:17 4.9 C 28 %
3437 26-03-2020 20:50:17 4.9 C 28 %
3438 26-03-2020 21:00:17 4.7 C 29 %
3439 26-03-2020 21:10:17 4.5 C 29 %
3440 26-03-2020 21:20:17 4.5 C 30 %
3441 26-03-2020 21:30:18 4.1 C 30 %
3442 26-03-2020 21:40:18 4.6 C 30 %
3443 26-03-2020 21:50:18 4.6 C 30 %
3444 26-03-2020 22:00:18 4.6 C 30 %
3445 26-03-2020 22:10:18 4.6 C 30 %
3446 26-03-2020 22:20:17 4.5 C 30 %
3447 26-03-2020 22:30:17 4.5 C 30 %
3448 26-03-2020 22:40:17 4.5 C 30 %
3449 26-03-2020 22:50:17 4.4 C 30 %
3450 26-03-2020 23:00:18 4.5 C 30 %
Sensor: Nr:Datum:Temp:Feuchte:
Aussen-T/F 3451 26-03-2020 23:10:18 4.2 C 30 %
3452 26-03-2020 23:20:17 4.2 C 30 %
3453 26-03-2020 23:30:18 3.9 C 31 %
3454 26-03-2020 23:40:18 4 C 30 %
3455 26-03-2020 23:50:18 3.9 C 31 %
3456 27-03-2020 00:00:18 4 C 30 %
3457 27-03-2020 00:10:18 3.9 C 31 %
3458 27-03-2020 00:20:17 4 C 30 %
3459 27-03-2020 00:30:17 4 C 30 %
3460 27-03-2020 00:40:17 3.7 C 32 %
3461 27-03-2020 00:50:18 3.6 C 32 %
3462 27-03-2020 01:00:18 2.7 C 35 %
3463 27-03-2020 01:10:18 2.5 C 36 %
3464 27-03-2020 01:20:17 3 C 35 %
3465 27-03-2020 01:30:18 3.1 C 35 %
3466 27-03-2020 01:40:18 2.7 C 36 %
3467 27-03-2020 01:50:18 3 C 35 %
3468 27-03-2020 02:00:18 2.9 C 35 %
3469 27-03-2020 02:10:18 2.8 C 35 %
3470 27-03-2020 02:20:17 2.7 C 35 %
3471 27-03-2020 02:30:17 2.5 C 36 %
3472 27-03-2020 02:40:17 2.5 C 36 %
3473 27-03-2020 02:50:17 2.6 C 35 %
3474 27-03-2020 03:00:17 2.6 C 35 %
3475 27-03-2020 03:10:17 2.2 C 36 %
Sensor: Nr:Datum:Temp:Feuchte:
Aussen-T/F 3476 27-03-2020 03:20:17 2.5 C 35 %
3477 27-03-2020 03:30:17 2.4 C 35 %
3478 27-03-2020 03:40:17 2.6 C 35 %
3479 27-03-2020 03:50:17 2.4 C 36 %
3480 27-03-2020 04:00:18 2.4 C 35 %
3481 27-03-2020 04:10:18 2.4 C 35 %
3482 27-03-2020 04:20:18 1.4 C 38 %
3483 27-03-2020 04:30:18 1.3 C 38 %
3484 27-03-2020 04:40:18 1.6 C 38 %
3485 27-03-2020 04:50:17 1.8 C 37 %
3486 27-03-2020 05:00:18 1.5 C 38 %
3487 27-03-2020 05:10:18 0.7 C 40 %
3488 27-03-2020 05:20:18 0.4 C 40 %
3489 27-03-2020 05:30:18 0 C 41 %
3490 27-03-2020 05:40:18 0 C 42 %
3491 27-03-2020 05:50:18 -0.1 C 42 %
3492 27-03-2020 06:00:18 -0.5 C 42 %
3493 27-03-2020 06:10:18 -0.6 C 43 %
3494 27-03-2020 06:20:18 -0.4 C 43 %
3495 27-03-2020 06:30:18 -0.4 C 43 %
3496 27-03-2020 06:40:18 -0.3 C 43 %
3497 27-03-2020 06:50:17 -0.3 C 43 %
3498 27-03-2020 07:00:18 -0.2 C 43 %
3499 27-03-2020 07:10:18 -0.1 C 43 %
3500 27-03-2020 07:20:18 0.1 C 43 %
Sensor: Nr:Datum:Temp:Feuchte:
Aussen-T/F 3501 27-03-2020 07:30:18 0.3 C 43 %
3502 27-03-2020 07:40:18 0.8 C 43 %
3503 27-03-2020 07:50:17 1.2 C 41 %
3504 27-03-2020 08:00:17 1.1 C 41 %
3505 27-03-2020 08:10:18 1.9 C 40 %
3506 27-03-2020 08:20:18 1.7 C 40 %
3507 27-03-2020 08:30:18 1.6 C 41 %
3508 27-03-2020 08:40:18 1.9 C 41 %
3509 27-03-2020 08:50:17 2.6 C 39 %
3510 27-03-2020 09:00:18 3 C 38 %
3511 27-03-2020 09:10:18 3.3 C 37 %
3512 27-03-2020 09:20:17 3.6 C 37 %
3513 27-03-2020 09:30:18 4.1 C 36 %
3514 27-03-2020 09:40:18 4.5 C 35 %
3515 27-03-2020 09:50:18 5.3 C 35 %
3516 27-03-2020 10:00:18 5.8 C 34 %
3517 27-03-2020 10:10:18 6.5 C 32 %
3518 27-03-2020 10:20:17 7.6 C 30 %
3519 27-03-2020 10:30:17 8.1 C 28 %
3520 27-03-2020 10:40:17 9.1 C 25 %
3521 27-03-2020 10:50:17 9.3 C 25 %
3522 27-03-2020 11:00:17 10.2 C 20 %
3523 27-03-2020 11:10:17 11 C 20 %
3524 27-03-2020 11:20:17 12.4 C 20 %
3525 27-03-2020 11:30:17 14.5 C 20 %
Sensor: Nr:Datum:Temp:Feuchte:
Aussen-T/F 3526 27-03-2020 11:40:17 14.2 C 20 %
3527 27-03-2020 11:50:17 12.5 C 20 %
3528 27-03-2020 12:00:17 13.4 C 20 %
3529 27-03-2020 12:10:17 13.7 C 20 %
3530 27-03-2020 12:20:17 14.4 C 20 %
3531 27-03-2020 12:30:17 14.1 C 20 %
3532 27-03-2020 12:40:18 14.2 C 20 %
3533 27-03-2020 12:50:18 14.6 C 20 %
3534 27-03-2020 13:00:18 16.6 C 20 %
3535 27-03-2020 13:10:18 15.8 C 20 %
3536 27-03-2020 13:20:17 17.6 C 20 %
3537 27-03-2020 13:30:18 18.8 C 20 %
3538 27-03-2020 13:40:18 16.8 C 20 %
3539 27-03-2020 13:50:18 17.3 C 20 %
3540 27-03-2020 14:00:18 16.9 C 20 %
3541 27-03-2020 14:10:18 17.6 C 20 %
3542 27-03-2020 14:20:18 17.7 C 20 %
3543 27-03-2020 14:30:17 20.4 C 20 %
3544 27-03-2020 14:40:17 18.1 C 20 %
3545 27-03-2020 14:50:17 18.4 C 20 %
3546 27-03-2020 15:00:17 18.5 C 20 %
3547 27-03-2020 15:10:17 18.7 C 20 %
3548 27-03-2020 15:20:17 18.9 C 20 %
3549 27-03-2020 15:30:18 19.4 C 20 %
3550 27-03-2020 15:40:18 18.3 C 20 %
Sensor: Nr:Datum:Temp:Feuchte:
Aussen-T/F 3551 27-03-2020 15:50:17 19.5 C 20 %
3552 27-03-2020 16:00:17 18.5 C 20 %
3553 27-03-2020 16:10:17 18.2 C 20 %
3554 27-03-2020 16:20:17 19.2 C 20 %
3555 27-03-2020 16:30:17 18.3 C 20 %
3556 27-03-2020 16:40:17 18 C 20 %
3557 27-03-2020 16:50:17 17 C 20 %
3558 27-03-2020 17:00:18 16.4 C 20 %
3559 27-03-2020 17:10:18 16.3 C 20 %
3560 27-03-2020 17:20:18 16.1 C 20 %
3561 27-03-2020 17:30:18 16 C 20 %
3562 27-03-2020 17:40:18 15.8 C 20 %
3563 27-03-2020 17:50:18 15.7 C 20 %
3564 27-03-2020 18:00:17 15.4 C 20 %
3565 27-03-2020 18:10:17 15 C 20 %
3566 27-03-2020 18:20:17 14.1 C 20 %
3567 27-03-2020 18:30:18 13.5 C 20 %
3568 27-03-2020 18:40:18 12.9 C 20 %
3569 27-03-2020 18:50:18 12.3 C 20 %
3570 27-03-2020 19:00:18 11.8 C 20 %
3571 27-03-2020 19:10:18 11.5 C 20 %
3572 27-03-2020 19:20:17 11.4 C 20 %
3573 27-03-2020 19:30:17 10.7 C 20 %
3574 27-03-2020 19:40:17 10.7 C 21 %
3575 27-03-2020 19:50:17 10.4 C 23 %
Sensor: Nr:Datum:Temp:Feuchte:
Aussen-T/F 3576 27-03-2020 20:00:18 10.4 C 22 %
3577 27-03-2020 20:10:18 9.2 C 26 %
3578 27-03-2020 20:20:17 8.9 C 28 %
3579 27-03-2020 20:30:17 8.4 C 30 %
3580 27-03-2020 20:40:17 8.1 C 30 %
3581 27-03-2020 20:50:18 7.8 C 31 %
3582 27-03-2020 21:00:17 7.4 C 31 %
3583 27-03-2020 21:10:17 7.3 C 32 %
3584 27-03-2020 21:20:17 7.1 C 32 %
3585 27-03-2020 21:30:17 7 C 32 %
3586 27-03-2020 21:40:17 6.6 C 33 %
3587 27-03-2020 21:50:17 6.6 C 34 %
3588 27-03-2020 22:00:17 6.4 C 34 %
3589 27-03-2020 22:10:17 6.3 C 34 %
3590 27-03-2020 22:20:17 6 C 35 %
3591 27-03-2020 22:30:18 5.8 C 35 %
3592 27-03-2020 22:40:18 5.6 C 35 %
3593 27-03-2020 22:50:18 5.5 C 36 %
3594 27-03-2020 23:00:18 5.6 C 36 %
3595 27-03-2020 23:10:18 5.6 C 36 %
3596 27-03-2020 23:20:17 5.3 C 36 %
3597 27-03-2020 23:30:17 5.2 C 36 %
3598 27-03-2020 23:40:17 5.1 C 36 %
3599 27-03-2020 23:50:17 4.8 C 37 %
3600 28-03-2020 00:00:17 4.8 C 38 %
Sensor: Nr:Datum:Temp:Feuchte:
Aussen-T/F 3601 28-03-2020 00:10:17 4.8 C 39 %
3602 28-03-2020 00:20:17 5 C 37 %
3603 28-03-2020 00:30:18 4.9 C 38 %
3604 28-03-2020 00:40:18 4.7 C 38 %
3605 28-03-2020 00:50:17 4.7 C 38 %
3606 28-03-2020 01:00:17 4.6 C 38 %
3607 28-03-2020 01:10:17 4.4 C 39 %
3608 28-03-2020 01:20:17 4.3 C 39 %
3609 28-03-2020 01:30:17 4.1 C 39 %
3610 28-03-2020 01:40:18 3.9 C 40 %
3611 28-03-2020 01:50:17 3.7 C 41 %
3612 28-03-2020 02:00:18 3.6 C 41 %
3613 28-03-2020 02:10:18 3.3 C 41 %
3614 28-03-2020 02:20:18 3.1 C 41 %
3615 28-03-2020 02:30:17 3.7 C 42 %
3616 28-03-2020 02:40:17 3.7 C 41 %
3617 28-03-2020 02:50:18 3.4 C 41 %
3618 28-03-2020 03:00:18 3.1 C 41 %
3619 28-03-2020 03:10:18 2.9 C 42 %
3620 28-03-2020 03:20:17 2.8 C 43 %
3621 28-03-2020 03:30:18 2.6 C 43 %
3622 28-03-2020 03:40:18 2.1 C 43 %
3623 28-03-2020 03:50:17 2.1 C 44 %
3624 28-03-2020 04:00:18 2.2 C 44 %
3625 28-03-2020 04:10:18 2.1 C 44 %
Sensor: Nr:Datum:Temp:Feuchte:
Aussen-T/F 3626 28-03-2020 04:20:18 1.9 C 45 %
3627 28-03-2020 04:30:18 1.7 C 45 %
3628 28-03-2020 04:40:18 1.8 C 46 %
3629 28-03-2020 04:50:17 1.8 C 46 %
3630 28-03-2020 05:00:18 1.7 C 45 %
3631 28-03-2020 05:10:18 1.6 C 45 %
3632 28-03-2020 05:20:17 1.5 C 45 %
3633 28-03-2020 05:30:18 1.3 C 46 %
3634 28-03-2020 05:40:18 1.2 C 46 %
3635 28-03-2020 05:50:18 1.2 C 46 %
3636 28-03-2020 06:00:18 1.2 C 46 %
3637 28-03-2020 06:10:18 1.3 C 46 %
3638 28-03-2020 06:20:17 1.1 C 46 %
3639 28-03-2020 06:30:17 1.1 C 46 %
3640 28-03-2020 06:40:17 1 C 46 %
3641 28-03-2020 06:50:17 1.2 C 47 %
3642 28-03-2020 07:00:17 1.5 C 47 %
3643 28-03-2020 07:10:17 1.7 C 47 %
3644 28-03-2020 07:20:17 1.9 C 47 %
3645 28-03-2020 07:30:18 1.9 C 46 %
3646 28-03-2020 07:40:18 1.9 C 46 %
3647 28-03-2020 07:50:17 2 C 45 %
3648 28-03-2020 08:00:17 2.2 C 45 %
3649 28-03-2020 08:10:18 2.5 C 45 %
3650 28-03-2020 08:20:18 2.8 C 46 %
Sensor: Nr:Datum:Temp:Feuchte:
Aussen-T/F 3651 28-03-2020 08:30:17 3.2 C 45 %
3652 28-03-2020 08:40:17 3.7 C 44 %
3653 28-03-2020 08:50:18 4 C 43 %
3654 28-03-2020 09:00:18 4.6 C 43 %
3655 28-03-2020 09:10:18 5.1 C 41 %
3656 28-03-2020 09:20:17 5.7 C 41 %
3657 28-03-2020 09:30:18 6.3 C 40 %
3658 28-03-2020 09:40:18 6.9 C 40 %
3659 28-03-2020 09:50:18 7.8 C 38 %
3660 28-03-2020 10:00:18 8.4 C 37 %
3661 28-03-2020 10:10:18 9.5 C 35 %
3662 28-03-2020 10:20:17 10.2 C 32 %
3663 28-03-2020 10:30:17 10.9 C 31 %
3664 28-03-2020 10:40:17 11.6 C 30 %
3665 28-03-2020 10:50:18 12.2 C 29 %
3666 28-03-2020 11:00:18 13.4 C 26 %
3667 28-03-2020 11:10:18 13.6 C 25 %
3668 28-03-2020 11:20:17 15.8 C 20 %
3669 28-03-2020 11:30:17 16.7 C 20 %
3670 28-03-2020 11:40:17 16.4 C 20 %
3671 28-03-2020 11:50:18 15.9 C 20 %
3672 28-03-2020 12:00:17 16.6 C 20 %
3673 28-03-2020 12:10:17 17 C 20 %
3674 28-03-2020 12:20:17 17.7 C 20 %
3675 28-03-2020 12:30:17 17.8 C 20 %
Sensor: Nr:Datum:Temp:Feuchte:
Aussen-T/F 3676 28-03-2020 12:40:17 18.1 C 20 %
3677 28-03-2020 12:50:18 18 C 20 %
3678 28-03-2020 13:00:18 18.6 C 20 %
3679 28-03-2020 13:10:18 19.6 C 20 %
3680 28-03-2020 13:20:18 21.7 C 20 %
3681 28-03-2020 13:30:17 21.1 C 20 %
3682 28-03-2020 13:40:17 20.7 C 20 %
3683 28-03-2020 13:50:18 20.6 C 20 %
3684 28-03-2020 14:00:17 21.1 C 20 %
3685 28-03-2020 14:10:17 21.3 C 20 %
3686 28-03-2020 14:20:17 21.9 C 20 %
3687 28-03-2020 14:30:17 23.7 C 20 %
3688 28-03-2020 14:40:17 24.3 C 20 %
3689 28-03-2020 14:50:17 23.2 C 20 %
3690 28-03-2020 15:00:18 22.4 C 20 %
3691 28-03-2020 15:10:18 19.9 C 20 %
3692 28-03-2020 15:20:18 18.6 C 20 %
3693 28-03-2020 15:30:18 19.6 C 20 %
3694 28-03-2020 15:40:18 22.1 C 20 %
3695 28-03-2020 15:50:18 20.5 C 20 %
3696 28-03-2020 16:00:18 21.1 C 20 %
3697 28-03-2020 16:10:18 21.1 C 20 %
3698 28-03-2020 16:20:18 19.9 C 20 %
3699 28-03-2020 16:30:18 19.6 C 20 %
3700 28-03-2020 16:40:18 19.6 C 20 %
Sensor: Nr:Datum:Temp:Feuchte:
Aussen-T/F 3701 28-03-2020 16:50:18 18.5 C 20 %
3702 28-03-2020 17:00:18 17.9 C 20 %
3703 28-03-2020 17:10:18 17 C 20 %
3704 28-03-2020 17:20:18 16.6 C 20 %
3705 28-03-2020 17:30:18 16.2 C 20 %
3706 28-03-2020 17:40:18 16.2 C 20 %
3707 28-03-2020 17:50:17 15.4 C 20 %
3708 28-03-2020 18:00:18 14.9 C 20 %
3709 28-03-2020 18:10:18 14.6 C 20 %
3710 28-03-2020 18:20:17 14 C 20 %
3711 28-03-2020 18:30:17 13.5 C 20 %
3712 28-03-2020 18:40:17 13.1 C 20 %
3713 28-03-2020 18:50:18 12.6 C 20 %
3714 28-03-2020 19:00:18 12.3 C 20 %
3715 28-03-2020 19:10:18 11.7 C 20 %
3716 28-03-2020 19:20:18 11.7 C 20 %
3717 28-03-2020 19:30:18 11.4 C 20 %
3718 28-03-2020 19:40:18 11.2 C 20 %
3719 28-03-2020 19:50:17 10.8 C 20 %
3720 28-03-2020 20:00:18 10.3 C 20 %
3721 28-03-2020 20:10:18 10.7 C 20 %
3722 28-03-2020 20:20:17 10.5 C 20 %
3723 28-03-2020 20:30:18 10 C 20 %
3724 28-03-2020 20:40:18 9.2 C 20 %
3725 28-03-2020 20:50:17 8.7 C 20 %
Sensor: Nr:Datum:Temp:Feuchte:
Aussen-T/F 3726 28-03-2020 21:00:17 8.8 C 20 %
3727 28-03-2020 21:10:17 9.2 C 20 %
3728 28-03-2020 21:20:17 8.7 C 23 %
3729 28-03-2020 21:30:17 8.1 C 25 %
3730 28-03-2020 21:40:17 8.4 C 23 %
3731 28-03-2020 21:50:17 7.6 C 25 %
3732 28-03-2020 22:00:17 8.3 C 25 %
3733 28-03-2020 22:10:17 8.5 C 21 %
3734 28-03-2020 22:20:17 8.4 C 25 %
3735 28-03-2020 22:30:17 8.3 C 26 %
3736 28-03-2020 22:40:17 7.9 C 26 %
3737 28-03-2020 22:50:17 7.4 C 28 %
3738 28-03-2020 23:00:17 7.3 C 30 %
3739 28-03-2020 23:10:17 7.2 C 30 %
3740 28-03-2020 23:20:18 7.1 C 30 %
3741 28-03-2020 23:30:18 7.1 C 31 %
3742 28-03-2020 23:40:18 6.8 C 32 %
3743 28-03-2020 23:50:17 6.7 C 33 %
3744 29-03-2020 00:00:18 6.5 C 33 %
3745 29-03-2020 00:10:18 6.4 C 33 %
3746 29-03-2020 00:20:17 6.2 C 33 %
3747 29-03-2020 00:30:17 6.5 C 33 %
3748 29-03-2020 00:40:17 6.6 C 33 %
3749 29-03-2020 00:50:18 6.5 C 32 %
3750 29-03-2020 01:00:18 6.3 C 32 %
Sensor: Nr:Datum:Temp:Feuchte:
Aussen-T/F 3751 29-03-2020 01:10:18 6.3 C 32 %
3752 29-03-2020 01:20:17 6.2 C 32 %
3753 29-03-2020 01:30:17 6.1 C 32 %
3754 29-03-2020 01:40:17 6 C 31 %
3755 29-03-2020 01:50:17 6 C 31 %
3756 29-03-2020 02:00:17 5.8 C 31 %
3757 29-03-2020 02:10:17 5.7 C 31 %
3758 29-03-2020 02:20:18 5.4 C 31 %
3759 29-03-2020 02:30:18 5 C 31 %
3760 29-03-2020 02:40:18 4.7 C 32 %
3761 29-03-2020 02:50:18 4.7 C 32 %
3762 29-03-2020 04:00:18 4.6 C 31 %
3763 29-03-2020 04:10:18 4.2 C 32 %
3764 29-03-2020 04:20:17 4.1 C 31 %
3765 29-03-2020 04:30:17 4.3 C 31 %
3766 29-03-2020 04:40:17 4.4 C 31 %
3767 29-03-2020 04:50:18 4.3 C 31 %
3768 29-03-2020 05:00:17 4.4 C 32 %
3769 29-03-2020 05:10:17 4.3 C 32 %
3770 29-03-2020 05:20:17 4.2 C 31 %
3771 29-03-2020 05:30:17 4 C 31 %
3772 29-03-2020 05:40:17 3.8 C 32 %
3773 29-03-2020 05:50:18 3.5 C 32 %
3774 29-03-2020 06:00:18 3.1 C 32 %
3775 29-03-2020 06:10:18 2.8 C 33 %
Sensor: Nr:Datum:Temp:Feuchte:
Aussen-T/F 3776 29-03-2020 06:20:17 2.5 C 33 %
3777 29-03-2020 06:30:18 2.9 C 33 %
3778 29-03-2020 06:40:18 3.2 C 32 %
3779 29-03-2020 06:50:17 3.3 C 33 %
3780 29-03-2020 07:00:18 3.4 C 33 %
3781 29-03-2020 07:10:18 3.5 C 34 %
3782 29-03-2020 07:20:17 3.5 C 35 %
3783 29-03-2020 07:30:17 3.6 C 35 %
3784 29-03-2020 07:40:17 3.7 C 35 %
3785 29-03-2020 07:50:17 3.7 C 35 %
3786 29-03-2020 08:00:18 3.8 C 35 %
3787 29-03-2020 08:10:18 3.8 C 35 %
3788 29-03-2020 08:20:17 4.1 C 33 %
3789 29-03-2020 08:30:17 4.1 C 33 %
3790 29-03-2020 08:40:17 4.3 C 33 %
3791 29-03-2020 08:50:17 4 C 33 %
3792 29-03-2020 09:00:17 4.3 C 33 %
3793 29-03-2020 09:10:17 4.2 C 32 %
3794 29-03-2020 09:20:17 4.1 C 33 %
3795 29-03-2020 09:30:17 4.2 C 33 %
3796 29-03-2020 09:40:17 4.5 C 32 %
3797 29-03-2020 09:50:17 4.8 C 32 %
3798 29-03-2020 10:00:17 5 C 31 %
3799 29-03-2020 10:10:17 5.3 C 31 %
3800 29-03-2020 10:20:17 5.8 C 30 %
Sensor: Nr:Datum:Temp:Feuchte:
Aussen-T/F 3801 29-03-2020 10:30:18 5.6 C 30 %
3802 29-03-2020 10:40:18 6.2 C 30 %
3803 29-03-2020 10:50:17 6.2 C 28 %
3804 29-03-2020 11:00:18 6.5 C 25 %
3805 29-03-2020 11:10:18 6.5 C 25 %
3806 29-03-2020 11:20:18 6 C 25 %
3807 29-03-2020 11:30:18 6.1 C 25 %
3808 29-03-2020 11:40:18 6.2 C 25 %
3809 29-03-2020 11:50:17 6.3 C 25 %
3810 29-03-2020 12:00:17 6.2 C 25 %
3811 29-03-2020 12:10:17 5.6 C 27 %
3812 29-03-2020 12:20:17 5.5 C 27 %
3813 29-03-2020 12:30:17 5.7 C 27 %
3814 29-03-2020 12:40:17 5.8 C 26 %
3815 29-03-2020 12:50:18 6.4 C 26 %
3816 29-03-2020 13:00:18 6.3 C 25 %
3817 29-03-2020 13:10:18 6.1 C 25 %
3818 29-03-2020 13:20:17 6.6 C 23 %
3819 29-03-2020 13:30:17 6.8 C 20 %
3820 29-03-2020 13:40:18 8.1 C 20 %
3821 29-03-2020 13:50:17 8.4 C 20 %
3822 29-03-2020 14:00:18 7.6 C 20 %
3823 29-03-2020 14:10:18 7.5 C 20 %
3824 29-03-2020 14:20:17 7 C 20 %
3825 29-03-2020 14:30:17 6.7 C 20 %
Sensor: Nr:Datum:Temp:Feuchte:
Aussen-T/F 3826 29-03-2020 14:40:17 6.5 C 20 %
3827 29-03-2020 14:50:17 6.7 C 20 %
3828 29-03-2020 15:00:17 7.2 C 20 %
3829 29-03-2020 15:10:17 7.4 C 20 %
3830 29-03-2020 15:20:17 7.4 C 20 %
3831 29-03-2020 15:30:18 7.6 C 20 %
3832 29-03-2020 15:40:18 7.6 C 20 %
3833 29-03-2020 15:50:17 8 C 20 %
3834 29-03-2020 16:00:18 7.4 C 20 %
3835 29-03-2020 16:10:18 7 C 20 %
3836 29-03-2020 16:20:17 6.7 C 20 %
3837 29-03-2020 16:30:18 6.5 C 20 %
3838 29-03-2020 16:40:18 6.6 C 20 %
3839 29-03-2020 16:50:18 6.8 C 20 %
3840 29-03-2020 17:00:18 7 C 20 %
3841 29-03-2020 17:10:18 6.8 C 20 %
3842 29-03-2020 17:20:17 7.4 C 20 %
3843 29-03-2020 17:30:17 7 C 20 %
3844 29-03-2020 17:40:17 7 C 20 %
3845 29-03-2020 17:50:18 6.8 C 25 %
3846 29-03-2020 18:00:18 7.1 C 23 %
3847 29-03-2020 18:10:18 6.5 C 25 %
3848 29-03-2020 18:20:18 6.2 C 25 %
3849 29-03-2020 18:30:18 5.3 C 29 %
3850 29-03-2020 18:40:18 4.4 C 35 %
Sensor: Nr:Datum:Temp:Feuchte:
Aussen-T/F 3851 29-03-2020 18:50:18 4.1 C 36 %
3852 29-03-2020 19:00:18 4 C 36 %
3853 29-03-2020 19:10:18 3.6 C 39 %
3854 29-03-2020 19:20:17 3.6 C 40 %
3855 29-03-2020 19:30:17 3.4 C 40 %
3856 29-03-2020 19:40:17 3.2 C 41 %
3857 29-03-2020 19:50:17 3.1 C 41 %
3858 29-03-2020 20:00:17 3 C 41 %
3859 29-03-2020 20:10:17 3 C 41 %
3860 29-03-2020 20:20:18 2.9 C 42 %
3861 29-03-2020 20:30:18 3 C 41 %
3862 29-03-2020 20:40:18 3.3 C 40 %
3863 29-03-2020 20:50:18 3.5 C 40 %
3864 29-03-2020 21:00:18 3.6 C 39 %
3865 29-03-2020 21:10:18 3.7 C 39 %
3866 29-03-2020 21:20:18 3.7 C 38 %
3867 29-03-2020 21:30:17 3.7 C 37 %
3868 29-03-2020 21:40:17 3.8 C 37 %
3869 29-03-2020 21:50:17 3.8 C 37 %
3870 29-03-2020 22:00:17 3.7 C 37 %
3871 29-03-2020 22:10:17 3.7 C 36 %
3872 29-03-2020 22:20:18 3.7 C 36 %
3873 29-03-2020 22:30:18 3.6 C 36 %
3874 29-03-2020 22:40:18 3.6 C 36 %
3875 29-03-2020 22:50:18 3.6 C 35 %
Sensor: Nr:Datum:Temp:Feuchte:
Aussen-T/F 3876 29-03-2020 23:00:18 3.6 C 35 %
3877 29-03-2020 23:10:18 3.5 C 35 %
3878 29-03-2020 23:20:17 3.4 C 34 %
3879 29-03-2020 23:30:17 3.3 C 33 %
3880 29-03-2020 23:40:17 3.1 C 33 %
3881 29-03-2020 23:50:17 2.9 C 33 %
3882 30-03-2020 00:00:18 2.5 C 34 %
3883 30-03-2020 00:10:18 2.4 C 33 %
3884 30-03-2020 00:20:17 2.4 C 33 %
3885 30-03-2020 00:30:17 1.7 C 35 %
3886 30-03-2020 00:40:17 1 C 36 %
3887 30-03-2020 00:50:17 0.3 C 38 %
3888 30-03-2020 01:00:18 0.2 C 38 %
3889 30-03-2020 01:10:18 0.3 C 38 %
3890 30-03-2020 01:20:17 0.3 C 37 %
3891 30-03-2020 01:30:18 0.5 C 36 %
3892 30-03-2020 01:40:18 -0.1 C 37 %
3893 30-03-2020 01:50:17 -0.3 C 37 %
3894 30-03-2020 02:00:17 -0.8 C 38 %
3895 30-03-2020 02:10:17 -0.9 C 38 %
3896 30-03-2020 02:20:17 -1.5 C 39 %
3897 30-03-2020 02:30:18 -1.7 C 39 %
3898 30-03-2020 02:40:18 -1.6 C 40 %
3899 30-03-2020 02:50:17 -1.6 C 39 %
3900 30-03-2020 03:00:18 -1.7 C 39 %
Sensor: Nr:Datum:Temp:Feuchte:
Aussen-T/F 3901 30-03-2020 03:10:18 -1.3 C 38 %
3902 30-03-2020 03:20:18 -1.7 C 39 %
3903 30-03-2020 03:30:18 -2.2 C 40 %
3904 30-03-2020 03:40:18 -2.1 C 40 %
3905 30-03-2020 03:50:17 -2.1 C 40 %
3906 30-03-2020 04:00:18 -1.9 C 39 %
3907 30-03-2020 04:10:18 -2.2 C 39 %
3908 30-03-2020 04:20:17 -2 C 39 %
3909 30-03-2020 04:30:17 -2.4 C 39 %
3910 30-03-2020 04:40:17 -2.6 C 39 %
3911 30-03-2020 04:50:17 -2.4 C 39 %
3912 30-03-2020 05:00:17 -2.4 C 38 %
3913 30-03-2020 05:10:17 -2.5 C 38 %
3914 30-03-2020 05:20:17 -2.7 C 38 %
3915 30-03-2020 05:30:18 -3 C 39 %
3916 30-03-2020 05:40:18 -3 C 38 %
3917 30-03-2020 05:50:17 -3 C 38 %
3918 30-03-2020 06:00:18 -3 C 38 %
3919 30-03-2020 06:10:18 -3.4 C 38 %
3920 30-03-2020 06:20:17 -3.7 C 39 %
3921 30-03-2020 06:30:17 -3.9 C 40 %
3922 30-03-2020 06:40:17 -4.1 C 40 %
3923 30-03-2020 06:50:17 -3.3 C 39 %
3924 30-03-2020 07:00:17 -3.7 C 40 %
3925 30-03-2020 07:10:17 -3.2 C 39 %
Sensor: Nr:Datum:Temp:Feuchte:
Aussen-T/F 3926 30-03-2020 07:20:17 -3.8 C 39 %
3927 30-03-2020 07:30:18 -4.3 C 40 %
3928 30-03-2020 07:40:18 -4.5 C 40 %
3929 30-03-2020 07:50:17 -4.5 C 40 %
3930 30-03-2020 08:00:18 -3.8 C 40 %
3931 30-03-2020 08:10:18 -3.9 C 40 %
3932 30-03-2020 08:20:18 -4.1 C 40 %
3933 30-03-2020 08:30:18 -3.7 C 39 %
3934 30-03-2020 08:40:18 -3.3 C 39 %
3935 30-03-2020 08:50:17 -3.2 C 38 %
3936 30-03-2020 09:00:18 -3.1 C 38 %
3937 30-03-2020 09:10:18 -2.7 C 37 %
3938 30-03-2020 09:20:18 -2.6 C 37 %
3939 30-03-2020 09:30:18 -2.5 C 37 %
3940 30-03-2020 09:40:18 -2.1 C 37 %
3941 30-03-2020 09:50:18 -2.1 C 37 %
3942 30-03-2020 10:00:18 -1.6 C 36 %
3943 30-03-2020 10:10:18 -1.7 C 37 %
3944 30-03-2020 10:20:17 -1.5 C 37 %
3945 30-03-2020 10:30:17 -1.3 C 36 %
3946 30-03-2020 10:40:17 0.1 C 31 %
3947 30-03-2020 10:50:17 1 C 21 %
3948 30-03-2020 11:00:17 1.1 C 23 %
3949 30-03-2020 11:10:18 2 C 20 %
3950 30-03-2020 11:20:18 2.4 C 20 %
Sensor: Nr:Datum:Temp:Feuchte:
Aussen-T/F 3951 30-03-2020 11:30:18 2.8 C 20 %
3952 30-03-2020 11:40:18 2.9 C 20 %
3953 30-03-2020 11:50:18 3.2 C 20 %
3954 30-03-2020 12:00:18 3.7 C 20 %
3955 30-03-2020 12:10:18 4 C 20 %
3956 30-03-2020 12:20:18 6.4 C 20 %
3957 30-03-2020 12:30:18 7.6 C 20 %
3958 30-03-2020 12:40:18 6.3 C 20 %
3959 30-03-2020 12:50:18 5.1 C 20 %
3960 30-03-2020 13:00:18 6.6 C 20 %
3961 30-03-2020 13:10:18 6.5 C 20 %
3962 30-03-2020 13:20:18 5.6 C 20 %
3963 30-03-2020 13:30:17 5.9 C 20 %
3964 30-03-2020 13:40:17 7 C 20 %
3965 30-03-2020 13:50:17 6.4 C 20 %
3966 30-03-2020 14:00:17 7.1 C 20 %
3967 30-03-2020 14:10:17 8.4 C 20 %
3968 30-03-2020 14:20:18 8.9 C 20 %
3969 30-03-2020 14:30:18 9.5 C 20 %
3970 30-03-2020 14:40:18 9.7 C 20 %
3971 30-03-2020 14:50:18 10.8 C 20 %
3972 30-03-2020 15:00:18 11.3 C 20 %
3973 30-03-2020 15:10:18 11.7 C 20 %
3974 30-03-2020 15:20:17 11.6 C 20 %
3975 30-03-2020 15:30:18 13.5 C 20 %
Sensor: Nr:Datum:Temp:Feuchte:
Aussen-T/F 3976 30-03-2020 15:40:18 13.6 C 20 %
3977 30-03-2020 15:50:18 11.9 C 20 %
3978 30-03-2020 16:00:18 12.9 C 20 %
3979 30-03-2020 16:10:18 13.6 C 20 %
3980 30-03-2020 16:20:17 15.2 C 20 %
3981 30-03-2020 16:30:18 9.9 C 20 %
3982 30-03-2020 16:40:18 13.9 C 20 %
3983 30-03-2020 16:50:18 13.6 C 20 %
3984 30-03-2020 17:00:17 10.1 C 20 %
3985 30-03-2020 17:10:17 13.4 C 20 %
3986 30-03-2020 17:20:18 12.5 C 20 %
3987 30-03-2020 17:30:18 12.6 C 20 %
3988 30-03-2020 17:40:18 11.6 C 20 %
3989 30-03-2020 17:50:18 10.2 C 20 %
3990 30-03-2020 18:00:18 8.7 C 20 %
3991 30-03-2020 18:10:18 7.6 C 20 %
3992 30-03-2020 18:20:18 7.9 C 20 %
3993 30-03-2020 18:30:18 8.2 C 20 %
3994 30-03-2020 18:40:18 7.7 C 20 %
3995 30-03-2020 18:50:18 7.8 C 20 %
3996 30-03-2020 19:00:18 7.3 C 20 %
3997 30-03-2020 19:10:18 7.1 C 20 %
3998 30-03-2020 19:20:17 6.5 C 20 %
3999 30-03-2020 19:30:18 6.3 C 20 %
4000 30-03-2020 19:40:18 5.8 C 20 %
Sensor: Nr:Datum:Temp:Feuchte:
Aussen-T/F 4001 30-03-2020 19:50:17 5 C 20 %
4002 30-03-2020 20:00:18 3.8 C 27 %
4003 30-03-2020 20:10:18 3 C 30 %
4004 30-03-2020 20:20:17 2.8 C 30 %
4005 30-03-2020 20:30:18 3.3 C 31 %
4006 30-03-2020 20:40:18 3.2 C 30 %
4007 30-03-2020 20:50:18 3.3 C 31 %
4008 30-03-2020 21:00:18 4 C 29 %
4009 30-03-2020 21:10:18 4.1 C 29 %
4010 30-03-2020 21:20:18 4.2 C 30 %
4011 30-03-2020 21:30:18 4.3 C 30 %
4012 30-03-2020 21:40:18 4.2 C 30 %
4013 30-03-2020 21:50:18 4.1 C 30 %
4014 30-03-2020 22:00:18 3.7 C 32 %
4015 30-03-2020 22:10:18 3.7 C 33 %
4016 30-03-2020 22:20:17 3.9 C 32 %
4017 30-03-2020 22:30:18 4 C 31 %
4018 30-03-2020 22:40:18 4.1 C 31 %
4019 30-03-2020 22:50:18 4.2 C 31 %
4020 30-03-2020 23:00:18 4.1 C 31 %
4021 30-03-2020 23:10:18 4.2 C 30 %
4022 30-03-2020 23:20:18 4.2 C 31 %
4023 30-03-2020 23:30:18 4.1 C 31 %
4024 30-03-2020 23:40:18 4.2 C 31 %
4025 30-03-2020 23:50:17 4.2 C 31 %
Sensor: Nr:Datum:Temp:Feuchte:
Aussen-T/F 4026 31-03-2020 00:00:18 4.3 C 30 %
4027 31-03-2020 00:10:18 4.3 C 30 %
4028 31-03-2020 00:20:18 4.2 C 31 %
4029 31-03-2020 00:30:18 4.2 C 31 %
4030 31-03-2020 00:40:18 4.2 C 31 %
4031 31-03-2020 00:50:18 4.3 C 31 %
4032 31-03-2020 01:00:18 4.4 C 32 %
4033 31-03-2020 01:10:18 4 C 34 %
4034 31-03-2020 01:20:18 3.8 C 36 %
4035 31-03-2020 01:30:18 3.8 C 36 %
4036 31-03-2020 01:40:18 3.7 C 37 %
4037 31-03-2020 01:50:18 4 C 37 %
4038 31-03-2020 02:00:18 3.9 C 38 %
4039 31-03-2020 02:10:18 3.4 C 39 %
4040 31-03-2020 02:20:17 3.5 C 39 %
4041 31-03-2020 02:30:18 3.7 C 39 %
4042 31-03-2020 02:40:18 3.3 C 40 %
4043 31-03-2020 02:50:18 2.8 C 41 %
4044 31-03-2020 03:00:18 2.5 C 41 %
4045 31-03-2020 03:10:18 2.2 C 42 %
4046 31-03-2020 03:20:17 2.4 C 42 %
4047 31-03-2020 03:30:18 2.3 C 42 %
4048 31-03-2020 03:40:18 2.3 C 43 %
4049 31-03-2020 03:50:18 2.7 C 43 %
4050 31-03-2020 04:00:18 2.9 C 42 %
Sensor: Nr:Datum:Temp:Feuchte:
Aussen-T/F 4051 31-03-2020 04:10:18 3 C 42 %
4052 31-03-2020 04:20:18 3.1 C 42 %
4053 31-03-2020 04:30:17 3.2 C 42 %
4054 31-03-2020 04:40:18 3.2 C 41 %
4055 31-03-2020 04:50:17 3.5 C 41 %
4056 31-03-2020 05:00:18 3.4 C 41 %
4057 31-03-2020 05:10:18 3 C 41 %
4058 31-03-2020 05:20:17 2.8 C 43 %
4059 31-03-2020 05:30:18 2.5 C 43 %
4060 31-03-2020 05:40:18 2.3 C 43 %
4061 31-03-2020 05:50:18 1.9 C 44 %
4062 31-03-2020 06:00:18 1.7 C 44 %
4063 31-03-2020 06:10:18 1.6 C 45 %
4064 31-03-2020 06:20:18 1.5 C 45 %
4065 31-03-2020 06:30:18 1.7 C 45 %
4066 31-03-2020 06:40:18 2 C 45 %
4067 31-03-2020 06:50:18 2.1 C 45 %
4068 31-03-2020 07:00:18 2.2 C 45 %
4069 31-03-2020 07:10:18 2.3 C 45 %
4070 31-03-2020 07:20:18 2.2 C 44 %
4071 31-03-2020 07:30:18 2.1 C 44 %
4072 31-03-2020 07:40:18 1.7 C 45 %
4073 31-03-2020 07:50:17 2 C 45 %
4074 31-03-2020 08:00:18 2.5 C 45 %
4075 31-03-2020 08:10:18 3.1 C 43 %
Sensor: Nr:Datum:Temp:Feuchte:
Aussen-T/F 4076 31-03-2020 08:20:18 3.3 C 42 %
4077 31-03-2020 08:30:18 3.5 C 41 %
4078 31-03-2020 08:40:18 3.7 C 40 %
4079 31-03-2020 08:50:17 4 C 38 %
4080 31-03-2020 09:00:18 3.9 C 38 %
4081 31-03-2020 09:10:18 3.9 C 37 %
4082 31-03-2020 09:20:18 4 C 36 %
4083 31-03-2020 09:30:17 4 C 36 %
4084 31-03-2020 09:40:17 4.1 C 35 %
4085 31-03-2020 09:50:18 4.3 C 35 %
4086 31-03-2020 10:00:18 4.8 C 34 %
4087 31-03-2020 10:10:18 4.7 C 34 %
4088 31-03-2020 10:20:18 4.5 C 34 %
4089 31-03-2020 10:30:18 4.4 C 34 %
4090 31-03-2020 10:40:18 4.3 C 34 %
4091 31-03-2020 10:50:17 4.3 C 33 %
4092 31-03-2020 11:00:17 4.3 C 33 %
4093 31-03-2020 11:10:17 4.4 C 32 %
4094 31-03-2020 11:20:18 4.7 C 31 %
4095 31-03-2020 11:30:18 5.4 C 30 %
4096 31-03-2020 11:40:18 5.3 C 30 %
4097 31-03-2020 11:50:17 5.3 C 29 %
4098 31-03-2020 12:00:18 5.6 C 27 %
4099 31-03-2020 12:10:18 6.3 C 25 %
4100 31-03-2020 12:20:17 6.4 C 20 %
Sensor: Nr:Datum:Temp:Feuchte:
Aussen-T/F 4101 31-03-2020 12:30:18 9.2 C 20 %
4102 31-03-2020 12:40:18 8.4 C 20 %
4103 31-03-2020 12:50:18 7 C 20 %
4104 31-03-2020 13:00:17 7.5 C 20 %
4105 31-03-2020 13:10:17 7.1 C 20 %
4106 31-03-2020 13:20:17 7.3 C 20 %
4107 31-03-2020 13:30:17 7 C 20 %
4108 31-03-2020 13:40:17 8.1 C 20 %
4109 31-03-2020 13:51:17 8.4 C 20 %
4110 31-03-2020 14:00:17 8.5 C 20 %
4111 31-03-2020 14:10:17 9.7 C 20 %
4112 31-03-2020 14:20:17 11.2 C 20 %
4113 31-03-2020 14:30:17 12.6 C 20 %
4114 31-03-2020 14:40:17 11.7 C 20 %
4115 31-03-2020 14:51:17 12 C 20 %
4116 31-03-2020 15:00:17 12 C 20 %
4117 31-03-2020 15:10:18 13.1 C 20 %
4118 31-03-2020 15:20:17 13.2 C 20 %
4119 31-03-2020 15:30:17 13.5 C 20 %
4120 31-03-2020 15:40:17 14.6 C 20 %
4121 31-03-2020 15:50:18 13.9 C 20 %
4122 31-03-2020 16:00:17 16.8 C 20 %
4123 31-03-2020 16:10:17 14.8 C 20 %
4124 31-03-2020 16:20:17 15.8 C 20 %
4125 31-03-2020 16:31:17 15.1 C 20 %
Sensor: Nr:Datum:Temp:Feuchte:
Aussen-T/F 4126 31-03-2020 16:40:17 14 C 20 %
4127 31-03-2020 16:50:17 13.3 C 20 %
4128 31-03-2020 17:00:17 14.4 C 20 %
4129 31-03-2020 17:10:17 16.2 C 20 %
4130 31-03-2020 17:21:17 15.3 C 20 %
4131 31-03-2020 17:31:17 14.7 C 20 %
4132 31-03-2020 17:40:17 15.5 C 20 %
4133 31-03-2020 17:51:17 10.6 C 20 %
4134 31-03-2020 18:01:17 10.5 C 20 %
4135 31-03-2020 18:11:17 10.2 C 20 %
4136 31-03-2020 18:21:17 9.8 C 20 %
4137 31-03-2020 18:31:17 9.6 C 20 %
4138 31-03-2020 18:40:17 9.4 C 20 %
4139 31-03-2020 18:51:17 9.1 C 20 %
4140 31-03-2020 19:00:17 9.1 C 20 %
4141 31-03-2020 19:10:17 8.8 C 20 %
4142 31-03-2020 19:20:17 8.7 C 20 %
4143 31-03-2020 19:31:17 8.2 C 20 %
4144 31-03-2020 19:41:17 7.7 C 20 %
4145 31-03-2020 19:50:17 6.6 C 20 %
4146 31-03-2020 20:01:17 5.6 C 20 %
4147 31-03-2020 20:11:17 5.5 C 20 %
4148 31-03-2020 20:21:17 5.3 C 20 %
4149 31-03-2020 20:31:17 4.7 C 20 %
4150 31-03-2020 20:41:17 4.4 C 20 %
Sensor: Nr:Datum:Temp:Feuchte:
Aussen-T/F 4151 31-03-2020 20:51:17 4 C 20 %
4152 31-03-2020 21:00:17 3.7 C 20 %
4153 31-03-2020 21:10:18 3.9 C 20 %
4154 31-03-2020 21:21:17 3.7 C 20 %
4155 31-03-2020 21:31:17 3.5 C 20 %
4156 31-03-2020 21:41:17 3.2 C 23 %
4157 31-03-2020 21:51:17 3.2 C 23 %
4158 31-03-2020 22:00:18 3 C 23 %
4159 31-03-2020 22:10:18 2.7 C 25 %
4160 31-03-2020 22:21:17 2.7 C 25 %
4161 31-03-2020 22:31:17 2.6 C 25 %
4162 31-03-2020 22:41:17 1.8 C 30 %
4163 31-03-2020 22:50:18 1.6 C 30 %
4164 31-03-2020 23:01:17 1.6 C 30 %
4165 31-03-2020 23:11:17 1.7 C 30 %
4166 31-03-2020 23:21:17 1.4 C 31 %
4167 31-03-2020 23:30:17 1.3 C 31 %
4168 31-03-2020 23:40:18 1.6 C 31 %
4169 31-03-2020 23:51:17 0.9 C 32 %
Sensor: Nr:Datum:Temp:Feuchte:
G-T/H 1 03-03-2020 00:08:18 9.9 C 75 %
2 03-03-2020 00:18:18 9.9 C 75 %
3 03-03-2020 00:28:18 9.9 C 75 %
4 03-03-2020 00:38:18 9.9 C 75 %
5 03-03-2020 00:48:17 9.9 C 75 %
6 03-03-2020 00:58:17 9.9 C 75 %
7 03-03-2020 01:08:17 9.9 C 75 %
8 03-03-2020 01:18:17 9.9 C 75 %
9 03-03-2020 01:28:17 9.9 C 75 %
10 03-03-2020 01:38:18 9.9 C 75 %
11 03-03-2020 01:48:17 9.9 C 75 %
12 03-03-2020 01:58:17 9.9 C 75 %
13 03-03-2020 02:08:17 9.9 C 75 %
14 03-03-2020 02:18:17 9.9 C 75 %
15 03-03-2020 02:28:17 9.9 C 75 %
16 03-03-2020 02:38:18 9.9 C 75 %
17 03-03-2020 02:48:18 9.9 C 75 %
18 03-03-2020 02:58:18 9.9 C 75 %
19 03-03-2020 03:08:17 9.9 C 75 %
20 03-03-2020 03:18:17 9.9 C 75 %
21 03-03-2020 03:28:17 9.9 C 74 %
22 03-03-2020 03:38:18 9.9 C 74 %
23 03-03-2020 03:48:18 9.8 C 74 %
24 03-03-2020 03:58:18 9.9 C 74 %
25 03-03-2020 04:08:17 9.8 C 74 %
Sensor: Nr:Datum:Temp:Feuchte:
G-T/H 26 03-03-2020 04:18:17 9.8 C 74 %
27 03-03-2020 04:28:17 9.8 C 74 %
28 03-03-2020 04:38:18 9.8 C 74 %
29 03-03-2020 04:48:17 9.8 C 74 %
30 03-03-2020 04:58:18 9.8 C 74 %
31 03-03-2020 05:08:18 9.8 C 74 %
32 03-03-2020 05:18:18 9.8 C 74 %
33 03-03-2020 05:28:18 9.8 C 74 %
34 03-03-2020 05:38:17 9.7 C 74 %
35 03-03-2020 05:48:18 9.8 C 74 %
36 03-03-2020 05:58:18 9.7 C 74 %
37 03-03-2020 06:08:17 9.7 C 74 %
38 03-03-2020 06:18:18 9.7 C 74 %
39 03-03-2020 06:28:18 9.7 C 74 %
40 03-03-2020 06:38:17 9.7 C 74 %
41 03-03-2020 06:48:18 9.7 C 74 %
42 03-03-2020 06:58:18 9.6 C 74 %
43 03-03-2020 07:08:18 9.7 C 73 %
44 03-03-2020 07:18:18 9.7 C 73 %
45 03-03-2020 07:28:18 9.6 C 73 %
46 03-03-2020 07:38:18 9.6 C 73 %
47 03-03-2020 07:48:17 9.6 C 73 %
48 03-03-2020 07:58:17 9.6 C 73 %
49 03-03-2020 08:08:18 9.6 C 73 %
50 03-03-2020 08:18:18 9.6 C 73 %
Sensor: Nr:Datum:Temp:Feuchte:
G-T/H 51 03-03-2020 08:28:18 9.6 C 73 %
52 03-03-2020 08:38:17 9.6 C 73 %
53 03-03-2020 08:48:17 9.6 C 73 %
54 03-03-2020 08:58:18 9.5 C 73 %
55 03-03-2020 09:08:18 9.5 C 73 %
56 03-03-2020 09:18:17 9.5 C 73 %
57 03-03-2020 09:28:17 9.5 C 73 %
58 03-03-2020 09:38:17 9.5 C 73 %
59 03-03-2020 09:48:18 9.5 C 73 %
60 03-03-2020 09:58:18 9.5 C 73 %
61 03-03-2020 10:08:18 9.5 C 73 %
62 03-03-2020 10:18:18 9.5 C 73 %
63 03-03-2020 10:28:18 9.5 C 73 %
64 03-03-2020 10:38:18 9.5 C 73 %
65 03-03-2020 10:48:17 9.5 C 73 %
66 03-03-2020 10:58:18 9.5 C 73 %
67 03-03-2020 11:08:17 9.5 C 73 %
68 03-03-2020 11:18:17 9.4 C 73 %
69 03-03-2020 11:28:17 9.5 C 73 %
70 03-03-2020 11:38:17 9.5 C 73 %
71 03-03-2020 11:48:17 9.4 C 73 %
72 03-03-2020 11:58:17 9.5 C 73 %
73 03-03-2020 12:08:17 9.4 C 73 %
74 03-03-2020 12:18:17 9.4 C 73 %
75 03-03-2020 12:28:17 9.4 C 73 %
Sensor: Nr:Datum:Temp:Feuchte:
G-T/H 76 03-03-2020 12:38:17 9.4 C 73 %
77 03-03-2020 12:48:17 9.4 C 73 %
78 03-03-2020 12:58:17 9.4 C 73 %
79 03-03-2020 13:08:17 9.4 C 73 %
80 03-03-2020 13:18:17 9.4 C 73 %
81 03-03-2020 13:28:18 9.4 C 74 %
82 03-03-2020 13:38:18 9.5 C 74 %
83 03-03-2020 13:48:17 9.4 C 74 %
84 03-03-2020 13:58:17 9.4 C 74 %
85 03-03-2020 14:08:18 9.4 C 74 %
86 03-03-2020 14:18:18 9.5 C 74 %
87 03-03-2020 14:28:18 9.5 C 74 %
88 03-03-2020 14:38:18 9.5 C 74 %
89 03-03-2020 14:48:18 9.5 C 74 %
90 03-03-2020 14:58:18 9.5 C 74 %
91 03-03-2020 15:08:18 9.5 C 74 %
92 03-03-2020 15:18:18 9.5 C 74 %
93 03-03-2020 15:28:18 9.4 C 74 %
94 03-03-2020 15:38:18 9.4 C 74 %
95 03-03-2020 15:48:17 9.4 C 74 %
96 03-03-2020 15:58:17 9.4 C 74 %
97 03-03-2020 16:08:18 9.5 C 74 %
98 03-03-2020 16:18:18 9.5 C 74 %
99 03-03-2020 16:28:18 9.5 C 74 %
100 03-03-2020 16:38:18 9.5 C 74 %
Sensor: Nr:Datum:Temp:Feuchte:
G-T/H 101 03-03-2020 16:48:17 9.5 C 74 %
102 03-03-2020 16:58:17 9.3 C 73 %
103 03-03-2020 17:08:17 9.2 C 71 %
104 03-03-2020 17:18:17 9.3 C 71 %
105 03-03-2020 17:28:18 9.3 C 71 %
106 03-03-2020 17:38:18 9.3 C 71 %
107 03-03-2020 17:48:17 9.4 C 71 %
108 03-03-2020 17:58:18 9.4 C 72 %
109 03-03-2020 18:08:18 9.4 C 72 %
110 03-03-2020 18:18:18 9.4 C 72 %
111 03-03-2020 18:28:18 9.4 C 72 %
112 03-03-2020 18:38:18 9.4 C 72 %
113 03-03-2020 18:48:17 9.4 C 72 %
114 03-03-2020 18:58:17 9.4 C 72 %
115 03-03-2020 19:08:17 9.4 C 72 %
116 03-03-2020 19:18:17 9.4 C 72 %
117 03-03-2020 19:28:17 9.4 C 73 %
118 03-03-2020 19:38:17 9.4 C 73 %
119 03-03-2020 19:48:17 9.4 C 73 %
120 03-03-2020 19:58:17 9.3 C 73 %
121 03-03-2020 20:08:17 9.4 C 73 %
122 03-03-2020 20:18:17 9.3 C 73 %
123 03-03-2020 20:28:17 9.3 C 73 %
124 03-03-2020 20:38:17 9.3 C 73 %
125 03-03-2020 20:48:17 9.3 C 73 %
Sensor: Nr:Datum:Temp:Feuchte:
G-T/H 126 03-03-2020 20:58:17 9.3 C 73 %
127 03-03-2020 21:08:17 9.3 C 72 %
128 03-03-2020 21:18:17 9.3 C 72 %
129 03-03-2020 21:28:17 9.3 C 72 %
130 03-03-2020 21:38:17 9.3 C 72 %
131 03-03-2020 21:48:17 9.3 C 72 %
132 03-03-2020 21:58:17 9.3 C 72 %
133 03-03-2020 22:08:17 9.3 C 72 %
134 03-03-2020 22:18:17 9.3 C 72 %
135 03-03-2020 22:28:17 9.3 C 72 %
136 03-03-2020 22:38:17 9.2 C 72 %
137 03-03-2020 22:48:17 9.2 C 72 %
138 03-03-2020 22:58:17 9.2 C 72 %
139 03-03-2020 23:08:17 9.2 C 72 %
140 03-03-2020 23:18:18 9.2 C 72 %
141 03-03-2020 23:28:18 9.2 C 72 %
142 03-03-2020 23:38:17 9.2 C 72 %
143 03-03-2020 23:48:17 9.2 C 72 %
144 03-03-2020 23:58:17 9.2 C 72 %
145 04-03-2020 00:08:17 9.1 C 72 %
146 04-03-2020 00:18:18 9.1 C 72 %
147 04-03-2020 00:28:18 9.1 C 72 %
148 04-03-2020 00:38:18 9.1 C 72 %
149 04-03-2020 00:48:17 9.1 C 72 %
150 04-03-2020 00:58:17 9.1 C 72 %
Sensor: Nr:Datum:Temp:Feuchte:
G-T/H 151 04-03-2020 01:08:17 9.1 C 72 %
152 04-03-2020 01:18:17 9.1 C 72 %
153 04-03-2020 01:28:17 9.1 C 72 %
154 04-03-2020 01:38:17 9 C 72 %
155 04-03-2020 01:48:17 9 C 72 %
156 04-03-2020 01:58:17 9 C 72 %
157 04-03-2020 02:08:17 9 C 72 %
158 04-03-2020 02:18:17 9 C 72 %
159 04-03-2020 02:28:18 9 C 72 %
160 04-03-2020 02:38:18 9 C 72 %
161 04-03-2020 02:48:17 9 C 72 %
162 04-03-2020 02:58:18 9 C 72 %
163 04-03-2020 03:08:17 9 C 72 %
164 04-03-2020 03:18:17 9 C 72 %
165 04-03-2020 03:28:17 8.9 C 73 %
166 04-03-2020 03:38:17 8.9 C 73 %
167 04-03-2020 03:48:17 8.9 C 73 %
168 04-03-2020 03:58:18 8.9 C 73 %
169 04-03-2020 04:08:18 8.9 C 73 %
170 04-03-2020 04:18:18 8.9 C 73 %
171 04-03-2020 04:28:18 8.9 C 73 %
172 04-03-2020 04:38:18 8.9 C 73 %
173 04-03-2020 04:48:17 8.9 C 73 %
174 04-03-2020 04:58:18 8.9 C 73 %
175 04-03-2020 05:08:18 8.8 C 73 %
Sensor: Nr:Datum:Temp:Feuchte:
G-T/H 176 04-03-2020 05:18:18 8.8 C 73 %
177 04-03-2020 05:28:18 8.8 C 73 %
178 04-03-2020 05:38:18 8.8 C 73 %
179 04-03-2020 05:48:17 8.8 C 73 %
180 04-03-2020 05:58:18 8.8 C 73 %
181 04-03-2020 06:08:18 8.7 C 73 %
182 04-03-2020 06:18:18 8.8 C 73 %
183 04-03-2020 06:28:18 8.8 C 73 %
184 04-03-2020 06:38:18 8.8 C 73 %
185 04-03-2020 06:48:17 8.8 C 74 %
186 04-03-2020 06:58:17 8.8 C 74 %
187 04-03-2020 07:08:17 8.7 C 74 %
188 04-03-2020 07:18:17 8.8 C 74 %
189 04-03-2020 07:28:17 8.7 C 74 %
190 04-03-2020 07:38:18 8.7 C 74 %
191 04-03-2020 07:48:17 8.7 C 74 %
192 04-03-2020 07:58:17 8.7 C 74 %
193 04-03-2020 08:08:18 8.7 C 74 %
194 04-03-2020 08:18:17 8.7 C 74 %
195 04-03-2020 08:28:17 8.7 C 74 %
196 04-03-2020 08:38:18 8.7 C 74 %
197 04-03-2020 08:48:18 8.7 C 74 %
198 04-03-2020 08:58:18 8.7 C 74 %
199 04-03-2020 09:08:18 8.7 C 74 %
200 04-03-2020 09:18:18 8.7 C 74 %
Sensor: Nr:Datum:Temp:Feuchte:
G-T/H 201 04-03-2020 09:28:18 8.7 C 74 %
202 04-03-2020 09:38:18 8.7 C 74 %
203 04-03-2020 09:48:17 8.7 C 74 %
204 04-03-2020 09:58:18 8.7 C 74 %
205 04-03-2020 10:08:18 8.6 C 74 %
206 04-03-2020 10:18:18 8.7 C 74 %
207 04-03-2020 10:28:18 8.7 C 74 %
208 04-03-2020 10:38:17 8.7 C 74 %
209 04-03-2020 10:48:18 8.7 C 74 %
210 04-03-2020 10:58:18 8.7 C 74 %
211 04-03-2020 11:08:18 8.7 C 74 %
212 04-03-2020 11:18:18 8.7 C 74 %
213 04-03-2020 11:28:18 8.7 C 74 %
214 04-03-2020 11:38:18 8.7 C 74 %
215 04-03-2020 11:48:18 8.7 C 74 %
216 04-03-2020 11:58:18 8.7 C 74 %
217 04-03-2020 12:08:18 8.7 C 74 %
218 04-03-2020 12:18:18 8.7 C 74 %
219 04-03-2020 12:28:18 8.7 C 74 %
220 04-03-2020 12:38:18 8.7 C 74 %
221 04-03-2020 12:48:17 8.8 C 74 %
222 04-03-2020 12:58:17 8.8 C 74 %
223 04-03-2020 13:08:17 8.8 C 74 %
224 04-03-2020 13:18:17 8.8 C 74 %
225 04-03-2020 13:28:17 8.8 C 74 %
Sensor: Nr:Datum:Temp:Feuchte:
G-T/H 226 04-03-2020 13:38:18 8.8 C 74 %
227 04-03-2020 13:48:17 8.8 C 74 %
228 04-03-2020 13:58:17 8.9 C 74 %
229 04-03-2020 14:08:18 8.9 C 74 %
230 04-03-2020 14:18:18 8.9 C 74 %
231 04-03-2020 14:28:18 8.9 C 74 %
232 04-03-2020 14:38:18 8.9 C 75 %
233 04-03-2020 14:48:18 8.9 C 75 %
234 04-03-2020 14:58:18 9 C 74 %
235 04-03-2020 15:08:18 9 C 74 %
236 04-03-2020 15:18:18 9 C 74 %
237 04-03-2020 15:28:18 9 C 74 %
238 04-03-2020 15:38:18 9 C 74 %
239 04-03-2020 15:48:17 9 C 74 %
240 04-03-2020 15:58:18 9 C 74 %
241 04-03-2020 16:08:17 9.1 C 74 %
242 04-03-2020 16:18:17 9.1 C 74 %
243 04-03-2020 16:28:17 9.1 C 74 %
244 04-03-2020 16:38:17 9.1 C 74 %
245 04-03-2020 16:48:17 9.1 C 74 %
246 04-03-2020 16:58:17 9.1 C 74 %
247 04-03-2020 17:08:17 9.1 C 74 %
248 04-03-2020 17:18:17 9.1 C 74 %
249 04-03-2020 17:28:18 9.2 C 74 %
250 04-03-2020 17:38:18 9.2 C 74 %
Sensor: Nr:Datum:Temp:Feuchte:
G-T/H 251 04-03-2020 17:48:17 9.2 C 74 %
252 04-03-2020 17:58:17 9.2 C 74 %
253 04-03-2020 18:08:17 9.2 C 74 %
254 04-03-2020 18:18:17 9.2 C 74 %
255 04-03-2020 18:28:17 9.2 C 74 %
256 04-03-2020 18:38:17 9.2 C 74 %
257 04-03-2020 18:48:17 9.2 C 74 %
258 04-03-2020 18:58:17 9.2 C 74 %
259 04-03-2020 19:08:17 9.2 C 74 %
260 04-03-2020 19:18:17 9.2 C 74 %
261 04-03-2020 19:28:17 9.2 C 74 %
262 04-03-2020 19:38:17 9.2 C 74 %
263 04-03-2020 19:48:18 9.2 C 74 %
264 04-03-2020 19:58:18 9.2 C 74 %
265 04-03-2020 20:08:17 9.2 C 74 %
266 04-03-2020 20:18:17 9.2 C 74 %
267 04-03-2020 20:28:17 9.2 C 74 %
268 04-03-2020 20:38:17 9.2 C 74 %
269 04-03-2020 20:48:18 9.2 C 74 %
270 04-03-2020 20:58:18 9.2 C 74 %
271 04-03-2020 21:08:18 9.2 C 74 %
272 04-03-2020 21:18:18 9.2 C 74 %
273 04-03-2020 21:28:18 9.2 C 74 %
274 04-03-2020 21:38:18 9.2 C 74 %
275 04-03-2020 21:48:18 9.2 C 74 %
Sensor: Nr:Datum:Temp:Feuchte:
G-T/H 276 04-03-2020 21:58:18 9.2 C 74 %
277 04-03-2020 22:08:18 9.2 C 73 %
278 04-03-2020 22:18:17 9.2 C 73 %
279 04-03-2020 22:28:17 9.2 C 73 %
280 04-03-2020 22:38:17 9.2 C 73 %
281 04-03-2020 22:48:17 9.2 C 73 %
282 04-03-2020 22:58:17 9.2 C 73 %
283 04-03-2020 23:08:17 9.2 C 73 %
284 04-03-2020 23:18:17 9.2 C 73 %
285 04-03-2020 23:28:18 9.2 C 73 %
286 04-03-2020 23:38:18 9.2 C 73 %
287 04-03-2020 23:48:18 9.2 C 73 %
288 04-03-2020 23:58:18 9.2 C 73 %
289 05-03-2020 00:08:18 9.2 C 73 %
290 05-03-2020 00:18:18 9.2 C 73 %
291 05-03-2020 00:28:18 9.2 C 73 %
292 05-03-2020 00:38:17 9.1 C 73 %
293 05-03-2020 00:48:17 9.1 C 73 %
294 05-03-2020 00:58:17 9.1 C 73 %
295 05-03-2020 01:08:17 9.1 C 73 %
296 05-03-2020 01:18:17 9.1 C 73 %
297 05-03-2020 01:28:17 9.1 C 73 %
298 05-03-2020 01:38:17 9.1 C 73 %
299 05-03-2020 01:48:18 9.1 C 73 %
300 05-03-2020 01:58:18 9.1 C 73 %
Sensor: Nr:Datum:Temp:Feuchte:
G-T/H 301 05-03-2020 02:08:18 9.1 C 73 %
302 05-03-2020 02:18:18 9.1 C 73 %
303 05-03-2020 02:28:18 9.1 C 73 %
304 05-03-2020 02:38:18 9.1 C 73 %
305 05-03-2020 02:48:18 9.1 C 73 %
306 05-03-2020 02:58:18 9.1 C 73 %
307 05-03-2020 03:08:18 9.1 C 73 %
308 05-03-2020 03:18:17 9.1 C 73 %
309 05-03-2020 03:28:17 9 C 73 %
310 05-03-2020 03:38:17 9 C 73 %
311 05-03-2020 03:48:17 9 C 73 %
312 05-03-2020 03:58:17 9.1 C 73 %
313 05-03-2020 04:08:17 9 C 73 %
314 05-03-2020 04:18:17 9.1 C 73 %
315 05-03-2020 04:28:18 9 C 73 %
316 05-03-2020 04:38:18 9 C 73 %
317 05-03-2020 04:48:17 9 C 73 %
318 05-03-2020 04:58:18 9 C 73 %
319 05-03-2020 05:08:18 9 C 73 %
320 05-03-2020 05:18:18 9 C 73 %
321 05-03-2020 05:28:18 9 C 73 %
322 05-03-2020 05:38:18 9 C 73 %
323 05-03-2020 05:48:17 9 C 73 %
324 05-03-2020 05:58:18 9 C 73 %
325 05-03-2020 06:08:18 9 C 73 %
Sensor: Nr:Datum:Temp:Feuchte:
G-T/H 326 05-03-2020 06:18:18 9 C 73 %
327 05-03-2020 06:28:18 9 C 73 %
328 05-03-2020 06:38:18 9 C 73 %
329 05-03-2020 06:48:17 9 C 73 %
330 05-03-2020 06:58:17 9 C 73 %
331 05-03-2020 07:08:18 9 C 73 %
332 05-03-2020 07:18:17 9 C 73 %
333 05-03-2020 07:28:18 9 C 73 %
334 05-03-2020 07:38:18 9 C 73 %
335 05-03-2020 07:48:17 9 C 73 %
336 05-03-2020 07:58:17 9 C 73 %
337 05-03-2020 08:08:18 9 C 74 %
338 05-03-2020 08:18:18 9 C 73 %
339 05-03-2020 08:28:18 9 C 74 %
340 05-03-2020 08:38:17 9 C 74 %
341 05-03-2020 08:48:17 9 C 74 %
342 05-03-2020 08:58:17 9 C 74 %
343 05-03-2020 09:08:17 9 C 74 %
344 05-03-2020 09:18:17 9 C 74 %
345 05-03-2020 09:28:17 9 C 74 %
346 05-03-2020 09:38:17 9 C 74 %
347 05-03-2020 09:48:17 9 C 74 %
348 05-03-2020 09:58:17 9 C 74 %
349 05-03-2020 10:08:18 9 C 74 %
350 05-03-2020 10:18:17 9 C 74 %
Sensor: Nr:Datum:Temp:Feuchte:
G-T/H 351 05-03-2020 10:28:17 9 C 74 %
352 05-03-2020 10:38:18 9 C 74 %
353 05-03-2020 10:48:18 9 C 74 %
354 05-03-2020 10:58:18 9 C 74 %
355 05-03-2020 11:08:17 9 C 74 %
356 05-03-2020 11:18:17 9 C 74 %
357 05-03-2020 11:28:17 9 C 74 %
358 05-03-2020 11:38:18 9 C 74 %
359 05-03-2020 11:48:18 9 C 74 %
360 05-03-2020 11:58:18 9 C 74 %
361 05-03-2020 12:08:17 9 C 74 %
362 05-03-2020 12:18:17 9 C 74 %
363 05-03-2020 12:28:18 9 C 74 %
364 05-03-2020 12:38:18 9.1 C 74 %
365 05-03-2020 12:48:17 9.1 C 74 %
366 05-03-2020 12:58:17 9.1 C 74 %
367 05-03-2020 13:08:17 9.1 C 74 %
368 05-03-2020 13:18:17 9.1 C 74 %
369 05-03-2020 13:28:17 9.1 C 74 %
370 05-03-2020 13:38:17 9.1 C 74 %
371 05-03-2020 13:48:17 9.1 C 74 %
372 05-03-2020 13:58:17 9.1 C 74 %
373 05-03-2020 14:08:17 9.2 C 74 %
374 05-03-2020 14:18:17 9.2 C 74 %
375 05-03-2020 14:28:17 9.1 C 74 %
Sensor: Nr:Datum:Temp:Feuchte:
G-T/H 376 05-03-2020 14:38:17 9.2 C 74 %
377 05-03-2020 14:48:18 9.2 C 74 %
378 05-03-2020 14:58:18 9.2 C 74 %
379 05-03-2020 15:08:18 9.2 C 74 %
380 05-03-2020 15:18:18 9.2 C 74 %
381 05-03-2020 15:28:18 9.2 C 74 %
382 05-03-2020 15:38:18 9.2 C 74 %
383 05-03-2020 15:48:17 9.2 C 74 %
384 05-03-2020 15:58:17 9.2 C 74 %
385 05-03-2020 16:08:17 9.2 C 74 %
386 05-03-2020 16:18:17 9.2 C 75 %
387 05-03-2020 16:28:17 9.3 C 75 %
388 05-03-2020 16:38:17 9.3 C 75 %
389 05-03-2020 16:48:18 9.3 C 75 %
390 05-03-2020 16:58:18 9.3 C 75 %
391 05-03-2020 17:08:17 9.3 C 75 %
392 05-03-2020 17:18:17 9.3 C 75 %
393 05-03-2020 17:28:17 9.3 C 75 %
394 05-03-2020 17:38:17 9.3 C 75 %
395 05-03-2020 17:48:17 9.3 C 75 %
396 05-03-2020 17:58:17 9.3 C 75 %
397 05-03-2020 18:08:18 9.3 C 75 %
398 05-03-2020 18:18:17 9.3 C 75 %
399 05-03-2020 18:28:17 9.3 C 75 %
400 05-03-2020 18:38:17 9.3 C 75 %
Sensor: Nr:Datum:Temp:Feuchte:
G-T/H 401 05-03-2020 18:48:17 9.3 C 75 %
402 05-03-2020 18:58:17 9.3 C 75 %
403 05-03-2020 19:08:18 9.3 C 75 %
404 05-03-2020 19:18:17 9.3 C 75 %
405 05-03-2020 19:28:17 9.3 C 75 %
406 05-03-2020 19:38:17 9.3 C 75 %
407 05-03-2020 19:48:18 9.3 C 75 %
408 05-03-2020 19:58:18 9.4 C 75 %
409 05-03-2020 20:08:17 9.4 C 75 %
410 05-03-2020 20:18:17 9.4 C 75 %
411 05-03-2020 20:28:17 9.4 C 75 %
412 05-03-2020 20:38:18 9.4 C 75 %
413 05-03-2020 20:48:17 9.4 C 75 %
414 05-03-2020 20:58:17 9.4 C 75 %
415 05-03-2020 21:08:18 9.4 C 75 %
416 05-03-2020 21:18:17 9.4 C 75 %
417 05-03-2020 21:28:17 9.4 C 75 %
418 05-03-2020 21:38:17 9.4 C 75 %
419 05-03-2020 21:48:17 9.4 C 75 %
420 05-03-2020 21:58:17 9.4 C 75 %
421 05-03-2020 22:08:17 9.4 C 75 %
422 05-03-2020 22:18:17 9.4 C 75 %
423 05-03-2020 22:28:17 9.4 C 75 %
424 05-03-2020 22:38:18 9.5 C 75 %
425 05-03-2020 22:48:17 9.4 C 75 %
Sensor: Nr:Datum:Temp:Feuchte:
G-T/H 426 05-03-2020 22:58:17 9.4 C 75 %
427 05-03-2020 23:08:17 9.4 C 75 %
428 05-03-2020 23:18:17 9.4 C 75 %
429 05-03-2020 23:28:18 9.4 C 75 %
430 05-03-2020 23:38:18 9.5 C 75 %
431 05-03-2020 23:48:18 9.5 C 75 %
432 05-03-2020 23:58:18 9.5 C 75 %
433 06-03-2020 00:08:17 9.4 C 75 %
434 06-03-2020 00:18:17 9.4 C 75 %
435 06-03-2020 00:28:18 9.5 C 75 %
436 06-03-2020 00:38:18 9.5 C 75 %
437 06-03-2020 00:48:17 9.5 C 75 %
438 06-03-2020 00:58:17 9.5 C 75 %
439 06-03-2020 01:08:18 9.5 C 75 %
440 06-03-2020 01:18:17 9.5 C 75 %
441 06-03-2020 01:28:17 9.5 C 75 %
442 06-03-2020 01:38:18 9.5 C 75 %
443 06-03-2020 01:48:17 9.5 C 75 %
444 06-03-2020 01:58:18 9.5 C 75 %
445 06-03-2020 02:08:18 9.5 C 75 %
446 06-03-2020 02:18:18 9.5 C 75 %
447 06-03-2020 02:28:18 9.5 C 75 %
448 06-03-2020 02:38:17 9.5 C 75 %
449 06-03-2020 02:48:17 9.5 C 75 %
450 06-03-2020 02:58:17 9.5 C 75 %
Sensor: Nr:Datum:Temp:Feuchte:
G-T/H 451 06-03-2020 03:08:17 9.5 C 75 %
452 06-03-2020 03:18:18 9.5 C 75 %
453 06-03-2020 03:28:18 9.5 C 75 %
454 06-03-2020 03:38:18 9.5 C 75 %
455 06-03-2020 03:48:17 9.5 C 75 %
456 06-03-2020 03:58:18 9.5 C 75 %
457 06-03-2020 04:08:17 9.5 C 75 %
458 06-03-2020 04:18:17 9.5 C 75 %
459 06-03-2020 04:28:17 9.5 C 75 %
460 06-03-2020 04:38:18 9.5 C 75 %
461 06-03-2020 04:48:17 9.5 C 75 %
462 06-03-2020 04:58:18 9.5 C 75 %
463 06-03-2020 05:08:18 9.5 C 75 %
464 06-03-2020 05:18:18 9.5 C 75 %
465 06-03-2020 05:28:18 9.5 C 75 %
466 06-03-2020 05:38:18 9.5 C 75 %
467 06-03-2020 05:48:17 9.5 C 75 %
468 06-03-2020 05:58:17 9.5 C 75 %
469 06-03-2020 06:08:17 9.5 C 75 %
470 06-03-2020 06:18:17 9.5 C 75 %
471 06-03-2020 06:28:17 9.5 C 75 %
472 06-03-2020 06:38:18 9.5 C 75 %
473 06-03-2020 06:48:17 9.5 C 75 %
474 06-03-2020 06:58:17 9.5 C 75 %
475 06-03-2020 07:08:17 9.5 C 75 %
Sensor: Nr:Datum:Temp:Feuchte:
G-T/H 476 06-03-2020 07:18:18 9.5 C 75 %
477 06-03-2020 07:28:18 9.5 C 75 %
478 06-03-2020 07:38:18 9.5 C 75 %
479 06-03-2020 07:48:17 9.5 C 75 %
480 06-03-2020 07:58:18 9.5 C 75 %
481 06-03-2020 08:08:17 9.5 C 75 %
482 06-03-2020 08:18:17 9.5 C 75 %
483 06-03-2020 08:28:17 9.5 C 75 %
484 06-03-2020 08:38:17 9.5 C 75 %
485 06-03-2020 08:48:18 9.5 C 75 %
486 06-03-2020 08:58:18 9.5 C 75 %
487 06-03-2020 09:08:17 9.5 C 75 %
488 06-03-2020 09:18:17 9.5 C 75 %
489 06-03-2020 09:28:17 9.5 C 75 %
490 06-03-2020 09:38:18 9.5 C 75 %
491 06-03-2020 09:48:18 9.5 C 75 %
492 06-03-2020 09:58:18 9.5 C 75 %
493 06-03-2020 10:08:18 9.5 C 75 %
494 06-03-2020 10:18:18 9.5 C 75 %
495 06-03-2020 10:28:18 9.5 C 75 %
496 06-03-2020 10:38:18 9.5 C 75 %
497<